<?xml version="1.0" encoding="UTF-8" standalone="no" ?>
<gpx xmlns="http://www.topografix.com/GPX/1/1" xmlns:xsi="http://www.w3.org/2001/XMLSchema-instance" xsi:schemaLocation="http://www.topografix.com/GPX/1/1 http://www.topografix.com/GPX/1/1/gpx.xsd" version="1.1" creator="VisuGPX - https://www.visugpx.com">
  <metadata>
    <name>rando Thomery Moret/Loing de gare à gare </name>
    <desc><![CDATA[Très belle randonnée depuis la gare de Thomery . 22 km par les fameux chemins Denecourt-Colinet . Récit à retrouver sur [url]http://trekkingzone.wordpress.com[/url]]]></desc>
  </metadata>
  <trk>
    <name><![CDATA[3 févr. 2019 à 12:00:31]]></name>
    <cmt><![CDATA[3 févr. 2019 à 12:00:31]]></cmt>
    <trkseg>
      <trkpt lat="48.38735" lon="2.71326">
        <ele>90</ele>
        <time>2019-02-03T11:00:32Z</time>
      </trkpt>
      <trkpt lat="48.38735" lon="2.71326">
        <ele>90</ele>
        <time>2019-02-03T11:00:33Z</time>
      </trkpt>
      <trkpt lat="48.38735" lon="2.71326">
        <ele>90</ele>
        <time>2019-02-03T11:00:37Z</time>
      </trkpt>
      <trkpt lat="48.38735" lon="2.71326">
        <ele>90</ele>
        <time>2019-02-03T11:00:37Z</time>
      </trkpt>
      <trkpt lat="48.38733" lon="2.71333">
        <ele>90</ele>
        <time>2019-02-03T11:01:15Z</time>
      </trkpt>
      <trkpt lat="48.38723" lon="2.71334">
        <ele>91</ele>
        <time>2019-02-03T11:04:40Z</time>
      </trkpt>
      <trkpt lat="48.38714" lon="2.71342">
        <ele>91</ele>
        <time>2019-02-03T11:04:50Z</time>
      </trkpt>
      <trkpt lat="48.38699" lon="2.71342">
        <ele>90</ele>
        <time>2019-02-03T11:05:09Z</time>
      </trkpt>
      <trkpt lat="48.38695" lon="2.71344">
        <ele>90</ele>
        <time>2019-02-03T11:05:13Z</time>
      </trkpt>
      <trkpt lat="48.38663" lon="2.71342">
        <ele>90</ele>
        <time>2019-02-03T11:05:41Z</time>
      </trkpt>
      <trkpt lat="48.38654" lon="2.71336">
        <ele>89</ele>
        <time>2019-02-03T11:05:49Z</time>
      </trkpt>
      <trkpt lat="48.38649" lon="2.71335">
        <ele>89</ele>
        <time>2019-02-03T11:05:53Z</time>
      </trkpt>
      <trkpt lat="48.38633" lon="2.71327">
        <ele>88</ele>
        <time>2019-02-03T11:06:05Z</time>
      </trkpt>
      <trkpt lat="48.38622" lon="2.71327">
        <ele>87</ele>
        <time>2019-02-03T11:06:13Z</time>
      </trkpt>
      <trkpt lat="48.38617" lon="2.71324">
        <ele>87</ele>
        <time>2019-02-03T11:06:17Z</time>
      </trkpt>
      <trkpt lat="48.38602" lon="2.71331">
        <ele>86</ele>
        <time>2019-02-03T11:06:30Z</time>
      </trkpt>
      <trkpt lat="48.38598" lon="2.71334">
        <ele>86</ele>
        <time>2019-02-03T11:06:34Z</time>
      </trkpt>
      <trkpt lat="48.38565" lon="2.71333">
        <ele>85</ele>
        <time>2019-02-03T11:07:05Z</time>
      </trkpt>
      <trkpt lat="48.38559" lon="2.71332">
        <ele>85</ele>
        <time>2019-02-03T11:07:12Z</time>
      </trkpt>
      <trkpt lat="48.38546" lon="2.71345">
        <ele>84</ele>
        <time>2019-02-03T11:07:26Z</time>
      </trkpt>
      <trkpt lat="48.38539" lon="2.71354">
        <ele>84</ele>
        <time>2019-02-03T11:07:35Z</time>
      </trkpt>
      <trkpt lat="48.38536" lon="2.71361">
        <ele>84</ele>
        <time>2019-02-03T11:07:39Z</time>
      </trkpt>
      <trkpt lat="48.38525" lon="2.71372">
        <ele>83</ele>
        <time>2019-02-03T11:07:52Z</time>
      </trkpt>
      <trkpt lat="48.38521" lon="2.71376">
        <ele>83</ele>
        <time>2019-02-03T11:07:56Z</time>
      </trkpt>
      <trkpt lat="48.38504" lon="2.71387">
        <ele>83</ele>
        <time>2019-02-03T11:08:10Z</time>
      </trkpt>
      <trkpt lat="48.38492" lon="2.71393">
        <ele>81</ele>
        <time>2019-02-03T11:08:19Z</time>
      </trkpt>
      <trkpt lat="48.38484" lon="2.714">
        <ele>81</ele>
        <time>2019-02-03T11:08:26Z</time>
      </trkpt>
      <trkpt lat="48.38479" lon="2.71401">
        <ele>81</ele>
        <time>2019-02-03T11:08:30Z</time>
      </trkpt>
      <trkpt lat="48.38473" lon="2.71401">
        <ele>81</ele>
        <time>2019-02-03T11:08:36Z</time>
      </trkpt>
      <trkpt lat="48.38458" lon="2.71413">
        <ele>81</ele>
        <time>2019-02-03T11:08:50Z</time>
      </trkpt>
      <trkpt lat="48.38444" lon="2.71422">
        <ele>81</ele>
        <time>2019-02-03T11:09:07Z</time>
      </trkpt>
      <trkpt lat="48.38439" lon="2.71423">
        <ele>81</ele>
        <time>2019-02-03T11:09:12Z</time>
      </trkpt>
      <trkpt lat="48.38434" lon="2.71427">
        <ele>81</ele>
        <time>2019-02-03T11:09:17Z</time>
      </trkpt>
      <trkpt lat="48.38428" lon="2.71426">
        <ele>82</ele>
        <time>2019-02-03T11:09:24Z</time>
      </trkpt>
      <trkpt lat="48.38399" lon="2.71434">
        <ele>84</ele>
        <time>2019-02-03T11:09:48Z</time>
      </trkpt>
      <trkpt lat="48.3839" lon="2.71431">
        <ele>84</ele>
        <time>2019-02-03T11:09:57Z</time>
      </trkpt>
      <trkpt lat="48.38384" lon="2.71432">
        <ele>85</ele>
        <time>2019-02-03T11:10:11Z</time>
      </trkpt>
      <trkpt lat="48.38377" lon="2.71425">
        <ele>87</ele>
        <time>2019-02-03T11:10:23Z</time>
      </trkpt>
      <trkpt lat="48.38372" lon="2.7141">
        <ele>89</ele>
        <time>2019-02-03T11:10:35Z</time>
      </trkpt>
      <trkpt lat="48.38369" lon="2.71403">
        <ele>90</ele>
        <time>2019-02-03T11:10:45Z</time>
      </trkpt>
      <trkpt lat="48.38356" lon="2.71394">
        <ele>94</ele>
        <time>2019-02-03T11:11:12Z</time>
      </trkpt>
      <trkpt lat="48.3835" lon="2.71396">
        <ele>95</ele>
        <time>2019-02-03T11:11:25Z</time>
      </trkpt>
      <trkpt lat="48.38353" lon="2.71388">
        <ele>94</ele>
        <time>2019-02-03T11:11:43Z</time>
      </trkpt>
      <trkpt lat="48.38346" lon="2.71378">
        <ele>92</ele>
        <time>2019-02-03T11:11:52Z</time>
      </trkpt>
      <trkpt lat="48.38343" lon="2.71371">
        <ele>92</ele>
        <time>2019-02-03T11:11:54Z</time>
      </trkpt>
      <trkpt lat="48.38339" lon="2.71362">
        <ele>91</ele>
        <time>2019-02-03T11:11:58Z</time>
      </trkpt>
      <trkpt lat="48.38333" lon="2.71354">
        <ele>91</ele>
        <time>2019-02-03T11:12:06Z</time>
      </trkpt>
      <trkpt lat="48.38329" lon="2.71345">
        <ele>93</ele>
        <time>2019-02-03T11:12:14Z</time>
      </trkpt>
      <trkpt lat="48.38323" lon="2.71341">
        <ele>95</ele>
        <time>2019-02-03T11:12:23Z</time>
      </trkpt>
      <trkpt lat="48.38314" lon="2.71346">
        <ele>97</ele>
        <time>2019-02-03T11:12:36Z</time>
      </trkpt>
      <trkpt lat="48.38316" lon="2.71339">
        <ele>98</ele>
        <time>2019-02-03T11:12:42Z</time>
      </trkpt>
      <trkpt lat="48.3832" lon="2.71335">
        <ele>99</ele>
        <time>2019-02-03T11:12:48Z</time>
      </trkpt>
      <trkpt lat="48.38326" lon="2.71322">
        <ele>100</ele>
        <time>2019-02-03T11:13:00Z</time>
      </trkpt>
      <trkpt lat="48.38332" lon="2.7132">
        <ele>102</ele>
        <time>2019-02-03T11:13:08Z</time>
      </trkpt>
      <trkpt lat="48.38337" lon="2.71317">
        <ele>102</ele>
        <time>2019-02-03T11:13:12Z</time>
      </trkpt>
      <trkpt lat="48.38343" lon="2.71312">
        <ele>103</ele>
        <time>2019-02-03T11:13:23Z</time>
      </trkpt>
      <trkpt lat="48.38349" lon="2.71311">
        <ele>103</ele>
        <time>2019-02-03T11:13:29Z</time>
      </trkpt>
      <trkpt lat="48.38354" lon="2.71298">
        <ele>104</ele>
        <time>2019-02-03T11:13:38Z</time>
      </trkpt>
      <trkpt lat="48.38357" lon="2.7129">
        <ele>106</ele>
        <time>2019-02-03T11:13:52Z</time>
      </trkpt>
      <trkpt lat="48.38353" lon="2.71286">
        <ele>108</ele>
        <time>2019-02-03T11:14:04Z</time>
      </trkpt>
      <trkpt lat="48.38352" lon="2.71276">
        <ele>112</ele>
        <time>2019-02-03T11:14:22Z</time>
      </trkpt>
      <trkpt lat="48.38346" lon="2.71267">
        <ele>114</ele>
        <time>2019-02-03T11:14:33Z</time>
      </trkpt>
      <trkpt lat="48.38333" lon="2.71253">
        <ele>117</ele>
        <time>2019-02-03T11:14:53Z</time>
      </trkpt>
      <trkpt lat="48.38331" lon="2.71243">
        <ele>118</ele>
        <time>2019-02-03T11:15:01Z</time>
      </trkpt>
      <trkpt lat="48.38326" lon="2.71241">
        <ele>119</ele>
        <time>2019-02-03T11:15:07Z</time>
      </trkpt>
      <trkpt lat="48.38323" lon="2.71236">
        <ele>120</ele>
        <time>2019-02-03T11:15:21Z</time>
      </trkpt>
      <trkpt lat="48.38318" lon="2.71232">
        <ele>121</ele>
        <time>2019-02-03T11:15:27Z</time>
      </trkpt>
      <trkpt lat="48.38314" lon="2.71227">
        <ele>122</ele>
        <time>2019-02-03T11:15:37Z</time>
      </trkpt>
      <trkpt lat="48.38308" lon="2.71231">
        <ele>125</ele>
        <time>2019-02-03T11:15:49Z</time>
      </trkpt>
      <trkpt lat="48.38304" lon="2.71227">
        <ele>127</ele>
        <time>2019-02-03T11:16:01Z</time>
      </trkpt>
      <trkpt lat="48.38303" lon="2.71217">
        <ele>129</ele>
        <time>2019-02-03T11:16:13Z</time>
      </trkpt>
      <trkpt lat="48.38297" lon="2.71216">
        <ele>130</ele>
        <time>2019-02-03T11:16:30Z</time>
      </trkpt>
      <trkpt lat="48.38292" lon="2.71216">
        <ele>132</ele>
        <time>2019-02-03T11:16:40Z</time>
      </trkpt>
      <trkpt lat="48.38288" lon="2.7122">
        <ele>133</ele>
        <time>2019-02-03T11:16:51Z</time>
      </trkpt>
      <trkpt lat="48.38286" lon="2.71227">
        <ele>133</ele>
        <time>2019-02-03T11:16:57Z</time>
      </trkpt>
      <trkpt lat="48.38285" lon="2.71238">
        <ele>134</ele>
        <time>2019-02-03T11:17:07Z</time>
      </trkpt>
      <trkpt lat="48.38281" lon="2.71239">
        <ele>133</ele>
        <time>2019-02-03T11:17:31Z</time>
      </trkpt>
      <trkpt lat="48.38274" lon="2.71246">
        <ele>131</ele>
        <time>2019-02-03T11:17:43Z</time>
      </trkpt>
      <trkpt lat="48.38274" lon="2.71253">
        <ele>129</ele>
        <time>2019-02-03T11:17:55Z</time>
      </trkpt>
      <trkpt lat="48.38268" lon="2.71262">
        <ele>127</ele>
        <time>2019-02-03T11:18:07Z</time>
      </trkpt>
      <trkpt lat="48.38266" lon="2.71268">
        <ele>127</ele>
        <time>2019-02-03T11:18:12Z</time>
      </trkpt>
      <trkpt lat="48.38265" lon="2.71278">
        <ele>125</ele>
        <time>2019-02-03T11:18:21Z</time>
      </trkpt>
      <trkpt lat="48.3826" lon="2.71294">
        <ele>121</ele>
        <time>2019-02-03T11:18:40Z</time>
      </trkpt>
      <trkpt lat="48.38256" lon="2.71309">
        <ele>120</ele>
        <time>2019-02-03T11:18:49Z</time>
      </trkpt>
      <trkpt lat="48.38252" lon="2.71322">
        <ele>120</ele>
        <time>2019-02-03T11:18:56Z</time>
      </trkpt>
      <trkpt lat="48.38261" lon="2.71332">
        <ele>121</ele>
        <time>2019-02-03T11:19:06Z</time>
      </trkpt>
      <trkpt lat="48.38261" lon="2.71342">
        <ele>118</ele>
        <time>2019-02-03T11:19:17Z</time>
      </trkpt>
      <trkpt lat="48.38244" lon="2.7138">
        <ele>112</ele>
        <time>2019-02-03T11:19:55Z</time>
      </trkpt>
      <trkpt lat="48.3823" lon="2.71359">
        <ele>110</ele>
        <time>2019-02-03T11:20:10Z</time>
      </trkpt>
      <trkpt lat="48.38215" lon="2.71348">
        <ele>108</ele>
        <time>2019-02-03T11:20:21Z</time>
      </trkpt>
      <trkpt lat="48.38212" lon="2.71339">
        <ele>108</ele>
        <time>2019-02-03T11:20:27Z</time>
      </trkpt>
      <trkpt lat="48.3821" lon="2.71333">
        <ele>107</ele>
        <time>2019-02-03T11:20:30Z</time>
      </trkpt>
      <trkpt lat="48.38208" lon="2.71323">
        <ele>107</ele>
        <time>2019-02-03T11:20:36Z</time>
      </trkpt>
      <trkpt lat="48.38203" lon="2.7131">
        <ele>106</ele>
        <time>2019-02-03T11:20:44Z</time>
      </trkpt>
      <trkpt lat="48.38199" lon="2.71303">
        <ele>106</ele>
        <time>2019-02-03T11:20:50Z</time>
      </trkpt>
      <trkpt lat="48.38196" lon="2.71296">
        <ele>105</ele>
        <time>2019-02-03T11:20:54Z</time>
      </trkpt>
      <trkpt lat="48.38193" lon="2.71291">
        <ele>105</ele>
        <time>2019-02-03T11:20:57Z</time>
      </trkpt>
      <trkpt lat="48.38188" lon="2.71277">
        <ele>106</ele>
        <time>2019-02-03T11:21:05Z</time>
      </trkpt>
      <trkpt lat="48.38184" lon="2.71263">
        <ele>106</ele>
        <time>2019-02-03T11:21:13Z</time>
      </trkpt>
      <trkpt lat="48.38182" lon="2.71248">
        <ele>108</ele>
        <time>2019-02-03T11:21:23Z</time>
      </trkpt>
      <trkpt lat="48.38164" lon="2.71212">
        <ele>111</ele>
        <time>2019-02-03T11:21:50Z</time>
      </trkpt>
      <trkpt lat="48.38153" lon="2.71194">
        <ele>114</ele>
        <time>2019-02-03T11:22:04Z</time>
      </trkpt>
      <trkpt lat="48.38152" lon="2.71187">
        <ele>115</ele>
        <time>2019-02-03T11:22:08Z</time>
      </trkpt>
      <trkpt lat="48.38143" lon="2.7117">
        <ele>118</ele>
        <time>2019-02-03T11:22:25Z</time>
      </trkpt>
      <trkpt lat="48.3813" lon="2.71131">
        <ele>124</ele>
        <time>2019-02-03T11:22:52Z</time>
      </trkpt>
      <trkpt lat="48.38116" lon="2.71117">
        <ele>127</ele>
        <time>2019-02-03T11:23:09Z</time>
      </trkpt>
      <trkpt lat="48.38112" lon="2.71112">
        <ele>127</ele>
        <time>2019-02-03T11:23:14Z</time>
      </trkpt>
      <trkpt lat="48.38078" lon="2.71073">
        <ele>128</ele>
        <time>2019-02-03T11:23:45Z</time>
      </trkpt>
      <trkpt lat="48.38065" lon="2.71053">
        <ele>128</ele>
        <time>2019-02-03T11:24:00Z</time>
      </trkpt>
      <trkpt lat="48.38029" lon="2.71018">
        <ele>129</ele>
        <time>2019-02-03T11:24:35Z</time>
      </trkpt>
      <trkpt lat="48.38025" lon="2.71014">
        <ele>129</ele>
        <time>2019-02-03T11:24:39Z</time>
      </trkpt>
      <trkpt lat="48.37992" lon="2.70971">
        <ele>129</ele>
        <time>2019-02-03T11:25:13Z</time>
      </trkpt>
      <trkpt lat="48.37989" lon="2.70967">
        <ele>129</ele>
        <time>2019-02-03T11:25:16Z</time>
      </trkpt>
      <trkpt lat="48.37979" lon="2.7096">
        <ele>129</ele>
        <time>2019-02-03T11:25:23Z</time>
      </trkpt>
      <trkpt lat="48.37971" lon="2.7095">
        <ele>129</ele>
        <time>2019-02-03T11:25:31Z</time>
      </trkpt>
      <trkpt lat="48.37945" lon="2.70922">
        <ele>130</ele>
        <time>2019-02-03T11:25:56Z</time>
      </trkpt>
      <trkpt lat="48.37941" lon="2.70916">
        <ele>129</ele>
        <time>2019-02-03T11:26:01Z</time>
      </trkpt>
      <trkpt lat="48.37918" lon="2.70896">
        <ele>129</ele>
        <time>2019-02-03T11:26:20Z</time>
      </trkpt>
      <trkpt lat="48.37887" lon="2.70862">
        <ele>130</ele>
        <time>2019-02-03T11:26:48Z</time>
      </trkpt>
      <trkpt lat="48.37866" lon="2.70843">
        <ele>129</ele>
        <time>2019-02-03T11:27:06Z</time>
      </trkpt>
      <trkpt lat="48.37859" lon="2.70834">
        <ele>129</ele>
        <time>2019-02-03T11:27:13Z</time>
      </trkpt>
      <trkpt lat="48.37854" lon="2.7083">
        <ele>129</ele>
        <time>2019-02-03T11:27:17Z</time>
      </trkpt>
      <trkpt lat="48.3785" lon="2.70824">
        <ele>130</ele>
        <time>2019-02-03T11:27:21Z</time>
      </trkpt>
      <trkpt lat="48.37827" lon="2.70802">
        <ele>129</ele>
        <time>2019-02-03T11:27:41Z</time>
      </trkpt>
      <trkpt lat="48.37824" lon="2.70795">
        <ele>130</ele>
        <time>2019-02-03T11:27:45Z</time>
      </trkpt>
      <trkpt lat="48.37819" lon="2.70791">
        <ele>129</ele>
        <time>2019-02-03T11:27:49Z</time>
      </trkpt>
      <trkpt lat="48.37815" lon="2.70789">
        <ele>130</ele>
        <time>2019-02-03T11:27:53Z</time>
      </trkpt>
      <trkpt lat="48.3781" lon="2.70787">
        <ele>130</ele>
        <time>2019-02-03T11:27:57Z</time>
      </trkpt>
      <trkpt lat="48.37792" lon="2.70771">
        <ele>129</ele>
        <time>2019-02-03T11:28:13Z</time>
      </trkpt>
      <trkpt lat="48.37789" lon="2.70764">
        <ele>129</ele>
        <time>2019-02-03T11:28:18Z</time>
      </trkpt>
      <trkpt lat="48.3778" lon="2.70756">
        <ele>129</ele>
        <time>2019-02-03T11:28:26Z</time>
      </trkpt>
      <trkpt lat="48.37771" lon="2.70743">
        <ele>129</ele>
        <time>2019-02-03T11:28:35Z</time>
      </trkpt>
      <trkpt lat="48.37752" lon="2.70729">
        <ele>129</ele>
        <time>2019-02-03T11:28:51Z</time>
      </trkpt>
      <trkpt lat="48.37727" lon="2.70699">
        <ele>129</ele>
        <time>2019-02-03T11:29:16Z</time>
      </trkpt>
      <trkpt lat="48.37717" lon="2.70692">
        <ele>128</ele>
        <time>2019-02-03T11:29:24Z</time>
      </trkpt>
      <trkpt lat="48.37704" lon="2.70677">
        <ele>128</ele>
        <time>2019-02-03T11:29:36Z</time>
      </trkpt>
      <trkpt lat="48.37695" lon="2.70673">
        <ele>128</ele>
        <time>2019-02-03T11:29:44Z</time>
      </trkpt>
      <trkpt lat="48.37682" lon="2.70659">
        <ele>127</ele>
        <time>2019-02-03T11:29:56Z</time>
      </trkpt>
      <trkpt lat="48.37658" lon="2.70627">
        <ele>125</ele>
        <time>2019-02-03T11:30:21Z</time>
      </trkpt>
      <trkpt lat="48.37657" lon="2.70619">
        <ele>125</ele>
        <time>2019-02-03T11:30:24Z</time>
      </trkpt>
      <trkpt lat="48.37658" lon="2.70607">
        <ele>125</ele>
        <time>2019-02-03T11:30:29Z</time>
      </trkpt>
      <trkpt lat="48.37661" lon="2.70601">
        <ele>125</ele>
        <time>2019-02-03T11:30:32Z</time>
      </trkpt>
      <trkpt lat="48.37664" lon="2.70594">
        <ele>125</ele>
        <time>2019-02-03T11:30:36Z</time>
      </trkpt>
      <trkpt lat="48.37664" lon="2.70587">
        <ele>125</ele>
        <time>2019-02-03T11:30:40Z</time>
      </trkpt>
      <trkpt lat="48.37665" lon="2.70572">
        <ele>125</ele>
        <time>2019-02-03T11:30:49Z</time>
      </trkpt>
      <trkpt lat="48.37664" lon="2.70557">
        <ele>126</ele>
        <time>2019-02-03T11:30:59Z</time>
      </trkpt>
      <trkpt lat="48.37673" lon="2.70532">
        <ele>127</ele>
        <time>2019-02-03T11:31:13Z</time>
      </trkpt>
      <trkpt lat="48.37674" lon="2.70516">
        <ele>126</ele>
        <time>2019-02-03T11:31:21Z</time>
      </trkpt>
      <trkpt lat="48.37673" lon="2.70508">
        <ele>126</ele>
        <time>2019-02-03T11:31:24Z</time>
      </trkpt>
      <trkpt lat="48.37674" lon="2.70501">
        <ele>125</ele>
        <time>2019-02-03T11:31:28Z</time>
      </trkpt>
      <trkpt lat="48.37675" lon="2.70487">
        <ele>125</ele>
        <time>2019-02-03T11:31:35Z</time>
      </trkpt>
      <trkpt lat="48.37677" lon="2.7048">
        <ele>125</ele>
        <time>2019-02-03T11:31:38Z</time>
      </trkpt>
      <trkpt lat="48.3768" lon="2.70454">
        <ele>125</ele>
        <time>2019-02-03T11:31:55Z</time>
      </trkpt>
      <trkpt lat="48.37681" lon="2.70447">
        <ele>125</ele>
        <time>2019-02-03T11:31:58Z</time>
      </trkpt>
      <trkpt lat="48.37683" lon="2.70441">
        <ele>126</ele>
        <time>2019-02-03T11:32:02Z</time>
      </trkpt>
      <trkpt lat="48.37685" lon="2.70422">
        <ele>125</ele>
        <time>2019-02-03T11:32:12Z</time>
      </trkpt>
      <trkpt lat="48.37688" lon="2.70414">
        <ele>126</ele>
        <time>2019-02-03T11:32:16Z</time>
      </trkpt>
      <trkpt lat="48.37691" lon="2.70408">
        <ele>125</ele>
        <time>2019-02-03T11:32:20Z</time>
      </trkpt>
      <trkpt lat="48.37696" lon="2.70395">
        <ele>126</ele>
        <time>2019-02-03T11:32:28Z</time>
      </trkpt>
      <trkpt lat="48.37699" lon="2.70366">
        <ele>126</ele>
        <time>2019-02-03T11:32:43Z</time>
      </trkpt>
      <trkpt lat="48.37702" lon="2.70348">
        <ele>125</ele>
        <time>2019-02-03T11:32:54Z</time>
      </trkpt>
      <trkpt lat="48.37701" lon="2.7033">
        <ele>125</ele>
        <time>2019-02-03T11:33:02Z</time>
      </trkpt>
      <trkpt lat="48.37705" lon="2.70317">
        <ele>126</ele>
        <time>2019-02-03T11:33:08Z</time>
      </trkpt>
      <trkpt lat="48.37706" lon="2.70294">
        <ele>126</ele>
        <time>2019-02-03T11:33:21Z</time>
      </trkpt>
      <trkpt lat="48.37709" lon="2.70288">
        <ele>126</ele>
        <time>2019-02-03T11:33:24Z</time>
      </trkpt>
      <trkpt lat="48.37711" lon="2.70273">
        <ele>125</ele>
        <time>2019-02-03T11:33:32Z</time>
      </trkpt>
      <trkpt lat="48.37709" lon="2.70267">
        <ele>125</ele>
        <time>2019-02-03T11:33:36Z</time>
      </trkpt>
      <trkpt lat="48.37709" lon="2.7026">
        <ele>125</ele>
        <time>2019-02-03T11:33:40Z</time>
      </trkpt>
      <trkpt lat="48.37711" lon="2.70254">
        <ele>125</ele>
        <time>2019-02-03T11:33:43Z</time>
      </trkpt>
      <trkpt lat="48.37712" lon="2.70247">
        <ele>126</ele>
        <time>2019-02-03T11:33:46Z</time>
      </trkpt>
      <trkpt lat="48.37712" lon="2.70238">
        <ele>126</ele>
        <time>2019-02-03T11:33:50Z</time>
      </trkpt>
      <trkpt lat="48.37714" lon="2.70224">
        <ele>125</ele>
        <time>2019-02-03T11:34:00Z</time>
      </trkpt>
      <trkpt lat="48.37714" lon="2.70194">
        <ele>122</ele>
        <time>2019-02-03T11:34:15Z</time>
      </trkpt>
      <trkpt lat="48.37717" lon="2.70186">
        <ele>122</ele>
        <time>2019-02-03T11:34:19Z</time>
      </trkpt>
      <trkpt lat="48.3772" lon="2.70161">
        <ele>120</ele>
        <time>2019-02-03T11:34:30Z</time>
      </trkpt>
      <trkpt lat="48.37725" lon="2.70147">
        <ele>119</ele>
        <time>2019-02-03T11:34:39Z</time>
      </trkpt>
      <trkpt lat="48.37726" lon="2.70139">
        <ele>118</ele>
        <time>2019-02-03T11:34:43Z</time>
      </trkpt>
      <trkpt lat="48.37731" lon="2.70131">
        <ele>118</ele>
        <time>2019-02-03T11:34:48Z</time>
      </trkpt>
      <trkpt lat="48.37736" lon="2.70116">
        <ele>117</ele>
        <time>2019-02-03T11:34:56Z</time>
      </trkpt>
      <trkpt lat="48.37735" lon="2.70099">
        <ele>115</ele>
        <time>2019-02-03T11:35:04Z</time>
      </trkpt>
      <trkpt lat="48.37736" lon="2.70061">
        <ele>114</ele>
        <time>2019-02-03T11:35:23Z</time>
      </trkpt>
      <trkpt lat="48.37742" lon="2.70047">
        <ele>113</ele>
        <time>2019-02-03T11:35:31Z</time>
      </trkpt>
      <trkpt lat="48.37746" lon="2.70042">
        <ele>113</ele>
        <time>2019-02-03T11:35:35Z</time>
      </trkpt>
      <trkpt lat="48.37749" lon="2.70034">
        <ele>112</ele>
        <time>2019-02-03T11:35:39Z</time>
      </trkpt>
      <trkpt lat="48.37751" lon="2.69995">
        <ele>110</ele>
        <time>2019-02-03T11:35:58Z</time>
      </trkpt>
      <trkpt lat="48.37755" lon="2.69982">
        <ele>110</ele>
        <time>2019-02-03T11:36:06Z</time>
      </trkpt>
      <trkpt lat="48.37761" lon="2.69936">
        <ele>108</ele>
        <time>2019-02-03T11:36:29Z</time>
      </trkpt>
      <trkpt lat="48.37764" lon="2.69929">
        <ele>108</ele>
        <time>2019-02-03T11:36:33Z</time>
      </trkpt>
      <trkpt lat="48.3777" lon="2.69882">
        <ele>105</ele>
        <time>2019-02-03T11:36:57Z</time>
      </trkpt>
      <trkpt lat="48.37773" lon="2.69876">
        <ele>105</ele>
        <time>2019-02-03T11:37:01Z</time>
      </trkpt>
      <trkpt lat="48.37776" lon="2.69844">
        <ele>104</ele>
        <time>2019-02-03T11:37:16Z</time>
      </trkpt>
      <trkpt lat="48.37771" lon="2.6984">
        <ele>104</ele>
        <time>2019-02-03T11:37:23Z</time>
      </trkpt>
      <trkpt lat="48.37767" lon="2.69839">
        <ele>104</ele>
        <time>2019-02-03T11:37:26Z</time>
      </trkpt>
      <trkpt lat="48.37757" lon="2.69839">
        <ele>105</ele>
        <time>2019-02-03T11:37:35Z</time>
      </trkpt>
      <trkpt lat="48.37752" lon="2.69839">
        <ele>106</ele>
        <time>2019-02-03T11:37:44Z</time>
      </trkpt>
      <trkpt lat="48.37737" lon="2.69837">
        <ele>109</ele>
        <time>2019-02-03T11:37:59Z</time>
      </trkpt>
      <trkpt lat="48.37714" lon="2.69853">
        <ele>113</ele>
        <time>2019-02-03T11:38:25Z</time>
      </trkpt>
      <trkpt lat="48.3771" lon="2.69858">
        <ele>113</ele>
        <time>2019-02-03T11:38:30Z</time>
      </trkpt>
      <trkpt lat="48.37703" lon="2.69861">
        <ele>114</ele>
        <time>2019-02-03T11:38:37Z</time>
      </trkpt>
      <trkpt lat="48.37694" lon="2.6987">
        <ele>115</ele>
        <time>2019-02-03T11:38:48Z</time>
      </trkpt>
      <trkpt lat="48.37691" lon="2.69885">
        <ele>116</ele>
        <time>2019-02-03T11:38:59Z</time>
      </trkpt>
      <trkpt lat="48.37683" lon="2.69909">
        <ele>118</ele>
        <time>2019-02-03T11:39:17Z</time>
      </trkpt>
      <trkpt lat="48.37671" lon="2.69927">
        <ele>120</ele>
        <time>2019-02-03T11:39:33Z</time>
      </trkpt>
      <trkpt lat="48.37672" lon="2.69942">
        <ele>121</ele>
        <time>2019-02-03T11:39:41Z</time>
      </trkpt>
      <trkpt lat="48.37669" lon="2.69953">
        <ele>122</ele>
        <time>2019-02-03T11:39:49Z</time>
      </trkpt>
      <trkpt lat="48.37668" lon="2.69968">
        <ele>123</ele>
        <time>2019-02-03T11:40:02Z</time>
      </trkpt>
      <trkpt lat="48.37665" lon="2.69975">
        <ele>123</ele>
        <time>2019-02-03T11:40:06Z</time>
      </trkpt>
      <trkpt lat="48.37661" lon="2.69979">
        <ele>123</ele>
        <time>2019-02-03T11:40:10Z</time>
      </trkpt>
      <trkpt lat="48.37657" lon="2.69981">
        <ele>123</ele>
        <time>2019-02-03T11:40:14Z</time>
      </trkpt>
      <trkpt lat="48.37647" lon="2.69985">
        <ele>123</ele>
        <time>2019-02-03T11:40:23Z</time>
      </trkpt>
      <trkpt lat="48.37642" lon="2.6999">
        <ele>123</ele>
        <time>2019-02-03T11:40:27Z</time>
      </trkpt>
      <trkpt lat="48.37637" lon="2.69994">
        <ele>123</ele>
        <time>2019-02-03T11:40:31Z</time>
      </trkpt>
      <trkpt lat="48.37632" lon="2.69994">
        <ele>123</ele>
        <time>2019-02-03T11:40:35Z</time>
      </trkpt>
      <trkpt lat="48.37629" lon="2.69988">
        <ele>122</ele>
        <time>2019-02-03T11:40:38Z</time>
      </trkpt>
      <trkpt lat="48.37625" lon="2.69972">
        <ele>120</ele>
        <time>2019-02-03T11:40:48Z</time>
      </trkpt>
      <trkpt lat="48.37622" lon="2.69964">
        <ele>120</ele>
        <time>2019-02-03T11:40:52Z</time>
      </trkpt>
      <trkpt lat="48.37622" lon="2.69957">
        <ele>119</ele>
        <time>2019-02-03T11:40:55Z</time>
      </trkpt>
      <trkpt lat="48.37616" lon="2.6996">
        <ele>118</ele>
        <time>2019-02-03T11:41:01Z</time>
      </trkpt>
      <trkpt lat="48.37611" lon="2.69966">
        <ele>118</ele>
        <time>2019-02-03T11:41:04Z</time>
      </trkpt>
      <trkpt lat="48.37609" lon="2.69972">
        <ele>118</ele>
        <time>2019-02-03T11:41:07Z</time>
      </trkpt>
      <trkpt lat="48.37603" lon="2.69988">
        <ele>118</ele>
        <time>2019-02-03T11:41:18Z</time>
      </trkpt>
      <trkpt lat="48.37594" lon="2.70004">
        <ele>117</ele>
        <time>2019-02-03T11:41:31Z</time>
      </trkpt>
      <trkpt lat="48.37587" lon="2.7001">
        <ele>116</ele>
        <time>2019-02-03T11:41:40Z</time>
      </trkpt>
      <trkpt lat="48.37561" lon="2.70008">
        <ele>114</ele>
        <time>2019-02-03T11:42:02Z</time>
      </trkpt>
      <trkpt lat="48.37557" lon="2.7001">
        <ele>114</ele>
        <time>2019-02-03T11:42:06Z</time>
      </trkpt>
      <trkpt lat="48.37545" lon="2.70008">
        <ele>113</ele>
        <time>2019-02-03T11:42:14Z</time>
      </trkpt>
      <trkpt lat="48.3754" lon="2.70006">
        <ele>112</ele>
        <time>2019-02-03T11:42:18Z</time>
      </trkpt>
      <trkpt lat="48.37529" lon="2.70008">
        <ele>112</ele>
        <time>2019-02-03T11:42:24Z</time>
      </trkpt>
      <trkpt lat="48.37503" lon="2.70005">
        <ele>111</ele>
        <time>2019-02-03T11:42:42Z</time>
      </trkpt>
      <trkpt lat="48.375" lon="2.70015">
        <ele>112</ele>
        <time>2019-02-03T11:42:52Z</time>
      </trkpt>
      <trkpt lat="48.375" lon="2.70025">
        <ele>112</ele>
        <time>2019-02-03T11:42:59Z</time>
      </trkpt>
      <trkpt lat="48.37481" lon="2.70075">
        <ele>114</ele>
        <time>2019-02-03T11:43:30Z</time>
      </trkpt>
      <trkpt lat="48.37477" lon="2.70097">
        <ele>114</ele>
        <time>2019-02-03T11:43:42Z</time>
      </trkpt>
      <trkpt lat="48.37472" lon="2.70102">
        <ele>115</ele>
        <time>2019-02-03T11:43:47Z</time>
      </trkpt>
      <trkpt lat="48.37453" lon="2.70106">
        <ele>118</ele>
        <time>2019-02-03T11:44:04Z</time>
      </trkpt>
      <trkpt lat="48.37442" lon="2.70113">
        <ele>119</ele>
        <time>2019-02-03T11:44:15Z</time>
      </trkpt>
      <trkpt lat="48.37432" lon="2.70114">
        <ele>121</ele>
        <time>2019-02-03T11:44:23Z</time>
      </trkpt>
      <trkpt lat="48.37427" lon="2.70113">
        <ele>122</ele>
        <time>2019-02-03T11:44:27Z</time>
      </trkpt>
      <trkpt lat="48.37417" lon="2.70116">
        <ele>123</ele>
        <time>2019-02-03T11:44:36Z</time>
      </trkpt>
      <trkpt lat="48.37411" lon="2.70113">
        <ele>124</ele>
        <time>2019-02-03T11:44:40Z</time>
      </trkpt>
      <trkpt lat="48.37406" lon="2.70111">
        <ele>125</ele>
        <time>2019-02-03T11:44:44Z</time>
      </trkpt>
      <trkpt lat="48.37397" lon="2.70107">
        <ele>125</ele>
        <time>2019-02-03T11:44:52Z</time>
      </trkpt>
      <trkpt lat="48.3737" lon="2.70104">
        <ele>126</ele>
        <time>2019-02-03T11:45:12Z</time>
      </trkpt>
      <trkpt lat="48.37335" lon="2.70106">
        <ele>128</ele>
        <time>2019-02-03T11:45:39Z</time>
      </trkpt>
      <trkpt lat="48.37311" lon="2.70104">
        <ele>128</ele>
        <time>2019-02-03T11:46:00Z</time>
      </trkpt>
      <trkpt lat="48.37302" lon="2.70112">
        <ele>129</ele>
        <time>2019-02-03T11:46:08Z</time>
      </trkpt>
      <trkpt lat="48.37294" lon="2.70124">
        <ele>129</ele>
        <time>2019-02-03T11:46:16Z</time>
      </trkpt>
      <trkpt lat="48.37291" lon="2.7013">
        <ele>129</ele>
        <time>2019-02-03T11:46:20Z</time>
      </trkpt>
      <trkpt lat="48.37291" lon="2.70153">
        <ele>129</ele>
        <time>2019-02-03T11:46:31Z</time>
      </trkpt>
      <trkpt lat="48.37289" lon="2.70162">
        <ele>129</ele>
        <time>2019-02-03T11:46:35Z</time>
      </trkpt>
      <trkpt lat="48.37291" lon="2.70185">
        <ele>129</ele>
        <time>2019-02-03T11:46:45Z</time>
      </trkpt>
      <trkpt lat="48.37289" lon="2.70215">
        <ele>129</ele>
        <time>2019-02-03T11:46:57Z</time>
      </trkpt>
      <trkpt lat="48.37288" lon="2.70222">
        <ele>129</ele>
        <time>2019-02-03T11:47:00Z</time>
      </trkpt>
      <trkpt lat="48.37287" lon="2.7023">
        <ele>130</ele>
        <time>2019-02-03T11:47:04Z</time>
      </trkpt>
      <trkpt lat="48.37288" lon="2.70237">
        <ele>130</ele>
        <time>2019-02-03T11:47:07Z</time>
      </trkpt>
      <trkpt lat="48.37285" lon="2.70244">
        <ele>130</ele>
        <time>2019-02-03T11:47:10Z</time>
      </trkpt>
      <trkpt lat="48.37284" lon="2.70251">
        <ele>130</ele>
        <time>2019-02-03T11:47:14Z</time>
      </trkpt>
      <trkpt lat="48.37283" lon="2.70289">
        <ele>130</ele>
        <time>2019-02-03T11:47:33Z</time>
      </trkpt>
      <trkpt lat="48.37282" lon="2.70297">
        <ele>130</ele>
        <time>2019-02-03T11:47:37Z</time>
      </trkpt>
      <trkpt lat="48.37283" lon="2.70328">
        <ele>131</ele>
        <time>2019-02-03T11:47:51Z</time>
      </trkpt>
      <trkpt lat="48.37281" lon="2.70343">
        <ele>131</ele>
        <time>2019-02-03T11:47:59Z</time>
      </trkpt>
      <trkpt lat="48.37282" lon="2.70357">
        <ele>131</ele>
        <time>2019-02-03T11:48:05Z</time>
      </trkpt>
      <trkpt lat="48.37284" lon="2.70365">
        <ele>131</ele>
        <time>2019-02-03T11:48:09Z</time>
      </trkpt>
      <trkpt lat="48.37283" lon="2.70388">
        <ele>131</ele>
        <time>2019-02-03T11:48:21Z</time>
      </trkpt>
      <trkpt lat="48.37281" lon="2.70396">
        <ele>131</ele>
        <time>2019-02-03T11:48:25Z</time>
      </trkpt>
      <trkpt lat="48.37281" lon="2.70404">
        <ele>131</ele>
        <time>2019-02-03T11:48:29Z</time>
      </trkpt>
      <trkpt lat="48.37282" lon="2.70412">
        <ele>131</ele>
        <time>2019-02-03T11:48:33Z</time>
      </trkpt>
      <trkpt lat="48.37281" lon="2.70421">
        <ele>131</ele>
        <time>2019-02-03T11:48:37Z</time>
      </trkpt>
      <trkpt lat="48.37279" lon="2.70427">
        <ele>132</ele>
        <time>2019-02-03T11:48:41Z</time>
      </trkpt>
      <trkpt lat="48.37277" lon="2.70442">
        <ele>131</ele>
        <time>2019-02-03T11:48:49Z</time>
      </trkpt>
      <trkpt lat="48.37277" lon="2.70457">
        <ele>132</ele>
        <time>2019-02-03T11:48:56Z</time>
      </trkpt>
      <trkpt lat="48.37275" lon="2.70465">
        <ele>132</ele>
        <time>2019-02-03T11:49:00Z</time>
      </trkpt>
      <trkpt lat="48.37274" lon="2.70495">
        <ele>133</ele>
        <time>2019-02-03T11:49:17Z</time>
      </trkpt>
      <trkpt lat="48.37275" lon="2.70503">
        <ele>133</ele>
        <time>2019-02-03T11:49:21Z</time>
      </trkpt>
      <trkpt lat="48.37272" lon="2.70526">
        <ele>133</ele>
        <time>2019-02-03T11:49:33Z</time>
      </trkpt>
      <trkpt lat="48.37268" lon="2.70541">
        <ele>133</ele>
        <time>2019-02-03T11:49:42Z</time>
      </trkpt>
      <trkpt lat="48.37265" lon="2.70587">
        <ele>134</ele>
        <time>2019-02-03T11:50:04Z</time>
      </trkpt>
      <trkpt lat="48.37268" lon="2.70603">
        <ele>134</ele>
        <time>2019-02-03T11:50:11Z</time>
      </trkpt>
      <trkpt lat="48.37267" lon="2.70618">
        <ele>135</ele>
        <time>2019-02-03T11:50:19Z</time>
      </trkpt>
      <trkpt lat="48.37269" lon="2.70641">
        <ele>135</ele>
        <time>2019-02-03T11:50:30Z</time>
      </trkpt>
      <trkpt lat="48.37267" lon="2.70663">
        <ele>135</ele>
        <time>2019-02-03T11:50:41Z</time>
      </trkpt>
      <trkpt lat="48.37263" lon="2.70685">
        <ele>135</ele>
        <time>2019-02-03T11:50:52Z</time>
      </trkpt>
      <trkpt lat="48.37262" lon="2.70699">
        <ele>136</ele>
        <time>2019-02-03T11:50:59Z</time>
      </trkpt>
      <trkpt lat="48.3726" lon="2.70706">
        <ele>136</ele>
        <time>2019-02-03T11:51:03Z</time>
      </trkpt>
      <trkpt lat="48.3726" lon="2.70753">
        <ele>136</ele>
        <time>2019-02-03T11:51:26Z</time>
      </trkpt>
      <trkpt lat="48.37258" lon="2.70763">
        <ele>136</ele>
        <time>2019-02-03T11:51:30Z</time>
      </trkpt>
      <trkpt lat="48.37256" lon="2.70784">
        <ele>136</ele>
        <time>2019-02-03T11:51:41Z</time>
      </trkpt>
      <trkpt lat="48.37254" lon="2.70791">
        <ele>136</ele>
        <time>2019-02-03T11:51:45Z</time>
      </trkpt>
      <trkpt lat="48.37254" lon="2.70798">
        <ele>136</ele>
        <time>2019-02-03T11:51:48Z</time>
      </trkpt>
      <trkpt lat="48.37248" lon="2.7081">
        <ele>136</ele>
        <time>2019-02-03T11:51:54Z</time>
      </trkpt>
      <trkpt lat="48.37246" lon="2.70825">
        <ele>136</ele>
        <time>2019-02-03T11:52:00Z</time>
      </trkpt>
      <trkpt lat="48.3725" lon="2.70895">
        <ele>136</ele>
        <time>2019-02-03T11:52:33Z</time>
      </trkpt>
      <trkpt lat="48.3725" lon="2.70903">
        <ele>136</ele>
        <time>2019-02-03T11:52:37Z</time>
      </trkpt>
      <trkpt lat="48.37247" lon="2.70918">
        <ele>136</ele>
        <time>2019-02-03T11:52:45Z</time>
      </trkpt>
      <trkpt lat="48.37249" lon="2.70965">
        <ele>137</ele>
        <time>2019-02-03T11:53:11Z</time>
      </trkpt>
      <trkpt lat="48.37247" lon="2.70988">
        <ele>136</ele>
        <time>2019-02-03T11:53:21Z</time>
      </trkpt>
      <trkpt lat="48.37247" lon="2.71003">
        <ele>136</ele>
        <time>2019-02-03T11:53:28Z</time>
      </trkpt>
      <trkpt lat="48.37246" lon="2.71012">
        <ele>136</ele>
        <time>2019-02-03T11:53:32Z</time>
      </trkpt>
      <trkpt lat="48.3724" lon="2.71025">
        <ele>136</ele>
        <time>2019-02-03T11:53:40Z</time>
      </trkpt>
      <trkpt lat="48.3724" lon="2.71032">
        <ele>136</ele>
        <time>2019-02-03T11:53:44Z</time>
      </trkpt>
      <trkpt lat="48.3724" lon="2.71039">
        <ele>136</ele>
        <time>2019-02-03T11:53:48Z</time>
      </trkpt>
      <trkpt lat="48.37241" lon="2.71046">
        <ele>136</ele>
        <time>2019-02-03T11:53:52Z</time>
      </trkpt>
      <trkpt lat="48.3724" lon="2.71062">
        <ele>136</ele>
        <time>2019-02-03T11:53:59Z</time>
      </trkpt>
      <trkpt lat="48.3724" lon="2.71076">
        <ele>136</ele>
        <time>2019-02-03T11:54:05Z</time>
      </trkpt>
      <trkpt lat="48.37238" lon="2.71082">
        <ele>135</ele>
        <time>2019-02-03T11:54:08Z</time>
      </trkpt>
      <trkpt lat="48.37234" lon="2.71115">
        <ele>135</ele>
        <time>2019-02-03T11:54:23Z</time>
      </trkpt>
      <trkpt lat="48.37236" lon="2.71144">
        <ele>135</ele>
        <time>2019-02-03T11:54:38Z</time>
      </trkpt>
      <trkpt lat="48.37235" lon="2.71151">
        <ele>134</ele>
        <time>2019-02-03T11:54:42Z</time>
      </trkpt>
      <trkpt lat="48.37233" lon="2.71158">
        <ele>134</ele>
        <time>2019-02-03T11:54:46Z</time>
      </trkpt>
      <trkpt lat="48.37233" lon="2.71167">
        <ele>134</ele>
        <time>2019-02-03T11:54:50Z</time>
      </trkpt>
      <trkpt lat="48.37231" lon="2.71174">
        <ele>134</ele>
        <time>2019-02-03T11:54:53Z</time>
      </trkpt>
      <trkpt lat="48.3723" lon="2.71181">
        <ele>134</ele>
        <time>2019-02-03T11:54:58Z</time>
      </trkpt>
      <trkpt lat="48.37229" lon="2.7119">
        <ele>133</ele>
        <time>2019-02-03T11:55:02Z</time>
      </trkpt>
      <trkpt lat="48.37229" lon="2.71198">
        <ele>133</ele>
        <time>2019-02-03T11:55:06Z</time>
      </trkpt>
      <trkpt lat="48.37229" lon="2.71205">
        <ele>133</ele>
        <time>2019-02-03T11:55:09Z</time>
      </trkpt>
      <trkpt lat="48.37227" lon="2.71213">
        <ele>133</ele>
        <time>2019-02-03T11:55:13Z</time>
      </trkpt>
      <trkpt lat="48.37228" lon="2.71222">
        <ele>132</ele>
        <time>2019-02-03T11:55:17Z</time>
      </trkpt>
      <trkpt lat="48.37227" lon="2.71238">
        <ele>133</ele>
        <time>2019-02-03T11:55:25Z</time>
      </trkpt>
      <trkpt lat="48.37229" lon="2.7126">
        <ele>132</ele>
        <time>2019-02-03T11:55:35Z</time>
      </trkpt>
      <trkpt lat="48.37224" lon="2.71284">
        <ele>132</ele>
        <time>2019-02-03T11:55:46Z</time>
      </trkpt>
      <trkpt lat="48.37225" lon="2.71292">
        <ele>132</ele>
        <time>2019-02-03T11:55:50Z</time>
      </trkpt>
      <trkpt lat="48.37224" lon="2.713">
        <ele>132</ele>
        <time>2019-02-03T11:55:54Z</time>
      </trkpt>
      <trkpt lat="48.37222" lon="2.71307">
        <ele>132</ele>
        <time>2019-02-03T11:55:58Z</time>
      </trkpt>
      <trkpt lat="48.37218" lon="2.71321">
        <ele>132</ele>
        <time>2019-02-03T11:56:06Z</time>
      </trkpt>
      <trkpt lat="48.37218" lon="2.71328">
        <ele>131</ele>
        <time>2019-02-03T11:56:10Z</time>
      </trkpt>
      <trkpt lat="48.37219" lon="2.71337">
        <ele>131</ele>
        <time>2019-02-03T11:56:14Z</time>
      </trkpt>
      <trkpt lat="48.37224" lon="2.71361">
        <ele>131</ele>
        <time>2019-02-03T11:56:24Z</time>
      </trkpt>
      <trkpt lat="48.37223" lon="2.71376">
        <ele>131</ele>
        <time>2019-02-03T11:56:32Z</time>
      </trkpt>
      <trkpt lat="48.3722" lon="2.71392">
        <ele>131</ele>
        <time>2019-02-03T11:56:40Z</time>
      </trkpt>
      <trkpt lat="48.37221" lon="2.71406">
        <ele>130</ele>
        <time>2019-02-03T11:56:47Z</time>
      </trkpt>
      <trkpt lat="48.37218" lon="2.71428">
        <ele>130</ele>
        <time>2019-02-03T11:57:00Z</time>
      </trkpt>
      <trkpt lat="48.37219" lon="2.71437">
        <ele>130</ele>
        <time>2019-02-03T11:57:04Z</time>
      </trkpt>
      <trkpt lat="48.37218" lon="2.71443">
        <ele>130</ele>
        <time>2019-02-03T11:57:07Z</time>
      </trkpt>
      <trkpt lat="48.37214" lon="2.71458">
        <ele>130</ele>
        <time>2019-02-03T11:57:14Z</time>
      </trkpt>
      <trkpt lat="48.37219" lon="2.7148">
        <ele>129</ele>
        <time>2019-02-03T11:57:24Z</time>
      </trkpt>
      <trkpt lat="48.37211" lon="2.71542">
        <ele>129</ele>
        <time>2019-02-03T11:57:54Z</time>
      </trkpt>
      <trkpt lat="48.37213" lon="2.71604">
        <ele>130</ele>
        <time>2019-02-03T11:58:26Z</time>
      </trkpt>
      <trkpt lat="48.3721" lon="2.71618">
        <ele>130</ele>
        <time>2019-02-03T11:58:34Z</time>
      </trkpt>
      <trkpt lat="48.37206" lon="2.71623">
        <ele>130</ele>
        <time>2019-02-03T11:58:37Z</time>
      </trkpt>
      <trkpt lat="48.37207" lon="2.71648">
        <ele>129</ele>
        <time>2019-02-03T11:58:50Z</time>
      </trkpt>
      <trkpt lat="48.37207" lon="2.71655">
        <ele>129</ele>
        <time>2019-02-03T11:58:54Z</time>
      </trkpt>
      <trkpt lat="48.37205" lon="2.71671">
        <ele>129</ele>
        <time>2019-02-03T11:59:03Z</time>
      </trkpt>
      <trkpt lat="48.37203" lon="2.71678">
        <ele>129</ele>
        <time>2019-02-03T11:59:07Z</time>
      </trkpt>
      <trkpt lat="48.37208" lon="2.71722">
        <ele>129</ele>
        <time>2019-02-03T11:59:28Z</time>
      </trkpt>
      <trkpt lat="48.3721" lon="2.7173">
        <ele>129</ele>
        <time>2019-02-03T11:59:33Z</time>
      </trkpt>
      <trkpt lat="48.37208" lon="2.71736">
        <ele>129</ele>
        <time>2019-02-03T11:59:44Z</time>
      </trkpt>
      <trkpt lat="48.37214" lon="2.71735">
        <ele>129</ele>
        <time>2019-02-03T12:00:08Z</time>
      </trkpt>
      <trkpt lat="48.37222" lon="2.71739">
        <ele>127</ele>
        <time>2019-02-03T12:00:21Z</time>
      </trkpt>
      <trkpt lat="48.37223" lon="2.71743">
        <ele>124</ele>
        <time>2019-02-03T12:02:41Z</time>
      </trkpt>
      <trkpt lat="48.36873" lon="2.71257">
        <ele>101</ele>
        <time>2019-02-03T13:10:31Z</time>
      </trkpt>
      <trkpt lat="48.36873" lon="2.71257">
        <ele>101</ele>
        <time>2019-02-03T13:10:31Z</time>
      </trkpt>
      <trkpt lat="48.36869" lon="2.71247">
        <ele>101</ele>
        <time>2019-02-03T13:10:36Z</time>
      </trkpt>
      <trkpt lat="48.36866" lon="2.71241">
        <ele>101</ele>
        <time>2019-02-03T13:10:39Z</time>
      </trkpt>
      <trkpt lat="48.3686" lon="2.71227">
        <ele>101</ele>
        <time>2019-02-03T13:10:47Z</time>
      </trkpt>
      <trkpt lat="48.36848" lon="2.71211">
        <ele>101</ele>
        <time>2019-02-03T13:11:00Z</time>
      </trkpt>
      <trkpt lat="48.36844" lon="2.71198">
        <ele>101</ele>
        <time>2019-02-03T13:11:08Z</time>
      </trkpt>
      <trkpt lat="48.3684" lon="2.71194">
        <ele>101</ele>
        <time>2019-02-03T13:11:12Z</time>
      </trkpt>
      <trkpt lat="48.36836" lon="2.71187">
        <ele>102</ele>
        <time>2019-02-03T13:11:16Z</time>
      </trkpt>
      <trkpt lat="48.36831" lon="2.71167">
        <ele>102</ele>
        <time>2019-02-03T13:11:27Z</time>
      </trkpt>
      <trkpt lat="48.36827" lon="2.71161">
        <ele>103</ele>
        <time>2019-02-03T13:11:31Z</time>
      </trkpt>
      <trkpt lat="48.36824" lon="2.71156">
        <ele>102</ele>
        <time>2019-02-03T13:11:35Z</time>
      </trkpt>
      <trkpt lat="48.36823" lon="2.71148">
        <ele>103</ele>
        <time>2019-02-03T13:11:39Z</time>
      </trkpt>
      <trkpt lat="48.36813" lon="2.71128">
        <ele>103</ele>
        <time>2019-02-03T13:11:51Z</time>
      </trkpt>
      <trkpt lat="48.36811" lon="2.7112">
        <ele>104</ele>
        <time>2019-02-03T13:11:56Z</time>
      </trkpt>
      <trkpt lat="48.36798" lon="2.71087">
        <ele>104</ele>
        <time>2019-02-03T13:12:15Z</time>
      </trkpt>
      <trkpt lat="48.36796" lon="2.71079">
        <ele>105</ele>
        <time>2019-02-03T13:12:19Z</time>
      </trkpt>
      <trkpt lat="48.3679" lon="2.71067">
        <ele>105</ele>
        <time>2019-02-03T13:12:26Z</time>
      </trkpt>
      <trkpt lat="48.36786" lon="2.71058">
        <ele>105</ele>
        <time>2019-02-03T13:12:30Z</time>
      </trkpt>
      <trkpt lat="48.36774" lon="2.71021">
        <ele>106</ele>
        <time>2019-02-03T13:12:54Z</time>
      </trkpt>
      <trkpt lat="48.36766" lon="2.71012">
        <ele>107</ele>
        <time>2019-02-03T13:13:01Z</time>
      </trkpt>
      <trkpt lat="48.36756" lon="2.70986">
        <ele>107</ele>
        <time>2019-02-03T13:13:15Z</time>
      </trkpt>
      <trkpt lat="48.36754" lon="2.70978">
        <ele>107</ele>
        <time>2019-02-03T13:13:20Z</time>
      </trkpt>
      <trkpt lat="48.36755" lon="2.70963">
        <ele>108</ele>
        <time>2019-02-03T13:13:28Z</time>
      </trkpt>
      <trkpt lat="48.36754" lon="2.70924">
        <ele>108</ele>
        <time>2019-02-03T13:13:48Z</time>
      </trkpt>
      <trkpt lat="48.36756" lon="2.7091">
        <ele>108</ele>
        <time>2019-02-03T13:13:56Z</time>
      </trkpt>
      <trkpt lat="48.36759" lon="2.70912">
        <ele>108</ele>
        <time>2019-02-03T13:14:24Z</time>
      </trkpt>
      <trkpt lat="48.3676" lon="2.7092">
        <ele>107</ele>
        <time>2019-02-03T13:14:28Z</time>
      </trkpt>
      <trkpt lat="48.3676" lon="2.70928">
        <ele>107</ele>
        <time>2019-02-03T13:14:32Z</time>
      </trkpt>
      <trkpt lat="48.36763" lon="2.70934">
        <ele>107</ele>
        <time>2019-02-03T13:14:36Z</time>
      </trkpt>
      <trkpt lat="48.36764" lon="2.70941">
        <ele>107</ele>
        <time>2019-02-03T13:14:41Z</time>
      </trkpt>
      <trkpt lat="48.36762" lon="2.70948">
        <ele>107</ele>
        <time>2019-02-03T13:14:45Z</time>
      </trkpt>
      <trkpt lat="48.36757" lon="2.70951">
        <ele>107</ele>
        <time>2019-02-03T13:14:48Z</time>
      </trkpt>
      <trkpt lat="48.36723" lon="2.70965">
        <ele>108</ele>
        <time>2019-02-03T13:15:22Z</time>
      </trkpt>
      <trkpt lat="48.36702" lon="2.70963">
        <ele>109</ele>
        <time>2019-02-03T13:15:41Z</time>
      </trkpt>
      <trkpt lat="48.36666" lon="2.70969">
        <ele>111</ele>
        <time>2019-02-03T13:16:10Z</time>
      </trkpt>
      <trkpt lat="48.36661" lon="2.70968">
        <ele>111</ele>
        <time>2019-02-03T13:16:14Z</time>
      </trkpt>
      <trkpt lat="48.36642" lon="2.70973">
        <ele>113</ele>
        <time>2019-02-03T13:16:33Z</time>
      </trkpt>
      <trkpt lat="48.36632" lon="2.70971">
        <ele>115</ele>
        <time>2019-02-03T13:16:45Z</time>
      </trkpt>
      <trkpt lat="48.36627" lon="2.70968">
        <ele>116</ele>
        <time>2019-02-03T13:16:50Z</time>
      </trkpt>
      <trkpt lat="48.3662" lon="2.70968">
        <ele>117</ele>
        <time>2019-02-03T13:16:57Z</time>
      </trkpt>
      <trkpt lat="48.3661" lon="2.70969">
        <ele>117</ele>
        <time>2019-02-03T13:17:06Z</time>
      </trkpt>
      <trkpt lat="48.36602" lon="2.70967">
        <ele>118</ele>
        <time>2019-02-03T13:17:21Z</time>
      </trkpt>
      <trkpt lat="48.36595" lon="2.70964">
        <ele>119</ele>
        <time>2019-02-03T13:17:27Z</time>
      </trkpt>
      <trkpt lat="48.3659" lon="2.70964">
        <ele>119</ele>
        <time>2019-02-03T13:17:32Z</time>
      </trkpt>
      <trkpt lat="48.36582" lon="2.7096">
        <ele>120</ele>
        <time>2019-02-03T13:17:46Z</time>
      </trkpt>
      <trkpt lat="48.36577" lon="2.70962">
        <ele>120</ele>
        <time>2019-02-03T13:17:52Z</time>
      </trkpt>
      <trkpt lat="48.36572" lon="2.70968">
        <ele>121</ele>
        <time>2019-02-03T13:18:00Z</time>
      </trkpt>
      <trkpt lat="48.36568" lon="2.70973">
        <ele>121</ele>
        <time>2019-02-03T13:18:08Z</time>
      </trkpt>
      <trkpt lat="48.36565" lon="2.70994">
        <ele>119</ele>
        <time>2019-02-03T13:18:32Z</time>
      </trkpt>
      <trkpt lat="48.36564" lon="2.71002">
        <ele>118</ele>
        <time>2019-02-03T13:18:38Z</time>
      </trkpt>
      <trkpt lat="48.36565" lon="2.71009">
        <ele>116</ele>
        <time>2019-02-03T13:18:46Z</time>
      </trkpt>
      <trkpt lat="48.36569" lon="2.71022">
        <ele>115</ele>
        <time>2019-02-03T13:18:57Z</time>
      </trkpt>
      <trkpt lat="48.3657" lon="2.71034">
        <ele>112</ele>
        <time>2019-02-03T13:19:06Z</time>
      </trkpt>
      <trkpt lat="48.36569" lon="2.71057">
        <ele>108</ele>
        <time>2019-02-03T13:19:28Z</time>
      </trkpt>
      <trkpt lat="48.36572" lon="2.71071">
        <ele>107</ele>
        <time>2019-02-03T13:19:38Z</time>
      </trkpt>
      <trkpt lat="48.36571" lon="2.71078">
        <ele>106</ele>
        <time>2019-02-03T13:19:42Z</time>
      </trkpt>
      <trkpt lat="48.36573" lon="2.71086">
        <ele>106</ele>
        <time>2019-02-03T13:19:47Z</time>
      </trkpt>
      <trkpt lat="48.36573" lon="2.71101">
        <ele>105</ele>
        <time>2019-02-03T13:19:54Z</time>
      </trkpt>
      <trkpt lat="48.36576" lon="2.71108">
        <ele>105</ele>
        <time>2019-02-03T13:19:58Z</time>
      </trkpt>
      <trkpt lat="48.36577" lon="2.71116">
        <ele>105</ele>
        <time>2019-02-03T13:20:02Z</time>
      </trkpt>
      <trkpt lat="48.36577" lon="2.71123">
        <ele>105</ele>
        <time>2019-02-03T13:20:05Z</time>
      </trkpt>
      <trkpt lat="48.36572" lon="2.71138">
        <ele>104</ele>
        <time>2019-02-03T13:20:12Z</time>
      </trkpt>
      <trkpt lat="48.3657" lon="2.71143">
        <ele>103</ele>
        <time>2019-02-03T13:20:16Z</time>
      </trkpt>
      <trkpt lat="48.36569" lon="2.7115">
        <ele>102</ele>
        <time>2019-02-03T13:20:21Z</time>
      </trkpt>
      <trkpt lat="48.3657" lon="2.71159">
        <ele>100</ele>
        <time>2019-02-03T13:20:29Z</time>
      </trkpt>
      <trkpt lat="48.36569" lon="2.71165">
        <ele>99</ele>
        <time>2019-02-03T13:20:35Z</time>
      </trkpt>
      <trkpt lat="48.36573" lon="2.71171">
        <ele>99</ele>
        <time>2019-02-03T13:20:38Z</time>
      </trkpt>
      <trkpt lat="48.36578" lon="2.71175">
        <ele>98</ele>
        <time>2019-02-03T13:20:41Z</time>
      </trkpt>
      <trkpt lat="48.3658" lon="2.71182">
        <ele>98</ele>
        <time>2019-02-03T13:20:46Z</time>
      </trkpt>
      <trkpt lat="48.36582" lon="2.71189">
        <ele>97</ele>
        <time>2019-02-03T13:20:50Z</time>
      </trkpt>
      <trkpt lat="48.36582" lon="2.71209">
        <ele>95</ele>
        <time>2019-02-03T13:21:02Z</time>
      </trkpt>
      <trkpt lat="48.36579" lon="2.71215">
        <ele>95</ele>
        <time>2019-02-03T13:21:04Z</time>
      </trkpt>
      <trkpt lat="48.36576" lon="2.7122">
        <ele>95</ele>
        <time>2019-02-03T13:21:06Z</time>
      </trkpt>
      <trkpt lat="48.36573" lon="2.71226">
        <ele>95</ele>
        <time>2019-02-03T13:21:09Z</time>
      </trkpt>
      <trkpt lat="48.36572" lon="2.71234">
        <ele>94</ele>
        <time>2019-02-03T13:21:12Z</time>
      </trkpt>
      <trkpt lat="48.36568" lon="2.71248">
        <ele>94</ele>
        <time>2019-02-03T13:21:19Z</time>
      </trkpt>
      <trkpt lat="48.36568" lon="2.71255">
        <ele>93</ele>
        <time>2019-02-03T13:21:23Z</time>
      </trkpt>
      <trkpt lat="48.36565" lon="2.71265">
        <ele>92</ele>
        <time>2019-02-03T13:21:30Z</time>
      </trkpt>
      <trkpt lat="48.36556" lon="2.71275">
        <ele>92</ele>
        <time>2019-02-03T13:21:38Z</time>
      </trkpt>
      <trkpt lat="48.36557" lon="2.71284">
        <ele>92</ele>
        <time>2019-02-03T13:21:42Z</time>
      </trkpt>
      <trkpt lat="48.36559" lon="2.71291">
        <ele>91</ele>
        <time>2019-02-03T13:21:46Z</time>
      </trkpt>
      <trkpt lat="48.36559" lon="2.71299">
        <ele>91</ele>
        <time>2019-02-03T13:21:50Z</time>
      </trkpt>
      <trkpt lat="48.36558" lon="2.71306">
        <ele>91</ele>
        <time>2019-02-03T13:21:54Z</time>
      </trkpt>
      <trkpt lat="48.36559" lon="2.71312">
        <ele>91</ele>
        <time>2019-02-03T13:21:58Z</time>
      </trkpt>
      <trkpt lat="48.36559" lon="2.71319">
        <ele>91</ele>
        <time>2019-02-03T13:22:02Z</time>
      </trkpt>
      <trkpt lat="48.36557" lon="2.71327">
        <ele>91</ele>
        <time>2019-02-03T13:22:06Z</time>
      </trkpt>
      <trkpt lat="48.36556" lon="2.71335">
        <ele>91</ele>
        <time>2019-02-03T13:22:10Z</time>
      </trkpt>
      <trkpt lat="48.36553" lon="2.71341">
        <ele>91</ele>
        <time>2019-02-03T13:22:13Z</time>
      </trkpt>
      <trkpt lat="48.36552" lon="2.71349">
        <ele>91</ele>
        <time>2019-02-03T13:22:17Z</time>
      </trkpt>
      <trkpt lat="48.36552" lon="2.71356">
        <ele>90</ele>
        <time>2019-02-03T13:22:21Z</time>
      </trkpt>
      <trkpt lat="48.36555" lon="2.7137">
        <ele>90</ele>
        <time>2019-02-03T13:22:29Z</time>
      </trkpt>
      <trkpt lat="48.36553" lon="2.71401">
        <ele>90</ele>
        <time>2019-02-03T13:22:46Z</time>
      </trkpt>
      <trkpt lat="48.36552" lon="2.71409">
        <ele>90</ele>
        <time>2019-02-03T13:22:50Z</time>
      </trkpt>
      <trkpt lat="48.36552" lon="2.71425">
        <ele>89</ele>
        <time>2019-02-03T13:22:57Z</time>
      </trkpt>
      <trkpt lat="48.36545" lon="2.71487">
        <ele>88</ele>
        <time>2019-02-03T13:23:25Z</time>
      </trkpt>
      <trkpt lat="48.36545" lon="2.71494">
        <ele>87</ele>
        <time>2019-02-03T13:23:28Z</time>
      </trkpt>
      <trkpt lat="48.36534" lon="2.71555">
        <ele>87</ele>
        <time>2019-02-03T13:23:58Z</time>
      </trkpt>
      <trkpt lat="48.36534" lon="2.71578">
        <ele>87</ele>
        <time>2019-02-03T13:24:10Z</time>
      </trkpt>
      <trkpt lat="48.36535" lon="2.71595">
        <ele>86</ele>
        <time>2019-02-03T13:24:18Z</time>
      </trkpt>
      <trkpt lat="48.36539" lon="2.71601">
        <ele>86</ele>
        <time>2019-02-03T13:24:22Z</time>
      </trkpt>
      <trkpt lat="48.36546" lon="2.71611">
        <ele>85</ele>
        <time>2019-02-03T13:24:28Z</time>
      </trkpt>
      <trkpt lat="48.36543" lon="2.71618">
        <ele>86</ele>
        <time>2019-02-03T13:24:32Z</time>
      </trkpt>
      <trkpt lat="48.36541" lon="2.71625">
        <ele>86</ele>
        <time>2019-02-03T13:24:36Z</time>
      </trkpt>
      <trkpt lat="48.36537" lon="2.71632">
        <ele>86</ele>
        <time>2019-02-03T13:24:43Z</time>
      </trkpt>
      <trkpt lat="48.36533" lon="2.71636">
        <ele>86</ele>
        <time>2019-02-03T13:24:59Z</time>
      </trkpt>
      <trkpt lat="48.36526" lon="2.71644">
        <ele>86</ele>
        <time>2019-02-03T13:25:09Z</time>
      </trkpt>
      <trkpt lat="48.36526" lon="2.71651">
        <ele>86</ele>
        <time>2019-02-03T13:25:12Z</time>
      </trkpt>
      <trkpt lat="48.36527" lon="2.71659">
        <ele>86</ele>
        <time>2019-02-03T13:25:17Z</time>
      </trkpt>
      <trkpt lat="48.36529" lon="2.71666">
        <ele>85</ele>
        <time>2019-02-03T13:25:21Z</time>
      </trkpt>
      <trkpt lat="48.36528" lon="2.71675">
        <ele>85</ele>
        <time>2019-02-03T13:25:25Z</time>
      </trkpt>
      <trkpt lat="48.36526" lon="2.71683">
        <ele>85</ele>
        <time>2019-02-03T13:25:29Z</time>
      </trkpt>
      <trkpt lat="48.36526" lon="2.71689">
        <ele>84</ele>
        <time>2019-02-03T13:25:33Z</time>
      </trkpt>
      <trkpt lat="48.3653" lon="2.71694">
        <ele>84</ele>
        <time>2019-02-03T13:25:37Z</time>
      </trkpt>
      <trkpt lat="48.36533" lon="2.717">
        <ele>84</ele>
        <time>2019-02-03T13:25:40Z</time>
      </trkpt>
      <trkpt lat="48.36528" lon="2.71713">
        <ele>84</ele>
        <time>2019-02-03T13:25:46Z</time>
      </trkpt>
      <trkpt lat="48.36528" lon="2.71721">
        <ele>83</ele>
        <time>2019-02-03T13:25:50Z</time>
      </trkpt>
      <trkpt lat="48.36525" lon="2.71729">
        <ele>83</ele>
        <time>2019-02-03T13:25:54Z</time>
      </trkpt>
      <trkpt lat="48.36524" lon="2.71735">
        <ele>83</ele>
        <time>2019-02-03T13:25:58Z</time>
      </trkpt>
      <trkpt lat="48.36524" lon="2.71743">
        <ele>83</ele>
        <time>2019-02-03T13:26:02Z</time>
      </trkpt>
      <trkpt lat="48.36522" lon="2.71748">
        <ele>83</ele>
        <time>2019-02-03T13:26:07Z</time>
      </trkpt>
      <trkpt lat="48.36525" lon="2.71765">
        <ele>83</ele>
        <time>2019-02-03T13:26:16Z</time>
      </trkpt>
      <trkpt lat="48.36525" lon="2.71771">
        <ele>83</ele>
        <time>2019-02-03T13:26:21Z</time>
      </trkpt>
      <trkpt lat="48.36528" lon="2.71776">
        <ele>83</ele>
        <time>2019-02-03T13:26:28Z</time>
      </trkpt>
      <trkpt lat="48.36525" lon="2.71785">
        <ele>83</ele>
        <time>2019-02-03T13:26:44Z</time>
      </trkpt>
      <trkpt lat="48.36526" lon="2.71794">
        <ele>83</ele>
        <time>2019-02-03T13:26:48Z</time>
      </trkpt>
      <trkpt lat="48.36523" lon="2.71802">
        <ele>83</ele>
        <time>2019-02-03T13:26:52Z</time>
      </trkpt>
      <trkpt lat="48.3652" lon="2.71808">
        <ele>83</ele>
        <time>2019-02-03T13:26:56Z</time>
      </trkpt>
      <trkpt lat="48.36517" lon="2.71815">
        <ele>83</ele>
        <time>2019-02-03T13:27:00Z</time>
      </trkpt>
      <trkpt lat="48.36521" lon="2.71836">
        <ele>82</ele>
        <time>2019-02-03T13:27:10Z</time>
      </trkpt>
      <trkpt lat="48.3652" lon="2.71861">
        <ele>82</ele>
        <time>2019-02-03T13:27:21Z</time>
      </trkpt>
      <trkpt lat="48.36524" lon="2.71882">
        <ele>82</ele>
        <time>2019-02-03T13:27:33Z</time>
      </trkpt>
      <trkpt lat="48.36523" lon="2.71897">
        <ele>82</ele>
        <time>2019-02-03T13:27:40Z</time>
      </trkpt>
      <trkpt lat="48.36523" lon="2.71906">
        <ele>82</ele>
        <time>2019-02-03T13:27:44Z</time>
      </trkpt>
      <trkpt lat="48.36525" lon="2.71922">
        <ele>81</ele>
        <time>2019-02-03T13:27:53Z</time>
      </trkpt>
      <trkpt lat="48.36524" lon="2.71929">
        <ele>81</ele>
        <time>2019-02-03T13:27:57Z</time>
      </trkpt>
      <trkpt lat="48.36525" lon="2.71937">
        <ele>81</ele>
        <time>2019-02-03T13:28:01Z</time>
      </trkpt>
      <trkpt lat="48.36522" lon="2.71945">
        <ele>82</ele>
        <time>2019-02-03T13:28:05Z</time>
      </trkpt>
      <trkpt lat="48.36518" lon="2.71958">
        <ele>82</ele>
        <time>2019-02-03T13:28:11Z</time>
      </trkpt>
      <trkpt lat="48.36516" lon="2.71966">
        <ele>82</ele>
        <time>2019-02-03T13:28:15Z</time>
      </trkpt>
      <trkpt lat="48.36517" lon="2.71974">
        <ele>82</ele>
        <time>2019-02-03T13:28:19Z</time>
      </trkpt>
      <trkpt lat="48.36516" lon="2.71982">
        <ele>82</ele>
        <time>2019-02-03T13:28:22Z</time>
      </trkpt>
      <trkpt lat="48.36503" lon="2.72019">
        <ele>82</ele>
        <time>2019-02-03T13:28:40Z</time>
      </trkpt>
      <trkpt lat="48.365" lon="2.72024">
        <ele>82</ele>
        <time>2019-02-03T13:28:44Z</time>
      </trkpt>
      <trkpt lat="48.365" lon="2.72039">
        <ele>82</ele>
        <time>2019-02-03T13:28:58Z</time>
      </trkpt>
      <trkpt lat="48.36495" lon="2.72068">
        <ele>82</ele>
        <time>2019-02-03T13:29:12Z</time>
      </trkpt>
      <trkpt lat="48.36497" lon="2.72074">
        <ele>82</ele>
        <time>2019-02-03T13:29:17Z</time>
      </trkpt>
      <trkpt lat="48.36493" lon="2.72078">
        <ele>82</ele>
        <time>2019-02-03T13:29:25Z</time>
      </trkpt>
      <trkpt lat="48.36494" lon="2.72085">
        <ele>83</ele>
        <time>2019-02-03T13:29:31Z</time>
      </trkpt>
      <trkpt lat="48.3649" lon="2.72097">
        <ele>82</ele>
        <time>2019-02-03T13:29:43Z</time>
      </trkpt>
      <trkpt lat="48.36487" lon="2.72103">
        <ele>82</ele>
        <time>2019-02-03T13:29:55Z</time>
      </trkpt>
      <trkpt lat="48.36489" lon="2.72109">
        <ele>82</ele>
        <time>2019-02-03T13:30:00Z</time>
      </trkpt>
      <trkpt lat="48.36491" lon="2.72122">
        <ele>82</ele>
        <time>2019-02-03T13:30:09Z</time>
      </trkpt>
      <trkpt lat="48.3649" lon="2.7213">
        <ele>82</ele>
        <time>2019-02-03T13:30:31Z</time>
      </trkpt>
      <trkpt lat="48.36487" lon="2.72154">
        <ele>82</ele>
        <time>2019-02-03T13:30:49Z</time>
      </trkpt>
      <trkpt lat="48.36485" lon="2.7216">
        <ele>82</ele>
        <time>2019-02-03T13:30:53Z</time>
      </trkpt>
      <trkpt lat="48.36484" lon="2.72185">
        <ele>82</ele>
        <time>2019-02-03T13:31:05Z</time>
      </trkpt>
      <trkpt lat="48.36483" lon="2.72192">
        <ele>82</ele>
        <time>2019-02-03T13:31:09Z</time>
      </trkpt>
      <trkpt lat="48.36484" lon="2.72199">
        <ele>81</ele>
        <time>2019-02-03T13:31:13Z</time>
      </trkpt>
      <trkpt lat="48.36486" lon="2.72215">
        <ele>81</ele>
        <time>2019-02-03T13:31:22Z</time>
      </trkpt>
      <trkpt lat="48.36484" lon="2.72236">
        <ele>81</ele>
        <time>2019-02-03T13:31:34Z</time>
      </trkpt>
      <trkpt lat="48.36487" lon="2.72249">
        <ele>81</ele>
        <time>2019-02-03T13:31:44Z</time>
      </trkpt>
      <trkpt lat="48.36476" lon="2.72293">
        <ele>80</ele>
        <time>2019-02-03T13:32:07Z</time>
      </trkpt>
      <trkpt lat="48.36473" lon="2.72338">
        <ele>80</ele>
        <time>2019-02-03T13:32:28Z</time>
      </trkpt>
      <trkpt lat="48.3647" lon="2.72353">
        <ele>80</ele>
        <time>2019-02-03T13:32:36Z</time>
      </trkpt>
      <trkpt lat="48.36469" lon="2.72361">
        <ele>80</ele>
        <time>2019-02-03T13:32:40Z</time>
      </trkpt>
      <trkpt lat="48.3647" lon="2.7237">
        <ele>80</ele>
        <time>2019-02-03T13:32:44Z</time>
      </trkpt>
      <trkpt lat="48.36468" lon="2.72417">
        <ele>81</ele>
        <time>2019-02-03T13:33:08Z</time>
      </trkpt>
      <trkpt lat="48.36466" lon="2.72424">
        <ele>81</ele>
        <time>2019-02-03T13:33:11Z</time>
      </trkpt>
      <trkpt lat="48.36463" lon="2.7244">
        <ele>81</ele>
        <time>2019-02-03T13:33:19Z</time>
      </trkpt>
      <trkpt lat="48.36459" lon="2.72461">
        <ele>81</ele>
        <time>2019-02-03T13:33:29Z</time>
      </trkpt>
      <trkpt lat="48.36458" lon="2.72469">
        <ele>82</ele>
        <time>2019-02-03T13:33:33Z</time>
      </trkpt>
      <trkpt lat="48.36457" lon="2.72476">
        <ele>81</ele>
        <time>2019-02-03T13:33:38Z</time>
      </trkpt>
      <trkpt lat="48.36455" lon="2.72501">
        <ele>81</ele>
        <time>2019-02-03T13:33:50Z</time>
      </trkpt>
      <trkpt lat="48.36455" lon="2.72509">
        <ele>81</ele>
        <time>2019-02-03T13:33:54Z</time>
      </trkpt>
      <trkpt lat="48.36454" lon="2.72526">
        <ele>81</ele>
        <time>2019-02-03T13:34:02Z</time>
      </trkpt>
      <trkpt lat="48.36455" lon="2.72535">
        <ele>81</ele>
        <time>2019-02-03T13:34:06Z</time>
      </trkpt>
      <trkpt lat="48.36453" lon="2.72543">
        <ele>81</ele>
        <time>2019-02-03T13:34:10Z</time>
      </trkpt>
      <trkpt lat="48.3645" lon="2.72586">
        <ele>80</ele>
        <time>2019-02-03T13:34:32Z</time>
      </trkpt>
      <trkpt lat="48.36441" lon="2.72646">
        <ele>80</ele>
        <time>2019-02-03T13:35:03Z</time>
      </trkpt>
      <trkpt lat="48.36439" lon="2.72654">
        <ele>80</ele>
        <time>2019-02-03T13:35:07Z</time>
      </trkpt>
      <trkpt lat="48.3644" lon="2.72661">
        <ele>80</ele>
        <time>2019-02-03T13:35:11Z</time>
      </trkpt>
      <trkpt lat="48.36439" lon="2.72669">
        <ele>80</ele>
        <time>2019-02-03T13:35:16Z</time>
      </trkpt>
      <trkpt lat="48.36434" lon="2.72673">
        <ele>80</ele>
        <time>2019-02-03T13:35:20Z</time>
      </trkpt>
      <trkpt lat="48.36414" lon="2.72676">
        <ele>80</ele>
        <time>2019-02-03T13:35:35Z</time>
      </trkpt>
      <trkpt lat="48.36409" lon="2.72675">
        <ele>80</ele>
        <time>2019-02-03T13:35:39Z</time>
      </trkpt>
      <trkpt lat="48.36384" lon="2.72681">
        <ele>81</ele>
        <time>2019-02-03T13:35:56Z</time>
      </trkpt>
      <trkpt lat="48.36374" lon="2.72678">
        <ele>81</ele>
        <time>2019-02-03T13:36:04Z</time>
      </trkpt>
      <trkpt lat="48.36368" lon="2.7268">
        <ele>81</ele>
        <time>2019-02-03T13:36:08Z</time>
      </trkpt>
      <trkpt lat="48.36363" lon="2.72681">
        <ele>81</ele>
        <time>2019-02-03T13:36:12Z</time>
      </trkpt>
      <trkpt lat="48.36347" lon="2.7268">
        <ele>80</ele>
        <time>2019-02-03T13:36:24Z</time>
      </trkpt>
      <trkpt lat="48.36342" lon="2.72682">
        <ele>80</ele>
        <time>2019-02-03T13:36:28Z</time>
      </trkpt>
      <trkpt lat="48.36331" lon="2.72681">
        <ele>80</ele>
        <time>2019-02-03T13:36:36Z</time>
      </trkpt>
      <trkpt lat="48.36322" lon="2.72677">
        <ele>80</ele>
        <time>2019-02-03T13:36:43Z</time>
      </trkpt>
      <trkpt lat="48.36296" lon="2.72676">
        <ele>80</ele>
        <time>2019-02-03T13:37:04Z</time>
      </trkpt>
      <trkpt lat="48.36287" lon="2.72672">
        <ele>81</ele>
        <time>2019-02-03T13:37:11Z</time>
      </trkpt>
      <trkpt lat="48.36267" lon="2.72672">
        <ele>80</ele>
        <time>2019-02-03T13:37:27Z</time>
      </trkpt>
      <trkpt lat="48.36262" lon="2.7267">
        <ele>81</ele>
        <time>2019-02-03T13:37:31Z</time>
      </trkpt>
      <trkpt lat="48.36236" lon="2.72672">
        <ele>80</ele>
        <time>2019-02-03T13:38:02Z</time>
      </trkpt>
      <trkpt lat="48.36201" lon="2.72673">
        <ele>80</ele>
        <time>2019-02-03T13:38:33Z</time>
      </trkpt>
      <trkpt lat="48.36175" lon="2.72671">
        <ele>80</ele>
        <time>2019-02-03T13:38:51Z</time>
      </trkpt>
      <trkpt lat="48.36164" lon="2.7267">
        <ele>80</ele>
        <time>2019-02-03T13:39:00Z</time>
      </trkpt>
      <trkpt lat="48.36134" lon="2.72662">
        <ele>80</ele>
        <time>2019-02-03T13:39:25Z</time>
      </trkpt>
      <trkpt lat="48.36129" lon="2.72663">
        <ele>80</ele>
        <time>2019-02-03T13:39:29Z</time>
      </trkpt>
      <trkpt lat="48.36113" lon="2.72658">
        <ele>80</ele>
        <time>2019-02-03T13:39:43Z</time>
      </trkpt>
      <trkpt lat="48.36107" lon="2.72658">
        <ele>80</ele>
        <time>2019-02-03T13:39:48Z</time>
      </trkpt>
      <trkpt lat="48.36091" lon="2.72654">
        <ele>80</ele>
        <time>2019-02-03T13:40:02Z</time>
      </trkpt>
      <trkpt lat="48.36048" lon="2.72653">
        <ele>80</ele>
        <time>2019-02-03T13:40:33Z</time>
      </trkpt>
      <trkpt lat="48.36038" lon="2.72651">
        <ele>80</ele>
        <time>2019-02-03T13:40:42Z</time>
      </trkpt>
      <trkpt lat="48.36017" lon="2.72654">
        <ele>80</ele>
        <time>2019-02-03T13:40:57Z</time>
      </trkpt>
      <trkpt lat="48.36011" lon="2.72653">
        <ele>80</ele>
        <time>2019-02-03T13:41:01Z</time>
      </trkpt>
      <trkpt lat="48.36001" lon="2.72653">
        <ele>80</ele>
        <time>2019-02-03T13:41:09Z</time>
      </trkpt>
      <trkpt lat="48.35962" lon="2.72645">
        <ele>80</ele>
        <time>2019-02-03T13:41:41Z</time>
      </trkpt>
      <trkpt lat="48.35957" lon="2.72645">
        <ele>80</ele>
        <time>2019-02-03T13:41:45Z</time>
      </trkpt>
      <trkpt lat="48.35946" lon="2.72649">
        <ele>80</ele>
        <time>2019-02-03T13:41:52Z</time>
      </trkpt>
      <trkpt lat="48.35935" lon="2.7265">
        <ele>80</ele>
        <time>2019-02-03T13:41:59Z</time>
      </trkpt>
      <trkpt lat="48.35919" lon="2.72643">
        <ele>80</ele>
        <time>2019-02-03T13:42:11Z</time>
      </trkpt>
      <trkpt lat="48.35883" lon="2.72647">
        <ele>81</ele>
        <time>2019-02-03T13:42:40Z</time>
      </trkpt>
      <trkpt lat="48.35841" lon="2.72642">
        <ele>82</ele>
        <time>2019-02-03T13:43:13Z</time>
      </trkpt>
      <trkpt lat="48.35836" lon="2.7264">
        <ele>82</ele>
        <time>2019-02-03T13:43:18Z</time>
      </trkpt>
      <trkpt lat="48.35826" lon="2.72641">
        <ele>83</ele>
        <time>2019-02-03T13:43:44Z</time>
      </trkpt>
      <trkpt lat="48.35821" lon="2.7264">
        <ele>83</ele>
        <time>2019-02-03T13:43:48Z</time>
      </trkpt>
      <trkpt lat="48.35817" lon="2.72638">
        <ele>83</ele>
        <time>2019-02-03T13:43:58Z</time>
      </trkpt>
      <trkpt lat="48.35809" lon="2.72634">
        <ele>83</ele>
        <time>2019-02-03T13:44:10Z</time>
      </trkpt>
      <trkpt lat="48.35794" lon="2.72639">
        <ele>84</ele>
        <time>2019-02-03T13:44:24Z</time>
      </trkpt>
      <trkpt lat="48.35784" lon="2.72635">
        <ele>84</ele>
        <time>2019-02-03T13:44:34Z</time>
      </trkpt>
      <trkpt lat="48.3578" lon="2.72632">
        <ele>84</ele>
        <time>2019-02-03T13:44:38Z</time>
      </trkpt>
      <trkpt lat="48.35771" lon="2.72628">
        <ele>85</ele>
        <time>2019-02-03T13:44:47Z</time>
      </trkpt>
      <trkpt lat="48.35765" lon="2.72623">
        <ele>85</ele>
        <time>2019-02-03T13:44:54Z</time>
      </trkpt>
      <trkpt lat="48.35756" lon="2.7262">
        <ele>86</ele>
        <time>2019-02-03T13:45:03Z</time>
      </trkpt>
      <trkpt lat="48.35732" lon="2.72619">
        <ele>87</ele>
        <time>2019-02-03T13:45:24Z</time>
      </trkpt>
      <trkpt lat="48.35717" lon="2.72608">
        <ele>88</ele>
        <time>2019-02-03T13:45:42Z</time>
      </trkpt>
      <trkpt lat="48.35695" lon="2.726">
        <ele>89</ele>
        <time>2019-02-03T13:46:10Z</time>
      </trkpt>
      <trkpt lat="48.35686" lon="2.72598">
        <ele>92</ele>
        <time>2019-02-03T13:46:34Z</time>
      </trkpt>
      <trkpt lat="48.35677" lon="2.72609">
        <ele>94</ele>
        <time>2019-02-03T13:46:52Z</time>
      </trkpt>
      <trkpt lat="48.35667" lon="2.72611">
        <ele>95</ele>
        <time>2019-02-03T13:47:04Z</time>
      </trkpt>
      <trkpt lat="48.35638" lon="2.72617">
        <ele>98</ele>
        <time>2019-02-03T13:47:35Z</time>
      </trkpt>
      <trkpt lat="48.35623" lon="2.72623">
        <ele>100</ele>
        <time>2019-02-03T13:47:51Z</time>
      </trkpt>
      <trkpt lat="48.35613" lon="2.72623">
        <ele>101</ele>
        <time>2019-02-03T13:48:06Z</time>
      </trkpt>
      <trkpt lat="48.35603" lon="2.72622">
        <ele>100</ele>
        <time>2019-02-03T13:48:14Z</time>
      </trkpt>
      <trkpt lat="48.35594" lon="2.7263">
        <ele>102</ele>
        <time>2019-02-03T13:48:29Z</time>
      </trkpt>
      <trkpt lat="48.35589" lon="2.72632">
        <ele>102</ele>
        <time>2019-02-03T13:48:35Z</time>
      </trkpt>
      <trkpt lat="48.35586" lon="2.72638">
        <ele>101</ele>
        <time>2019-02-03T13:48:40Z</time>
      </trkpt>
      <trkpt lat="48.35574" lon="2.72647">
        <ele>98</ele>
        <time>2019-02-03T13:48:53Z</time>
      </trkpt>
      <trkpt lat="48.35569" lon="2.72649">
        <ele>97</ele>
        <time>2019-02-03T13:48:57Z</time>
      </trkpt>
      <trkpt lat="48.35562" lon="2.7266">
        <ele>95</ele>
        <time>2019-02-03T13:49:16Z</time>
      </trkpt>
      <trkpt lat="48.35553" lon="2.72682">
        <ele>93</ele>
        <time>2019-02-03T13:49:38Z</time>
      </trkpt>
      <trkpt lat="48.35547" lon="2.7269">
        <ele>90</ele>
        <time>2019-02-03T13:49:52Z</time>
      </trkpt>
      <trkpt lat="48.35533" lon="2.72699">
        <ele>89</ele>
        <time>2019-02-03T13:50:02Z</time>
      </trkpt>
      <trkpt lat="48.35528" lon="2.72713">
        <ele>89</ele>
        <time>2019-02-03T13:50:11Z</time>
      </trkpt>
      <trkpt lat="48.35527" lon="2.7276">
        <ele>89</ele>
        <time>2019-02-03T13:50:39Z</time>
      </trkpt>
      <trkpt lat="48.35529" lon="2.72768">
        <ele>89</ele>
        <time>2019-02-03T13:50:43Z</time>
      </trkpt>
      <trkpt lat="48.35527" lon="2.72798">
        <ele>89</ele>
        <time>2019-02-03T13:50:59Z</time>
      </trkpt>
      <trkpt lat="48.35525" lon="2.72813">
        <ele>89</ele>
        <time>2019-02-03T13:51:08Z</time>
      </trkpt>
      <trkpt lat="48.35525" lon="2.72821">
        <ele>89</ele>
        <time>2019-02-03T13:51:12Z</time>
      </trkpt>
      <trkpt lat="48.35526" lon="2.72828">
        <ele>89</ele>
        <time>2019-02-03T13:51:16Z</time>
      </trkpt>
      <trkpt lat="48.35524" lon="2.72845">
        <ele>88</ele>
        <time>2019-02-03T13:51:24Z</time>
      </trkpt>
      <trkpt lat="48.35523" lon="2.72852">
        <ele>88</ele>
        <time>2019-02-03T13:51:28Z</time>
      </trkpt>
      <trkpt lat="48.35521" lon="2.72859">
        <ele>88</ele>
        <time>2019-02-03T13:51:32Z</time>
      </trkpt>
      <trkpt lat="48.35521" lon="2.72866">
        <ele>88</ele>
        <time>2019-02-03T13:51:36Z</time>
      </trkpt>
      <trkpt lat="48.35521" lon="2.72873">
        <ele>88</ele>
        <time>2019-02-03T13:51:40Z</time>
      </trkpt>
      <trkpt lat="48.35521" lon="2.7288">
        <ele>89</ele>
        <time>2019-02-03T13:51:43Z</time>
      </trkpt>
      <trkpt lat="48.35518" lon="2.72896">
        <ele>88</ele>
        <time>2019-02-03T13:51:51Z</time>
      </trkpt>
      <trkpt lat="48.35515" lon="2.72904">
        <ele>88</ele>
        <time>2019-02-03T13:51:55Z</time>
      </trkpt>
      <trkpt lat="48.35508" lon="2.72912">
        <ele>88</ele>
        <time>2019-02-03T13:52:02Z</time>
      </trkpt>
      <trkpt lat="48.35503" lon="2.72916">
        <ele>88</ele>
        <time>2019-02-03T13:52:05Z</time>
      </trkpt>
      <trkpt lat="48.35495" lon="2.72925">
        <ele>88</ele>
        <time>2019-02-03T13:52:13Z</time>
      </trkpt>
      <trkpt lat="48.35491" lon="2.72931">
        <ele>87</ele>
        <time>2019-02-03T13:52:17Z</time>
      </trkpt>
      <trkpt lat="48.35487" lon="2.72936">
        <ele>87</ele>
        <time>2019-02-03T13:52:21Z</time>
      </trkpt>
      <trkpt lat="48.35482" lon="2.7295">
        <ele>87</ele>
        <time>2019-02-03T13:52:29Z</time>
      </trkpt>
      <trkpt lat="48.35474" lon="2.7296">
        <ele>87</ele>
        <time>2019-02-03T13:52:38Z</time>
      </trkpt>
      <trkpt lat="48.3545" lon="2.72983">
        <ele>87</ele>
        <time>2019-02-03T13:53:03Z</time>
      </trkpt>
      <trkpt lat="48.35445" lon="2.72985">
        <ele>87</ele>
        <time>2019-02-03T13:53:09Z</time>
      </trkpt>
      <trkpt lat="48.35442" lon="2.72989">
        <ele>87</ele>
        <time>2019-02-03T13:53:14Z</time>
      </trkpt>
      <trkpt lat="48.35438" lon="2.72996">
        <ele>87</ele>
        <time>2019-02-03T13:53:19Z</time>
      </trkpt>
      <trkpt lat="48.35432" lon="2.73">
        <ele>87</ele>
        <time>2019-02-03T13:53:23Z</time>
      </trkpt>
      <trkpt lat="48.35424" lon="2.7301">
        <ele>87</ele>
        <time>2019-02-03T13:53:31Z</time>
      </trkpt>
      <trkpt lat="48.35422" lon="2.73016">
        <ele>87</ele>
        <time>2019-02-03T13:53:35Z</time>
      </trkpt>
      <trkpt lat="48.35419" lon="2.73021">
        <ele>87</ele>
        <time>2019-02-03T13:53:40Z</time>
      </trkpt>
      <trkpt lat="48.35414" lon="2.73023">
        <ele>88</ele>
        <time>2019-02-03T13:53:44Z</time>
      </trkpt>
      <trkpt lat="48.35408" lon="2.73027">
        <ele>89</ele>
        <time>2019-02-03T13:53:52Z</time>
      </trkpt>
      <trkpt lat="48.35404" lon="2.73029">
        <ele>89</ele>
        <time>2019-02-03T13:53:56Z</time>
      </trkpt>
      <trkpt lat="48.35399" lon="2.73033">
        <ele>89</ele>
        <time>2019-02-03T13:54:01Z</time>
      </trkpt>
      <trkpt lat="48.35395" lon="2.73038">
        <ele>90</ele>
        <time>2019-02-03T13:54:09Z</time>
      </trkpt>
      <trkpt lat="48.35387" lon="2.7304">
        <ele>91</ele>
        <time>2019-02-03T13:54:20Z</time>
      </trkpt>
      <trkpt lat="48.35371" lon="2.73036">
        <ele>92</ele>
        <time>2019-02-03T13:54:41Z</time>
      </trkpt>
      <trkpt lat="48.35357" lon="2.73033">
        <ele>94</ele>
        <time>2019-02-03T13:55:11Z</time>
      </trkpt>
      <trkpt lat="48.35353" lon="2.73029">
        <ele>95</ele>
        <time>2019-02-03T13:55:19Z</time>
      </trkpt>
      <trkpt lat="48.35348" lon="2.73028">
        <ele>96</ele>
        <time>2019-02-03T13:55:25Z</time>
      </trkpt>
      <trkpt lat="48.35347" lon="2.73036">
        <ele>98</ele>
        <time>2019-02-03T13:55:43Z</time>
      </trkpt>
      <trkpt lat="48.35342" lon="2.73042">
        <ele>99</ele>
        <time>2019-02-03T13:55:55Z</time>
      </trkpt>
      <trkpt lat="48.35341" lon="2.73048">
        <ele>99</ele>
        <time>2019-02-03T13:56:01Z</time>
      </trkpt>
      <trkpt lat="48.35342" lon="2.73056">
        <ele>100</ele>
        <time>2019-02-03T13:56:06Z</time>
      </trkpt>
      <trkpt lat="48.35345" lon="2.73062">
        <ele>100</ele>
        <time>2019-02-03T13:56:09Z</time>
      </trkpt>
      <trkpt lat="48.35346" lon="2.73068">
        <ele>100</ele>
        <time>2019-02-03T13:56:12Z</time>
      </trkpt>
      <trkpt lat="48.35346" lon="2.73076">
        <ele>100</ele>
        <time>2019-02-03T13:56:15Z</time>
      </trkpt>
      <trkpt lat="48.35349" lon="2.73083">
        <ele>100</ele>
        <time>2019-02-03T13:56:25Z</time>
      </trkpt>
      <trkpt lat="48.35348" lon="2.7309">
        <ele>100</ele>
        <time>2019-02-03T13:56:29Z</time>
      </trkpt>
      <trkpt lat="48.35346" lon="2.73096">
        <ele>100</ele>
        <time>2019-02-03T13:56:33Z</time>
      </trkpt>
      <trkpt lat="48.35345" lon="2.73103">
        <ele>101</ele>
        <time>2019-02-03T13:56:38Z</time>
      </trkpt>
      <trkpt lat="48.35352" lon="2.73117">
        <ele>102</ele>
        <time>2019-02-03T13:56:45Z</time>
      </trkpt>
      <trkpt lat="48.3535" lon="2.73125">
        <ele>102</ele>
        <time>2019-02-03T13:56:50Z</time>
      </trkpt>
      <trkpt lat="48.35351" lon="2.73132">
        <ele>103</ele>
        <time>2019-02-03T13:56:55Z</time>
      </trkpt>
      <trkpt lat="48.35351" lon="2.7314">
        <ele>102</ele>
        <time>2019-02-03T13:56:59Z</time>
      </trkpt>
      <trkpt lat="48.3535" lon="2.73147">
        <ele>102</ele>
        <time>2019-02-03T13:57:04Z</time>
      </trkpt>
      <trkpt lat="48.3535" lon="2.73157">
        <ele>103</ele>
        <time>2019-02-03T13:57:12Z</time>
      </trkpt>
      <trkpt lat="48.35348" lon="2.73166">
        <ele>104</ele>
        <time>2019-02-03T13:57:18Z</time>
      </trkpt>
      <trkpt lat="48.35344" lon="2.73177">
        <ele>107</ele>
        <time>2019-02-03T13:57:29Z</time>
      </trkpt>
      <trkpt lat="48.35345" lon="2.73184">
        <ele>107</ele>
        <time>2019-02-03T13:57:33Z</time>
      </trkpt>
      <trkpt lat="48.35344" lon="2.73196">
        <ele>108</ele>
        <time>2019-02-03T13:57:43Z</time>
      </trkpt>
      <trkpt lat="48.35345" lon="2.7321">
        <ele>109</ele>
        <time>2019-02-03T13:57:54Z</time>
      </trkpt>
      <trkpt lat="48.35344" lon="2.73217">
        <ele>109</ele>
        <time>2019-02-03T13:57:58Z</time>
      </trkpt>
      <trkpt lat="48.35339" lon="2.73227">
        <ele>111</ele>
        <time>2019-02-03T13:58:09Z</time>
      </trkpt>
      <trkpt lat="48.35338" lon="2.73233">
        <ele>111</ele>
        <time>2019-02-03T13:58:14Z</time>
      </trkpt>
      <trkpt lat="48.35334" lon="2.73246">
        <ele>112</ele>
        <time>2019-02-03T13:58:23Z</time>
      </trkpt>
      <trkpt lat="48.3533" lon="2.73252">
        <ele>114</ele>
        <time>2019-02-03T13:58:37Z</time>
      </trkpt>
      <trkpt lat="48.35329" lon="2.7326">
        <ele>115</ele>
        <time>2019-02-03T13:58:49Z</time>
      </trkpt>
      <trkpt lat="48.35324" lon="2.73264">
        <ele>116</ele>
        <time>2019-02-03T13:58:55Z</time>
      </trkpt>
      <trkpt lat="48.35322" lon="2.73269">
        <ele>116</ele>
        <time>2019-02-03T13:59:00Z</time>
      </trkpt>
      <trkpt lat="48.35315" lon="2.73274">
        <ele>117</ele>
        <time>2019-02-03T13:59:09Z</time>
      </trkpt>
      <trkpt lat="48.35309" lon="2.73279">
        <ele>117</ele>
        <time>2019-02-03T13:59:16Z</time>
      </trkpt>
      <trkpt lat="48.35303" lon="2.73291">
        <ele>116</ele>
        <time>2019-02-03T13:59:24Z</time>
      </trkpt>
      <trkpt lat="48.35298" lon="2.73294">
        <ele>116</ele>
        <time>2019-02-03T13:59:28Z</time>
      </trkpt>
      <trkpt lat="48.35294" lon="2.73298">
        <ele>116</ele>
        <time>2019-02-03T13:59:32Z</time>
      </trkpt>
      <trkpt lat="48.35291" lon="2.73305">
        <ele>116</ele>
        <time>2019-02-03T13:59:36Z</time>
      </trkpt>
      <trkpt lat="48.35292" lon="2.73316">
        <ele>116</ele>
        <time>2019-02-03T13:59:44Z</time>
      </trkpt>
      <trkpt lat="48.35295" lon="2.73334">
        <ele>116</ele>
        <time>2019-02-03T13:59:54Z</time>
      </trkpt>
      <trkpt lat="48.35298" lon="2.73342">
        <ele>117</ele>
        <time>2019-02-03T14:00:02Z</time>
      </trkpt>
      <trkpt lat="48.35299" lon="2.73349">
        <ele>118</ele>
        <time>2019-02-03T14:00:08Z</time>
      </trkpt>
      <trkpt lat="48.35299" lon="2.73356">
        <ele>118</ele>
        <time>2019-02-03T14:00:13Z</time>
      </trkpt>
      <trkpt lat="48.35292" lon="2.73375">
        <ele>120</ele>
        <time>2019-02-03T14:00:27Z</time>
      </trkpt>
      <trkpt lat="48.35294" lon="2.73381">
        <ele>121</ele>
        <time>2019-02-03T14:00:32Z</time>
      </trkpt>
      <trkpt lat="48.3529" lon="2.734">
        <ele>124</ele>
        <time>2019-02-03T14:01:04Z</time>
      </trkpt>
      <trkpt lat="48.35293" lon="2.73406">
        <ele>125</ele>
        <time>2019-02-03T14:01:22Z</time>
      </trkpt>
      <trkpt lat="48.35295" lon="2.73413">
        <ele>123</ele>
        <time>2019-02-03T14:01:29Z</time>
      </trkpt>
      <trkpt lat="48.353" lon="2.73424">
        <ele>123</ele>
        <time>2019-02-03T14:01:43Z</time>
      </trkpt>
      <trkpt lat="48.35307" lon="2.73429">
        <ele>122</ele>
        <time>2019-02-03T14:01:56Z</time>
      </trkpt>
      <trkpt lat="48.35321" lon="2.73451">
        <ele>123</ele>
        <time>2019-02-03T14:02:12Z</time>
      </trkpt>
      <trkpt lat="48.35326" lon="2.73473">
        <ele>125</ele>
        <time>2019-02-03T14:02:30Z</time>
      </trkpt>
      <trkpt lat="48.3533" lon="2.73481">
        <ele>125</ele>
        <time>2019-02-03T14:02:39Z</time>
      </trkpt>
      <trkpt lat="48.35332" lon="2.73488">
        <ele>125</ele>
        <time>2019-02-03T14:02:45Z</time>
      </trkpt>
      <trkpt lat="48.35337" lon="2.73493">
        <ele>125</ele>
        <time>2019-02-03T14:02:54Z</time>
      </trkpt>
      <trkpt lat="48.3534" lon="2.73499">
        <ele>125</ele>
        <time>2019-02-03T14:02:58Z</time>
      </trkpt>
      <trkpt lat="48.35343" lon="2.73504">
        <ele>124</ele>
        <time>2019-02-03T14:03:02Z</time>
      </trkpt>
      <trkpt lat="48.35344" lon="2.73511">
        <ele>124</ele>
        <time>2019-02-03T14:03:06Z</time>
      </trkpt>
      <trkpt lat="48.35344" lon="2.73518">
        <ele>124</ele>
        <time>2019-02-03T14:03:11Z</time>
      </trkpt>
      <trkpt lat="48.35343" lon="2.73528">
        <ele>123</ele>
        <time>2019-02-03T14:03:24Z</time>
      </trkpt>
      <trkpt lat="48.35343" lon="2.73537">
        <ele>122</ele>
        <time>2019-02-03T14:03:32Z</time>
      </trkpt>
      <trkpt lat="48.35346" lon="2.73542">
        <ele>119</ele>
        <time>2019-02-03T14:03:44Z</time>
      </trkpt>
      <trkpt lat="48.35353" lon="2.73552">
        <ele>117</ele>
        <time>2019-02-03T14:03:57Z</time>
      </trkpt>
      <trkpt lat="48.35352" lon="2.7356">
        <ele>116</ele>
        <time>2019-02-03T14:04:05Z</time>
      </trkpt>
      <trkpt lat="48.35356" lon="2.73566">
        <ele>116</ele>
        <time>2019-02-03T14:04:09Z</time>
      </trkpt>
      <trkpt lat="48.3536" lon="2.73567">
        <ele>116</ele>
        <time>2019-02-03T14:04:14Z</time>
      </trkpt>
      <trkpt lat="48.35367" lon="2.7357">
        <ele>116</ele>
        <time>2019-02-03T14:04:24Z</time>
      </trkpt>
      <trkpt lat="48.35376" lon="2.73561">
        <ele>120</ele>
        <time>2019-02-03T14:04:48Z</time>
      </trkpt>
      <trkpt lat="48.35381" lon="2.73553">
        <ele>121</ele>
        <time>2019-02-03T14:05:00Z</time>
      </trkpt>
      <trkpt lat="48.35384" lon="2.73548">
        <ele>122</ele>
        <time>2019-02-03T14:05:05Z</time>
      </trkpt>
      <trkpt lat="48.35387" lon="2.73541">
        <ele>122</ele>
        <time>2019-02-03T14:05:09Z</time>
      </trkpt>
      <trkpt lat="48.35394" lon="2.73534">
        <ele>123</ele>
        <time>2019-02-03T14:05:16Z</time>
      </trkpt>
      <trkpt lat="48.35395" lon="2.73519">
        <ele>123</ele>
        <time>2019-02-03T14:05:25Z</time>
      </trkpt>
      <trkpt lat="48.35397" lon="2.73513">
        <ele>123</ele>
        <time>2019-02-03T14:05:30Z</time>
      </trkpt>
      <trkpt lat="48.35397" lon="2.73503">
        <ele>123</ele>
        <time>2019-02-03T14:05:39Z</time>
      </trkpt>
      <trkpt lat="48.35396" lon="2.73496">
        <ele>123</ele>
        <time>2019-02-03T14:05:44Z</time>
      </trkpt>
      <trkpt lat="48.35398" lon="2.73483">
        <ele>124</ele>
        <time>2019-02-03T14:05:54Z</time>
      </trkpt>
      <trkpt lat="48.35398" lon="2.73473">
        <ele>124</ele>
        <time>2019-02-03T14:06:02Z</time>
      </trkpt>
      <trkpt lat="48.35403" lon="2.7347">
        <ele>125</ele>
        <time>2019-02-03T14:06:07Z</time>
      </trkpt>
      <trkpt lat="48.35403" lon="2.73456">
        <ele>125</ele>
        <time>2019-02-03T14:06:15Z</time>
      </trkpt>
      <trkpt lat="48.35405" lon="2.73448">
        <ele>127</ele>
        <time>2019-02-03T14:06:27Z</time>
      </trkpt>
      <trkpt lat="48.35404" lon="2.7344">
        <ele>130</ele>
        <time>2019-02-03T14:06:42Z</time>
      </trkpt>
      <trkpt lat="48.35408" lon="2.73436">
        <ele>130</ele>
        <time>2019-02-03T14:06:58Z</time>
      </trkpt>
      <trkpt lat="48.35416" lon="2.73437">
        <ele>129</ele>
        <time>2019-02-03T14:07:16Z</time>
      </trkpt>
      <trkpt lat="48.35421" lon="2.73433">
        <ele>128</ele>
        <time>2019-02-03T14:07:28Z</time>
      </trkpt>
      <trkpt lat="48.35421" lon="2.7344">
        <ele>130</ele>
        <time>2019-02-03T14:11:40Z</time>
      </trkpt>
      <trkpt lat="48.35424" lon="2.73449">
        <ele>130</ele>
        <time>2019-02-03T14:12:46Z</time>
      </trkpt>
      <trkpt lat="48.35429" lon="2.73461">
        <ele>130</ele>
        <time>2019-02-03T14:12:57Z</time>
      </trkpt>
      <trkpt lat="48.35432" lon="2.73467">
        <ele>130</ele>
        <time>2019-02-03T14:13:01Z</time>
      </trkpt>
      <trkpt lat="48.35436" lon="2.73487">
        <ele>131</ele>
        <time>2019-02-03T14:13:18Z</time>
      </trkpt>
      <trkpt lat="48.35446" lon="2.73514">
        <ele>131</ele>
        <time>2019-02-03T14:13:36Z</time>
      </trkpt>
      <trkpt lat="48.35448" lon="2.73528">
        <ele>131</ele>
        <time>2019-02-03T14:13:46Z</time>
      </trkpt>
      <trkpt lat="48.35449" lon="2.73538">
        <ele>131</ele>
        <time>2019-02-03T14:13:53Z</time>
      </trkpt>
      <trkpt lat="48.35451" lon="2.73544">
        <ele>132</ele>
        <time>2019-02-03T14:13:57Z</time>
      </trkpt>
      <trkpt lat="48.35455" lon="2.73551">
        <ele>132</ele>
        <time>2019-02-03T14:14:05Z</time>
      </trkpt>
      <trkpt lat="48.35464" lon="2.73547">
        <ele>132</ele>
        <time>2019-02-03T14:14:17Z</time>
      </trkpt>
      <trkpt lat="48.35469" lon="2.73543">
        <ele>132</ele>
        <time>2019-02-03T14:14:22Z</time>
      </trkpt>
      <trkpt lat="48.35475" lon="2.73534">
        <ele>131</ele>
        <time>2019-02-03T14:14:33Z</time>
      </trkpt>
      <trkpt lat="48.35482" lon="2.73529">
        <ele>130</ele>
        <time>2019-02-03T14:14:45Z</time>
      </trkpt>
      <trkpt lat="48.35487" lon="2.73534">
        <ele>130</ele>
        <time>2019-02-03T14:14:49Z</time>
      </trkpt>
      <trkpt lat="48.35488" lon="2.7354">
        <ele>130</ele>
        <time>2019-02-03T14:14:53Z</time>
      </trkpt>
      <trkpt lat="48.35496" lon="2.73537">
        <ele>129</ele>
        <time>2019-02-03T14:15:06Z</time>
      </trkpt>
      <trkpt lat="48.35499" lon="2.73532">
        <ele>127</ele>
        <time>2019-02-03T14:15:14Z</time>
      </trkpt>
      <trkpt lat="48.35492" lon="2.73528">
        <ele>125</ele>
        <time>2019-02-03T14:15:26Z</time>
      </trkpt>
      <trkpt lat="48.35489" lon="2.73517">
        <ele>124</ele>
        <time>2019-02-03T14:15:38Z</time>
      </trkpt>
      <trkpt lat="48.35489" lon="2.7351">
        <ele>122</ele>
        <time>2019-02-03T14:15:44Z</time>
      </trkpt>
      <trkpt lat="48.35498" lon="2.73503">
        <ele>121</ele>
        <time>2019-02-03T14:15:54Z</time>
      </trkpt>
      <trkpt lat="48.3553" lon="2.73493">
        <ele>117</ele>
        <time>2019-02-03T14:16:26Z</time>
      </trkpt>
      <trkpt lat="48.35535" lon="2.73496">
        <ele>117</ele>
        <time>2019-02-03T14:16:29Z</time>
      </trkpt>
      <trkpt lat="48.35542" lon="2.73489">
        <ele>117</ele>
        <time>2019-02-03T14:16:40Z</time>
      </trkpt>
      <trkpt lat="48.35544" lon="2.73481">
        <ele>116</ele>
        <time>2019-02-03T14:16:45Z</time>
      </trkpt>
      <trkpt lat="48.35549" lon="2.73465">
        <ele>116</ele>
        <time>2019-02-03T14:16:56Z</time>
      </trkpt>
      <trkpt lat="48.35553" lon="2.73457">
        <ele>116</ele>
        <time>2019-02-03T14:17:04Z</time>
      </trkpt>
      <trkpt lat="48.35557" lon="2.73448">
        <ele>116</ele>
        <time>2019-02-03T14:17:13Z</time>
      </trkpt>
      <trkpt lat="48.35578" lon="2.73431">
        <ele>118</ele>
        <time>2019-02-03T14:17:33Z</time>
      </trkpt>
      <trkpt lat="48.35584" lon="2.73423">
        <ele>120</ele>
        <time>2019-02-03T14:17:43Z</time>
      </trkpt>
      <trkpt lat="48.35593" lon="2.73418">
        <ele>121</ele>
        <time>2019-02-03T14:17:54Z</time>
      </trkpt>
      <trkpt lat="48.356" lon="2.73405">
        <ele>123</ele>
        <time>2019-02-03T14:18:09Z</time>
      </trkpt>
      <trkpt lat="48.35599" lon="2.73398">
        <ele>125</ele>
        <time>2019-02-03T14:18:21Z</time>
      </trkpt>
      <trkpt lat="48.356" lon="2.73389">
        <ele>128</ele>
        <time>2019-02-03T14:18:33Z</time>
      </trkpt>
      <trkpt lat="48.35596" lon="2.73392">
        <ele>133</ele>
        <time>2019-02-03T14:18:59Z</time>
      </trkpt>
      <trkpt lat="48.35582" lon="2.73387">
        <ele>136</ele>
        <time>2019-02-03T14:19:15Z</time>
      </trkpt>
      <trkpt lat="48.35577" lon="2.73385">
        <ele>136</ele>
        <time>2019-02-03T14:19:19Z</time>
      </trkpt>
      <trkpt lat="48.35572" lon="2.73387">
        <ele>136</ele>
        <time>2019-02-03T14:19:23Z</time>
      </trkpt>
      <trkpt lat="48.35567" lon="2.73386">
        <ele>136</ele>
        <time>2019-02-03T14:19:27Z</time>
      </trkpt>
      <trkpt lat="48.35563" lon="2.73382">
        <ele>136</ele>
        <time>2019-02-03T14:19:32Z</time>
      </trkpt>
      <trkpt lat="48.35557" lon="2.73381">
        <ele>137</ele>
        <time>2019-02-03T14:19:37Z</time>
      </trkpt>
      <trkpt lat="48.35543" lon="2.73371">
        <ele>136</ele>
        <time>2019-02-03T14:19:49Z</time>
      </trkpt>
      <trkpt lat="48.3554" lon="2.73366">
        <ele>137</ele>
        <time>2019-02-03T14:19:53Z</time>
      </trkpt>
      <trkpt lat="48.35539" lon="2.73359">
        <ele>137</ele>
        <time>2019-02-03T14:19:56Z</time>
      </trkpt>
      <trkpt lat="48.35539" lon="2.73351">
        <ele>136</ele>
        <time>2019-02-03T14:20:00Z</time>
      </trkpt>
      <trkpt lat="48.3554" lon="2.73342">
        <ele>136</ele>
        <time>2019-02-03T14:20:04Z</time>
      </trkpt>
      <trkpt lat="48.35544" lon="2.73337">
        <ele>136</ele>
        <time>2019-02-03T14:20:07Z</time>
      </trkpt>
      <trkpt lat="48.35549" lon="2.73334">
        <ele>136</ele>
        <time>2019-02-03T14:20:11Z</time>
      </trkpt>
      <trkpt lat="48.35555" lon="2.73333">
        <ele>136</ele>
        <time>2019-02-03T14:20:15Z</time>
      </trkpt>
      <trkpt lat="48.3556" lon="2.73331">
        <ele>136</ele>
        <time>2019-02-03T14:20:19Z</time>
      </trkpt>
      <trkpt lat="48.35562" lon="2.73324">
        <ele>136</ele>
        <time>2019-02-03T14:20:23Z</time>
      </trkpt>
      <trkpt lat="48.35559" lon="2.7331">
        <ele>136</ele>
        <time>2019-02-03T14:20:29Z</time>
      </trkpt>
      <trkpt lat="48.35558" lon="2.73295">
        <ele>136</ele>
        <time>2019-02-03T14:20:37Z</time>
      </trkpt>
      <trkpt lat="48.35555" lon="2.73288">
        <ele>136</ele>
        <time>2019-02-03T14:20:41Z</time>
      </trkpt>
      <trkpt lat="48.35553" lon="2.7328">
        <ele>135</ele>
        <time>2019-02-03T14:20:46Z</time>
      </trkpt>
      <trkpt lat="48.35551" lon="2.73274">
        <ele>136</ele>
        <time>2019-02-03T14:20:50Z</time>
      </trkpt>
      <trkpt lat="48.35549" lon="2.73267">
        <ele>135</ele>
        <time>2019-02-03T14:20:54Z</time>
      </trkpt>
      <trkpt lat="48.35552" lon="2.73252">
        <ele>135</ele>
        <time>2019-02-03T14:21:03Z</time>
      </trkpt>
      <trkpt lat="48.35551" lon="2.73245">
        <ele>134</ele>
        <time>2019-02-03T14:21:07Z</time>
      </trkpt>
      <trkpt lat="48.35555" lon="2.73239">
        <ele>134</ele>
        <time>2019-02-03T14:21:11Z</time>
      </trkpt>
      <trkpt lat="48.35556" lon="2.73232">
        <ele>135</ele>
        <time>2019-02-03T14:21:15Z</time>
      </trkpt>
      <trkpt lat="48.35559" lon="2.73226">
        <ele>135</ele>
        <time>2019-02-03T14:21:19Z</time>
      </trkpt>
      <trkpt lat="48.35569" lon="2.73208">
        <ele>136</ele>
        <time>2019-02-03T14:21:31Z</time>
      </trkpt>
      <trkpt lat="48.35569" lon="2.73199">
        <ele>136</ele>
        <time>2019-02-03T14:21:39Z</time>
      </trkpt>
      <trkpt lat="48.35569" lon="2.73192">
        <ele>136</ele>
        <time>2019-02-03T14:21:43Z</time>
      </trkpt>
      <trkpt lat="48.35572" lon="2.73186">
        <ele>136</ele>
        <time>2019-02-03T14:21:47Z</time>
      </trkpt>
      <trkpt lat="48.35576" lon="2.7317">
        <ele>136</ele>
        <time>2019-02-03T14:21:56Z</time>
      </trkpt>
      <trkpt lat="48.35585" lon="2.73152">
        <ele>135</ele>
        <time>2019-02-03T14:22:06Z</time>
      </trkpt>
      <trkpt lat="48.35592" lon="2.73141">
        <ele>135</ele>
        <time>2019-02-03T14:22:14Z</time>
      </trkpt>
      <trkpt lat="48.35594" lon="2.73135">
        <ele>135</ele>
        <time>2019-02-03T14:22:17Z</time>
      </trkpt>
      <trkpt lat="48.35594" lon="2.73127">
        <ele>136</ele>
        <time>2019-02-03T14:22:21Z</time>
      </trkpt>
      <trkpt lat="48.35595" lon="2.7312">
        <ele>136</ele>
        <time>2019-02-03T14:22:26Z</time>
      </trkpt>
      <trkpt lat="48.35589" lon="2.73119">
        <ele>135</ele>
        <time>2019-02-03T14:22:33Z</time>
      </trkpt>
      <trkpt lat="48.35585" lon="2.73117">
        <ele>135</ele>
        <time>2019-02-03T14:22:37Z</time>
      </trkpt>
      <trkpt lat="48.35582" lon="2.73111">
        <ele>135</ele>
        <time>2019-02-03T14:22:42Z</time>
      </trkpt>
      <trkpt lat="48.35581" lon="2.73104">
        <ele>135</ele>
        <time>2019-02-03T14:22:47Z</time>
      </trkpt>
      <trkpt lat="48.35586" lon="2.73102">
        <ele>135</ele>
        <time>2019-02-03T14:23:11Z</time>
      </trkpt>
      <trkpt lat="48.35591" lon="2.73099">
        <ele>135</ele>
        <time>2019-02-03T14:23:16Z</time>
      </trkpt>
      <trkpt lat="48.35595" lon="2.73097">
        <ele>136</ele>
        <time>2019-02-03T14:23:20Z</time>
      </trkpt>
      <trkpt lat="48.35601" lon="2.73096">
        <ele>135</ele>
        <time>2019-02-03T14:23:25Z</time>
      </trkpt>
      <trkpt lat="48.35606" lon="2.73093">
        <ele>135</ele>
        <time>2019-02-03T14:23:29Z</time>
      </trkpt>
      <trkpt lat="48.35612" lon="2.73097">
        <ele>135</ele>
        <time>2019-02-03T14:23:34Z</time>
      </trkpt>
      <trkpt lat="48.35616" lon="2.73101">
        <ele>134</ele>
        <time>2019-02-03T14:23:37Z</time>
      </trkpt>
      <trkpt lat="48.35631" lon="2.73108">
        <ele>134</ele>
        <time>2019-02-03T14:23:49Z</time>
      </trkpt>
      <trkpt lat="48.35636" lon="2.73108">
        <ele>134</ele>
        <time>2019-02-03T14:23:53Z</time>
      </trkpt>
      <trkpt lat="48.35641" lon="2.73109">
        <ele>135</ele>
        <time>2019-02-03T14:23:56Z</time>
      </trkpt>
      <trkpt lat="48.35645" lon="2.73105">
        <ele>134</ele>
        <time>2019-02-03T14:24:00Z</time>
      </trkpt>
      <trkpt lat="48.35652" lon="2.73095">
        <ele>134</ele>
        <time>2019-02-03T14:24:10Z</time>
      </trkpt>
      <trkpt lat="48.35654" lon="2.73087">
        <ele>134</ele>
        <time>2019-02-03T14:24:15Z</time>
      </trkpt>
      <trkpt lat="48.35662" lon="2.7306">
        <ele>135</ele>
        <time>2019-02-03T14:24:32Z</time>
      </trkpt>
      <trkpt lat="48.35666" lon="2.73055">
        <ele>135</ele>
        <time>2019-02-03T14:24:36Z</time>
      </trkpt>
      <trkpt lat="48.35671" lon="2.73054">
        <ele>135</ele>
        <time>2019-02-03T14:24:39Z</time>
      </trkpt>
      <trkpt lat="48.35675" lon="2.73049">
        <ele>134</ele>
        <time>2019-02-03T14:24:44Z</time>
      </trkpt>
      <trkpt lat="48.35679" lon="2.73044">
        <ele>134</ele>
        <time>2019-02-03T14:24:49Z</time>
      </trkpt>
      <trkpt lat="48.35684" lon="2.73042">
        <ele>134</ele>
        <time>2019-02-03T14:24:53Z</time>
      </trkpt>
      <trkpt lat="48.35689" lon="2.73037">
        <ele>134</ele>
        <time>2019-02-03T14:24:57Z</time>
      </trkpt>
      <trkpt lat="48.35694" lon="2.73035">
        <ele>133</ele>
        <time>2019-02-03T14:25:01Z</time>
      </trkpt>
      <trkpt lat="48.35698" lon="2.73031">
        <ele>134</ele>
        <time>2019-02-03T14:25:06Z</time>
      </trkpt>
      <trkpt lat="48.35703" lon="2.7303">
        <ele>134</ele>
        <time>2019-02-03T14:25:10Z</time>
      </trkpt>
      <trkpt lat="48.35708" lon="2.73036">
        <ele>133</ele>
        <time>2019-02-03T14:25:14Z</time>
      </trkpt>
      <trkpt lat="48.35709" lon="2.73044">
        <ele>133</ele>
        <time>2019-02-03T14:25:18Z</time>
      </trkpt>
      <trkpt lat="48.35709" lon="2.73059">
        <ele>134</ele>
        <time>2019-02-03T14:25:27Z</time>
      </trkpt>
      <trkpt lat="48.35707" lon="2.7307">
        <ele>134</ele>
        <time>2019-02-03T14:25:36Z</time>
      </trkpt>
      <trkpt lat="48.35704" lon="2.73076">
        <ele>134</ele>
        <time>2019-02-03T14:25:41Z</time>
      </trkpt>
      <trkpt lat="48.35701" lon="2.7308">
        <ele>134</ele>
        <time>2019-02-03T14:25:46Z</time>
      </trkpt>
      <trkpt lat="48.35696" lon="2.73083">
        <ele>133</ele>
        <time>2019-02-03T14:26:42Z</time>
      </trkpt>
      <trkpt lat="48.35696" lon="2.73091">
        <ele>129</ele>
        <time>2019-02-03T14:27:30Z</time>
      </trkpt>
      <trkpt lat="48.35701" lon="2.73092">
        <ele>127</ele>
        <time>2019-02-03T14:27:42Z</time>
      </trkpt>
      <trkpt lat="48.35707" lon="2.73092">
        <ele>126</ele>
        <time>2019-02-03T14:27:50Z</time>
      </trkpt>
      <trkpt lat="48.35716" lon="2.73103">
        <ele>124</ele>
        <time>2019-02-03T14:28:06Z</time>
      </trkpt>
      <trkpt lat="48.3572" lon="2.73118">
        <ele>124</ele>
        <time>2019-02-03T14:28:17Z</time>
      </trkpt>
      <trkpt lat="48.3572" lon="2.73128">
        <ele>124</ele>
        <time>2019-02-03T14:28:28Z</time>
      </trkpt>
      <trkpt lat="48.35721" lon="2.73139">
        <ele>123</ele>
        <time>2019-02-03T14:28:46Z</time>
      </trkpt>
      <trkpt lat="48.35722" lon="2.73149">
        <ele>122</ele>
        <time>2019-02-03T14:28:58Z</time>
      </trkpt>
      <trkpt lat="48.35726" lon="2.73158">
        <ele>120</ele>
        <time>2019-02-03T14:29:10Z</time>
      </trkpt>
      <trkpt lat="48.3573" lon="2.73166">
        <ele>118</ele>
        <time>2019-02-03T14:29:28Z</time>
      </trkpt>
      <trkpt lat="48.35735" lon="2.7317">
        <ele>116</ele>
        <time>2019-02-03T14:29:40Z</time>
      </trkpt>
      <trkpt lat="48.35739" lon="2.73181">
        <ele>112</ele>
        <time>2019-02-03T14:29:52Z</time>
      </trkpt>
      <trkpt lat="48.35745" lon="2.73193">
        <ele>110</ele>
        <time>2019-02-03T14:30:02Z</time>
      </trkpt>
      <trkpt lat="48.35745" lon="2.7321">
        <ele>107</ele>
        <time>2019-02-03T14:30:14Z</time>
      </trkpt>
      <trkpt lat="48.35749" lon="2.73217">
        <ele>105</ele>
        <time>2019-02-03T14:30:27Z</time>
      </trkpt>
      <trkpt lat="48.35752" lon="2.73222">
        <ele>106</ele>
        <time>2019-02-03T14:30:32Z</time>
      </trkpt>
      <trkpt lat="48.35759" lon="2.73223">
        <ele>106</ele>
        <time>2019-02-03T14:30:41Z</time>
      </trkpt>
      <trkpt lat="48.35767" lon="2.73226">
        <ele>105</ele>
        <time>2019-02-03T14:30:53Z</time>
      </trkpt>
      <trkpt lat="48.35772" lon="2.73225">
        <ele>105</ele>
        <time>2019-02-03T14:31:00Z</time>
      </trkpt>
      <trkpt lat="48.35776" lon="2.73223">
        <ele>104</ele>
        <time>2019-02-03T14:31:04Z</time>
      </trkpt>
      <trkpt lat="48.35781" lon="2.73227">
        <ele>103</ele>
        <time>2019-02-03T14:31:09Z</time>
      </trkpt>
      <trkpt lat="48.35783" lon="2.73233">
        <ele>103</ele>
        <time>2019-02-03T14:31:14Z</time>
      </trkpt>
      <trkpt lat="48.35791" lon="2.73238">
        <ele>101</ele>
        <time>2019-02-03T14:31:29Z</time>
      </trkpt>
      <trkpt lat="48.35795" lon="2.73243">
        <ele>101</ele>
        <time>2019-02-03T14:31:33Z</time>
      </trkpt>
      <trkpt lat="48.35799" lon="2.73251">
        <ele>102</ele>
        <time>2019-02-03T14:31:43Z</time>
      </trkpt>
      <trkpt lat="48.35803" lon="2.73263">
        <ele>101</ele>
        <time>2019-02-03T14:31:54Z</time>
      </trkpt>
      <trkpt lat="48.35803" lon="2.73272">
        <ele>101</ele>
        <time>2019-02-03T14:31:57Z</time>
      </trkpt>
      <trkpt lat="48.35808" lon="2.73278">
        <ele>100</ele>
        <time>2019-02-03T14:32:08Z</time>
      </trkpt>
      <trkpt lat="48.35814" lon="2.73282">
        <ele>98</ele>
        <time>2019-02-03T14:32:16Z</time>
      </trkpt>
      <trkpt lat="48.35814" lon="2.73288">
        <ele>97</ele>
        <time>2019-02-03T14:32:22Z</time>
      </trkpt>
      <trkpt lat="48.3581" lon="2.73302">
        <ele>95</ele>
        <time>2019-02-03T14:33:04Z</time>
      </trkpt>
      <trkpt lat="48.35807" lon="2.73309">
        <ele>93</ele>
        <time>2019-02-03T14:33:15Z</time>
      </trkpt>
      <trkpt lat="48.35808" lon="2.73325">
        <ele>92</ele>
        <time>2019-02-03T14:33:23Z</time>
      </trkpt>
      <trkpt lat="48.35812" lon="2.73336">
        <ele>91</ele>
        <time>2019-02-03T14:33:28Z</time>
      </trkpt>
      <trkpt lat="48.35806" lon="2.73339">
        <ele>91</ele>
        <time>2019-02-03T14:33:35Z</time>
      </trkpt>
      <trkpt lat="48.35804" lon="2.73346">
        <ele>90</ele>
        <time>2019-02-03T14:33:43Z</time>
      </trkpt>
      <trkpt lat="48.35814" lon="2.73357">
        <ele>88</ele>
        <time>2019-02-03T14:33:55Z</time>
      </trkpt>
      <trkpt lat="48.35817" lon="2.73365">
        <ele>87</ele>
        <time>2019-02-03T14:34:02Z</time>
      </trkpt>
      <trkpt lat="48.35818" lon="2.73373">
        <ele>87</ele>
        <time>2019-02-03T14:34:06Z</time>
      </trkpt>
      <trkpt lat="48.35817" lon="2.73388">
        <ele>88</ele>
        <time>2019-02-03T14:34:14Z</time>
      </trkpt>
      <trkpt lat="48.35818" lon="2.73402">
        <ele>90</ele>
        <time>2019-02-03T14:34:27Z</time>
      </trkpt>
      <trkpt lat="48.35821" lon="2.73407">
        <ele>91</ele>
        <time>2019-02-03T14:34:31Z</time>
      </trkpt>
      <trkpt lat="48.35822" lon="2.73414">
        <ele>91</ele>
        <time>2019-02-03T14:34:35Z</time>
      </trkpt>
      <trkpt lat="48.3582" lon="2.73421">
        <ele>92</ele>
        <time>2019-02-03T14:34:40Z</time>
      </trkpt>
      <trkpt lat="48.35815" lon="2.73424">
        <ele>95</ele>
        <time>2019-02-03T14:34:54Z</time>
      </trkpt>
      <trkpt lat="48.35807" lon="2.73419">
        <ele>97</ele>
        <time>2019-02-03T14:35:06Z</time>
      </trkpt>
      <trkpt lat="48.35801" lon="2.73422">
        <ele>99</ele>
        <time>2019-02-03T14:35:21Z</time>
      </trkpt>
      <trkpt lat="48.35796" lon="2.73444">
        <ele>104</ele>
        <time>2019-02-03T14:35:48Z</time>
      </trkpt>
      <trkpt lat="48.35797" lon="2.73451">
        <ele>104</ele>
        <time>2019-02-03T14:35:53Z</time>
      </trkpt>
      <trkpt lat="48.35795" lon="2.7347">
        <ele>104</ele>
        <time>2019-02-03T14:36:05Z</time>
      </trkpt>
      <trkpt lat="48.35792" lon="2.73482">
        <ele>106</ele>
        <time>2019-02-03T14:36:16Z</time>
      </trkpt>
      <trkpt lat="48.35788" lon="2.73495">
        <ele>106</ele>
        <time>2019-02-03T14:36:24Z</time>
      </trkpt>
      <trkpt lat="48.35785" lon="2.73507">
        <ele>108</ele>
        <time>2019-02-03T14:36:36Z</time>
      </trkpt>
      <trkpt lat="48.35781" lon="2.73511">
        <ele>110</ele>
        <time>2019-02-03T14:36:44Z</time>
      </trkpt>
      <trkpt lat="48.35774" lon="2.73505">
        <ele>112</ele>
        <time>2019-02-03T14:36:55Z</time>
      </trkpt>
      <trkpt lat="48.35775" lon="2.73497">
        <ele>112</ele>
        <time>2019-02-03T14:37:02Z</time>
      </trkpt>
      <trkpt lat="48.35775" lon="2.7349">
        <ele>111</ele>
        <time>2019-02-03T14:37:06Z</time>
      </trkpt>
      <trkpt lat="48.35777" lon="2.73484">
        <ele>111</ele>
        <time>2019-02-03T14:37:10Z</time>
      </trkpt>
      <trkpt lat="48.35778" lon="2.73476">
        <ele>112</ele>
        <time>2019-02-03T14:37:15Z</time>
      </trkpt>
      <trkpt lat="48.35773" lon="2.73464">
        <ele>114</ele>
        <time>2019-02-03T14:37:28Z</time>
      </trkpt>
      <trkpt lat="48.35769" lon="2.73473">
        <ele>118</ele>
        <time>2019-02-03T14:37:52Z</time>
      </trkpt>
      <trkpt lat="48.3576" lon="2.73481">
        <ele>122</ele>
        <time>2019-02-03T14:38:16Z</time>
      </trkpt>
      <trkpt lat="48.3576" lon="2.73489">
        <ele>123</ele>
        <time>2019-02-03T14:38:22Z</time>
      </trkpt>
      <trkpt lat="48.35758" lon="2.73503">
        <ele>124</ele>
        <time>2019-02-03T14:38:32Z</time>
      </trkpt>
      <trkpt lat="48.35758" lon="2.73511">
        <ele>125</ele>
        <time>2019-02-03T14:38:41Z</time>
      </trkpt>
      <trkpt lat="48.35754" lon="2.73523">
        <ele>126</ele>
        <time>2019-02-03T14:38:51Z</time>
      </trkpt>
      <trkpt lat="48.35753" lon="2.73529">
        <ele>127</ele>
        <time>2019-02-03T14:38:55Z</time>
      </trkpt>
      <trkpt lat="48.35751" lon="2.73537">
        <ele>126</ele>
        <time>2019-02-03T14:38:59Z</time>
      </trkpt>
      <trkpt lat="48.35749" lon="2.73552">
        <ele>125</ele>
        <time>2019-02-03T14:39:08Z</time>
      </trkpt>
      <trkpt lat="48.35748" lon="2.73559">
        <ele>125</ele>
        <time>2019-02-03T14:39:13Z</time>
      </trkpt>
      <trkpt lat="48.35743" lon="2.73574">
        <ele>128</ele>
        <time>2019-02-03T14:39:27Z</time>
      </trkpt>
      <trkpt lat="48.35742" lon="2.73583">
        <ele>129</ele>
        <time>2019-02-03T14:39:35Z</time>
      </trkpt>
      <trkpt lat="48.35745" lon="2.73589">
        <ele>128</ele>
        <time>2019-02-03T14:39:40Z</time>
      </trkpt>
      <trkpt lat="48.35746" lon="2.73607">
        <ele>126</ele>
        <time>2019-02-03T14:39:50Z</time>
      </trkpt>
      <trkpt lat="48.35745" lon="2.73614">
        <ele>125</ele>
        <time>2019-02-03T14:39:54Z</time>
      </trkpt>
      <trkpt lat="48.35744" lon="2.73621">
        <ele>125</ele>
        <time>2019-02-03T14:39:58Z</time>
      </trkpt>
      <trkpt lat="48.35744" lon="2.73636">
        <ele>125</ele>
        <time>2019-02-03T14:40:07Z</time>
      </trkpt>
      <trkpt lat="48.35741" lon="2.73644">
        <ele>125</ele>
        <time>2019-02-03T14:40:11Z</time>
      </trkpt>
      <trkpt lat="48.35737" lon="2.73658">
        <ele>126</ele>
        <time>2019-02-03T14:40:19Z</time>
      </trkpt>
      <trkpt lat="48.35738" lon="2.73665">
        <ele>127</ele>
        <time>2019-02-03T14:40:24Z</time>
      </trkpt>
      <trkpt lat="48.35734" lon="2.73688">
        <ele>128</ele>
        <time>2019-02-03T14:40:40Z</time>
      </trkpt>
      <trkpt lat="48.35733" lon="2.73696">
        <ele>128</ele>
        <time>2019-02-03T14:40:44Z</time>
      </trkpt>
      <trkpt lat="48.35736" lon="2.73708">
        <ele>127</ele>
        <time>2019-02-03T14:40:55Z</time>
      </trkpt>
      <trkpt lat="48.3574" lon="2.73721">
        <ele>125</ele>
        <time>2019-02-03T14:41:05Z</time>
      </trkpt>
      <trkpt lat="48.35739" lon="2.73729">
        <ele>125</ele>
        <time>2019-02-03T14:41:09Z</time>
      </trkpt>
      <trkpt lat="48.35736" lon="2.73735">
        <ele>125</ele>
        <time>2019-02-03T14:41:13Z</time>
      </trkpt>
      <trkpt lat="48.35733" lon="2.73744">
        <ele>125</ele>
        <time>2019-02-03T14:41:23Z</time>
      </trkpt>
      <trkpt lat="48.3573" lon="2.73754">
        <ele>124</ele>
        <time>2019-02-03T14:41:35Z</time>
      </trkpt>
      <trkpt lat="48.35727" lon="2.73764">
        <ele>125</ele>
        <time>2019-02-03T14:41:47Z</time>
      </trkpt>
      <trkpt lat="48.35726" lon="2.7377">
        <ele>125</ele>
        <time>2019-02-03T14:41:52Z</time>
      </trkpt>
      <trkpt lat="48.35721" lon="2.73774">
        <ele>125</ele>
        <time>2019-02-03T14:41:55Z</time>
      </trkpt>
      <trkpt lat="48.35712" lon="2.73778">
        <ele>125</ele>
        <time>2019-02-03T14:42:03Z</time>
      </trkpt>
      <trkpt lat="48.35708" lon="2.73779">
        <ele>125</ele>
        <time>2019-02-03T14:42:07Z</time>
      </trkpt>
      <trkpt lat="48.35705" lon="2.73787">
        <ele>124</ele>
        <time>2019-02-03T14:42:19Z</time>
      </trkpt>
      <trkpt lat="48.35709" lon="2.73797">
        <ele>124</ele>
        <time>2019-02-03T14:42:34Z</time>
      </trkpt>
      <trkpt lat="48.35709" lon="2.73806">
        <ele>124</ele>
        <time>2019-02-03T14:42:44Z</time>
      </trkpt>
      <trkpt lat="48.35706" lon="2.73815">
        <ele>125</ele>
        <time>2019-02-03T14:42:54Z</time>
      </trkpt>
      <trkpt lat="48.35704" lon="2.73829">
        <ele>125</ele>
        <time>2019-02-03T14:43:06Z</time>
      </trkpt>
      <trkpt lat="48.35697" lon="2.7384">
        <ele>124</ele>
        <time>2019-02-03T14:43:15Z</time>
      </trkpt>
      <trkpt lat="48.35688" lon="2.73847">
        <ele>123</ele>
        <time>2019-02-03T14:43:22Z</time>
      </trkpt>
      <trkpt lat="48.3568" lon="2.73854">
        <ele>125</ele>
        <time>2019-02-03T14:43:31Z</time>
      </trkpt>
      <trkpt lat="48.35675" lon="2.73857">
        <ele>125</ele>
        <time>2019-02-03T14:43:36Z</time>
      </trkpt>
      <trkpt lat="48.35671" lon="2.73862">
        <ele>126</ele>
        <time>2019-02-03T14:43:44Z</time>
      </trkpt>
      <trkpt lat="48.35666" lon="2.7387">
        <ele>126</ele>
        <time>2019-02-03T14:43:55Z</time>
      </trkpt>
      <trkpt lat="48.35663" lon="2.73862">
        <ele>126</ele>
        <time>2019-02-03T14:44:23Z</time>
      </trkpt>
      <trkpt lat="48.35661" lon="2.73869">
        <ele>126</ele>
        <time>2019-02-03T14:45:13Z</time>
      </trkpt>
      <trkpt lat="48.35661" lon="2.73873">
        <ele>124</ele>
        <time>2019-02-03T14:50:51Z</time>
      </trkpt>
      <trkpt lat="48.35664" lon="2.7388">
        <ele>122</ele>
        <time>2019-02-03T14:51:12Z</time>
      </trkpt>
      <trkpt lat="48.3567" lon="2.73879">
        <ele>118</ele>
        <time>2019-02-03T14:51:27Z</time>
      </trkpt>
      <trkpt lat="48.35674" lon="2.73887">
        <ele>116</ele>
        <time>2019-02-03T14:51:36Z</time>
      </trkpt>
      <trkpt lat="48.35677" lon="2.73912">
        <ele>113</ele>
        <time>2019-02-03T14:51:58Z</time>
      </trkpt>
      <trkpt lat="48.35682" lon="2.73911">
        <ele>107</ele>
        <time>2019-02-03T14:52:40Z</time>
      </trkpt>
      <trkpt lat="48.35687" lon="2.7391">
        <ele>104</ele>
        <time>2019-02-03T14:53:04Z</time>
      </trkpt>
      <trkpt lat="48.35693" lon="2.73907">
        <ele>101</ele>
        <time>2019-02-03T14:53:16Z</time>
      </trkpt>
      <trkpt lat="48.35699" lon="2.73903">
        <ele>98</ele>
        <time>2019-02-03T14:53:28Z</time>
      </trkpt>
      <trkpt lat="48.35714" lon="2.73898">
        <ele>92</ele>
        <time>2019-02-03T14:53:59Z</time>
      </trkpt>
      <trkpt lat="48.35724" lon="2.73893">
        <ele>89</ele>
        <time>2019-02-03T14:54:09Z</time>
      </trkpt>
      <trkpt lat="48.35729" lon="2.73892">
        <ele>88</ele>
        <time>2019-02-03T14:54:14Z</time>
      </trkpt>
      <trkpt lat="48.35738" lon="2.73895">
        <ele>87</ele>
        <time>2019-02-03T14:54:22Z</time>
      </trkpt>
      <trkpt lat="48.35749" lon="2.73894">
        <ele>86</ele>
        <time>2019-02-03T14:54:29Z</time>
      </trkpt>
      <trkpt lat="48.3576" lon="2.739">
        <ele>85</ele>
        <time>2019-02-03T14:54:35Z</time>
      </trkpt>
      <trkpt lat="48.3577" lon="2.73896">
        <ele>84</ele>
        <time>2019-02-03T14:54:44Z</time>
      </trkpt>
      <trkpt lat="48.35776" lon="2.73899">
        <ele>84</ele>
        <time>2019-02-03T14:54:48Z</time>
      </trkpt>
      <trkpt lat="48.35781" lon="2.73899">
        <ele>83</ele>
        <time>2019-02-03T14:54:52Z</time>
      </trkpt>
      <trkpt lat="48.35785" lon="2.73901">
        <ele>83</ele>
        <time>2019-02-03T14:54:55Z</time>
      </trkpt>
      <trkpt lat="48.35795" lon="2.73902">
        <ele>82</ele>
        <time>2019-02-03T14:55:01Z</time>
      </trkpt>
      <trkpt lat="48.35806" lon="2.73911">
        <ele>82</ele>
        <time>2019-02-03T14:55:07Z</time>
      </trkpt>
      <trkpt lat="48.35847" lon="2.73928">
        <ele>82</ele>
        <time>2019-02-03T14:55:35Z</time>
      </trkpt>
      <trkpt lat="48.35856" lon="2.7393">
        <ele>82</ele>
        <time>2019-02-03T14:55:41Z</time>
      </trkpt>
      <trkpt lat="48.35881" lon="2.73941">
        <ele>83</ele>
        <time>2019-02-03T14:56:01Z</time>
      </trkpt>
      <trkpt lat="48.35886" lon="2.73941">
        <ele>83</ele>
        <time>2019-02-03T14:56:05Z</time>
      </trkpt>
      <trkpt lat="48.3589" lon="2.7394">
        <ele>84</ele>
        <time>2019-02-03T14:56:10Z</time>
      </trkpt>
      <trkpt lat="48.35901" lon="2.73944">
        <ele>85</ele>
        <time>2019-02-03T14:56:18Z</time>
      </trkpt>
      <trkpt lat="48.35909" lon="2.73951">
        <ele>86</ele>
        <time>2019-02-03T14:56:24Z</time>
      </trkpt>
      <trkpt lat="48.35946" lon="2.73966">
        <ele>88</ele>
        <time>2019-02-03T14:56:56Z</time>
      </trkpt>
      <trkpt lat="48.35951" lon="2.73968">
        <ele>88</ele>
        <time>2019-02-03T14:56:59Z</time>
      </trkpt>
      <trkpt lat="48.35956" lon="2.73965">
        <ele>89</ele>
        <time>2019-02-03T14:57:04Z</time>
      </trkpt>
      <trkpt lat="48.35971" lon="2.73973">
        <ele>90</ele>
        <time>2019-02-03T14:57:16Z</time>
      </trkpt>
      <trkpt lat="48.35984" lon="2.73983">
        <ele>91</ele>
        <time>2019-02-03T14:57:27Z</time>
      </trkpt>
      <trkpt lat="48.35992" lon="2.73992">
        <ele>91</ele>
        <time>2019-02-03T14:57:35Z</time>
      </trkpt>
      <trkpt lat="48.36022" lon="2.74009">
        <ele>95</ele>
        <time>2019-02-03T14:58:04Z</time>
      </trkpt>
      <trkpt lat="48.3605" lon="2.74037">
        <ele>98</ele>
        <time>2019-02-03T14:58:34Z</time>
      </trkpt>
      <trkpt lat="48.36057" lon="2.74048">
        <ele>99</ele>
        <time>2019-02-03T14:58:42Z</time>
      </trkpt>
      <trkpt lat="48.36068" lon="2.74074">
        <ele>102</ele>
        <time>2019-02-03T14:58:58Z</time>
      </trkpt>
      <trkpt lat="48.36076" lon="2.74115">
        <ele>104</ele>
        <time>2019-02-03T14:59:25Z</time>
      </trkpt>
      <trkpt lat="48.36075" lon="2.74148">
        <ele>107</ele>
        <time>2019-02-03T14:59:43Z</time>
      </trkpt>
      <trkpt lat="48.3607" lon="2.74159">
        <ele>108</ele>
        <time>2019-02-03T14:59:51Z</time>
      </trkpt>
      <trkpt lat="48.36065" lon="2.74162">
        <ele>109</ele>
        <time>2019-02-03T14:59:59Z</time>
      </trkpt>
      <trkpt lat="48.36041" lon="2.74145">
        <ele>112</ele>
        <time>2019-02-03T15:00:24Z</time>
      </trkpt>
      <trkpt lat="48.36022" lon="2.74145">
        <ele>114</ele>
        <time>2019-02-03T15:00:44Z</time>
      </trkpt>
      <trkpt lat="48.35997" lon="2.74152">
        <ele>116</ele>
        <time>2019-02-03T15:01:07Z</time>
      </trkpt>
      <trkpt lat="48.35969" lon="2.7419">
        <ele>119</ele>
        <time>2019-02-03T15:01:38Z</time>
      </trkpt>
      <trkpt lat="48.35965" lon="2.74203">
        <ele>120</ele>
        <time>2019-02-03T15:01:46Z</time>
      </trkpt>
      <trkpt lat="48.35964" lon="2.74215">
        <ele>120</ele>
        <time>2019-02-03T15:01:55Z</time>
      </trkpt>
      <trkpt lat="48.35967" lon="2.74221">
        <ele>121</ele>
        <time>2019-02-03T15:02:01Z</time>
      </trkpt>
      <trkpt lat="48.35974" lon="2.74214">
        <ele>123</ele>
        <time>2019-02-03T15:02:14Z</time>
      </trkpt>
      <trkpt lat="48.35981" lon="2.74201">
        <ele>125</ele>
        <time>2019-02-03T15:02:26Z</time>
      </trkpt>
      <trkpt lat="48.3599" lon="2.74193">
        <ele>125</ele>
        <time>2019-02-03T15:02:34Z</time>
      </trkpt>
      <trkpt lat="48.35994" lon="2.74191">
        <ele>125</ele>
        <time>2019-02-03T15:02:55Z</time>
      </trkpt>
      <trkpt lat="48.36004" lon="2.74192">
        <ele>126</ele>
        <time>2019-02-03T15:03:03Z</time>
      </trkpt>
      <trkpt lat="48.36009" lon="2.74195">
        <ele>125</ele>
        <time>2019-02-03T15:03:08Z</time>
      </trkpt>
      <trkpt lat="48.36013" lon="2.74198">
        <ele>125</ele>
        <time>2019-02-03T15:03:13Z</time>
      </trkpt>
      <trkpt lat="48.36017" lon="2.742">
        <ele>126</ele>
        <time>2019-02-03T15:03:18Z</time>
      </trkpt>
      <trkpt lat="48.36022" lon="2.74202">
        <ele>126</ele>
        <time>2019-02-03T15:03:22Z</time>
      </trkpt>
      <trkpt lat="48.36026" lon="2.74203">
        <ele>126</ele>
        <time>2019-02-03T15:03:48Z</time>
      </trkpt>
      <trkpt lat="48.3603" lon="2.74208">
        <ele>127</ele>
        <time>2019-02-03T15:05:36Z</time>
      </trkpt>
      <trkpt lat="48.36033" lon="2.74214">
        <ele>127</ele>
        <time>2019-02-03T15:05:46Z</time>
      </trkpt>
      <trkpt lat="48.36034" lon="2.74222">
        <ele>127</ele>
        <time>2019-02-03T15:05:52Z</time>
      </trkpt>
      <trkpt lat="48.36038" lon="2.74235">
        <ele>127</ele>
        <time>2019-02-03T15:06:02Z</time>
      </trkpt>
      <trkpt lat="48.36038" lon="2.74243">
        <ele>127</ele>
        <time>2019-02-03T15:06:07Z</time>
      </trkpt>
      <trkpt lat="48.36036" lon="2.74258">
        <ele>126</ele>
        <time>2019-02-03T15:06:15Z</time>
      </trkpt>
      <trkpt lat="48.36036" lon="2.74265">
        <ele>126</ele>
        <time>2019-02-03T15:06:19Z</time>
      </trkpt>
      <trkpt lat="48.3604" lon="2.74284">
        <ele>126</ele>
        <time>2019-02-03T15:06:32Z</time>
      </trkpt>
      <trkpt lat="48.36039" lon="2.74309">
        <ele>126</ele>
        <time>2019-02-03T15:06:47Z</time>
      </trkpt>
      <trkpt lat="48.36041" lon="2.74317">
        <ele>126</ele>
        <time>2019-02-03T15:06:51Z</time>
      </trkpt>
      <trkpt lat="48.36044" lon="2.74325">
        <ele>126</ele>
        <time>2019-02-03T15:06:55Z</time>
      </trkpt>
      <trkpt lat="48.36045" lon="2.74332">
        <ele>126</ele>
        <time>2019-02-03T15:06:58Z</time>
      </trkpt>
      <trkpt lat="48.36043" lon="2.74356">
        <ele>126</ele>
        <time>2019-02-03T15:07:10Z</time>
      </trkpt>
      <trkpt lat="48.36043" lon="2.74363">
        <ele>126</ele>
        <time>2019-02-03T15:07:14Z</time>
      </trkpt>
      <trkpt lat="48.36039" lon="2.74418">
        <ele>126</ele>
        <time>2019-02-03T15:07:40Z</time>
      </trkpt>
      <trkpt lat="48.36037" lon="2.74433">
        <ele>126</ele>
        <time>2019-02-03T15:07:47Z</time>
      </trkpt>
      <trkpt lat="48.36037" lon="2.74464">
        <ele>126</ele>
        <time>2019-02-03T15:08:02Z</time>
      </trkpt>
      <trkpt lat="48.36028" lon="2.7451">
        <ele>125</ele>
        <time>2019-02-03T15:08:23Z</time>
      </trkpt>
      <trkpt lat="48.36029" lon="2.74516">
        <ele>125</ele>
        <time>2019-02-03T15:08:26Z</time>
      </trkpt>
      <trkpt lat="48.36028" lon="2.74523">
        <ele>125</ele>
        <time>2019-02-03T15:08:30Z</time>
      </trkpt>
      <trkpt lat="48.36023" lon="2.74547">
        <ele>125</ele>
        <time>2019-02-03T15:08:41Z</time>
      </trkpt>
      <trkpt lat="48.36022" lon="2.74561">
        <ele>126</ele>
        <time>2019-02-03T15:08:50Z</time>
      </trkpt>
      <trkpt lat="48.36012" lon="2.74603">
        <ele>126</ele>
        <time>2019-02-03T15:09:11Z</time>
      </trkpt>
      <trkpt lat="48.36018" lon="2.74632">
        <ele>126</ele>
        <time>2019-02-03T15:09:29Z</time>
      </trkpt>
      <trkpt lat="48.36021" lon="2.74639">
        <ele>126</ele>
        <time>2019-02-03T15:09:33Z</time>
      </trkpt>
      <trkpt lat="48.36027" lon="2.74661">
        <ele>126</ele>
        <time>2019-02-03T15:09:46Z</time>
      </trkpt>
      <trkpt lat="48.36036" lon="2.74678">
        <ele>126</ele>
        <time>2019-02-03T15:09:57Z</time>
      </trkpt>
      <trkpt lat="48.36041" lon="2.74698">
        <ele>126</ele>
        <time>2019-02-03T15:10:10Z</time>
      </trkpt>
      <trkpt lat="48.36053" lon="2.74724">
        <ele>126</ele>
        <time>2019-02-03T15:10:24Z</time>
      </trkpt>
      <trkpt lat="48.36053" lon="2.74733">
        <ele>126</ele>
        <time>2019-02-03T15:10:27Z</time>
      </trkpt>
      <trkpt lat="48.36076" lon="2.7478">
        <ele>126</ele>
        <time>2019-02-03T15:10:58Z</time>
      </trkpt>
      <trkpt lat="48.36083" lon="2.74791">
        <ele>127</ele>
        <time>2019-02-03T15:11:05Z</time>
      </trkpt>
      <trkpt lat="48.36094" lon="2.74816">
        <ele>127</ele>
        <time>2019-02-03T15:11:21Z</time>
      </trkpt>
      <trkpt lat="48.361" lon="2.74828">
        <ele>127</ele>
        <time>2019-02-03T15:11:28Z</time>
      </trkpt>
      <trkpt lat="48.36101" lon="2.74841">
        <ele>127</ele>
        <time>2019-02-03T15:11:36Z</time>
      </trkpt>
      <trkpt lat="48.36116" lon="2.74891">
        <ele>127</ele>
        <time>2019-02-03T15:12:01Z</time>
      </trkpt>
      <trkpt lat="48.36116" lon="2.74898">
        <ele>127</ele>
        <time>2019-02-03T15:12:05Z</time>
      </trkpt>
      <trkpt lat="48.36119" lon="2.74905">
        <ele>127</ele>
        <time>2019-02-03T15:12:09Z</time>
      </trkpt>
      <trkpt lat="48.36118" lon="2.74912">
        <ele>127</ele>
        <time>2019-02-03T15:12:13Z</time>
      </trkpt>
      <trkpt lat="48.36121" lon="2.74936">
        <ele>127</ele>
        <time>2019-02-03T15:12:26Z</time>
      </trkpt>
      <trkpt lat="48.36118" lon="2.74943">
        <ele>127</ele>
        <time>2019-02-03T15:12:31Z</time>
      </trkpt>
      <trkpt lat="48.36112" lon="2.74981">
        <ele>126</ele>
        <time>2019-02-03T15:12:58Z</time>
      </trkpt>
      <trkpt lat="48.36116" lon="2.7499">
        <ele>126</ele>
        <time>2019-02-03T15:13:09Z</time>
      </trkpt>
      <trkpt lat="48.36122" lon="2.74995">
        <ele>126</ele>
        <time>2019-02-03T15:13:15Z</time>
      </trkpt>
      <trkpt lat="48.36125" lon="2.75001">
        <ele>126</ele>
        <time>2019-02-03T15:13:18Z</time>
      </trkpt>
      <trkpt lat="48.3613" lon="2.75025">
        <ele>126</ele>
        <time>2019-02-03T15:13:29Z</time>
      </trkpt>
      <trkpt lat="48.3613" lon="2.75031">
        <ele>126</ele>
        <time>2019-02-03T15:13:32Z</time>
      </trkpt>
      <trkpt lat="48.36129" lon="2.75039">
        <ele>126</ele>
        <time>2019-02-03T15:13:36Z</time>
      </trkpt>
      <trkpt lat="48.3613" lon="2.75046">
        <ele>126</ele>
        <time>2019-02-03T15:13:39Z</time>
      </trkpt>
      <trkpt lat="48.36127" lon="2.75077">
        <ele>126</ele>
        <time>2019-02-03T15:13:54Z</time>
      </trkpt>
      <trkpt lat="48.36125" lon="2.75084">
        <ele>126</ele>
        <time>2019-02-03T15:13:57Z</time>
      </trkpt>
      <trkpt lat="48.36124" lon="2.75091">
        <ele>126</ele>
        <time>2019-02-03T15:14:01Z</time>
      </trkpt>
      <trkpt lat="48.36125" lon="2.75098">
        <ele>126</ele>
        <time>2019-02-03T15:14:04Z</time>
      </trkpt>
      <trkpt lat="48.36123" lon="2.75122">
        <ele>126</ele>
        <time>2019-02-03T15:14:16Z</time>
      </trkpt>
      <trkpt lat="48.36119" lon="2.75144">
        <ele>126</ele>
        <time>2019-02-03T15:14:28Z</time>
      </trkpt>
      <trkpt lat="48.36119" lon="2.75152">
        <ele>126</ele>
        <time>2019-02-03T15:14:32Z</time>
      </trkpt>
      <trkpt lat="48.36116" lon="2.75174">
        <ele>126</ele>
        <time>2019-02-03T15:14:43Z</time>
      </trkpt>
      <trkpt lat="48.36101" lon="2.7519">
        <ele>126</ele>
        <time>2019-02-03T15:14:56Z</time>
      </trkpt>
      <trkpt lat="48.36096" lon="2.75192">
        <ele>126</ele>
        <time>2019-02-03T15:15:00Z</time>
      </trkpt>
      <trkpt lat="48.36081" lon="2.7519">
        <ele>126</ele>
        <time>2019-02-03T15:15:12Z</time>
      </trkpt>
      <trkpt lat="48.36076" lon="2.75193">
        <ele>126</ele>
        <time>2019-02-03T15:15:17Z</time>
      </trkpt>
      <trkpt lat="48.36067" lon="2.75202">
        <ele>126</ele>
        <time>2019-02-03T15:15:25Z</time>
      </trkpt>
      <trkpt lat="48.36067" lon="2.75209">
        <ele>126</ele>
        <time>2019-02-03T15:15:29Z</time>
      </trkpt>
      <trkpt lat="48.36067" lon="2.75216">
        <ele>126</ele>
        <time>2019-02-03T15:15:33Z</time>
      </trkpt>
      <trkpt lat="48.36067" lon="2.75224">
        <ele>126</ele>
        <time>2019-02-03T15:15:38Z</time>
      </trkpt>
      <trkpt lat="48.36065" lon="2.75235">
        <ele>126</ele>
        <time>2019-02-03T15:15:47Z</time>
      </trkpt>
      <trkpt lat="48.36072" lon="2.75249">
        <ele>126</ele>
        <time>2019-02-03T15:16:12Z</time>
      </trkpt>
      <trkpt lat="48.36086" lon="2.75257">
        <ele>125</ele>
        <time>2019-02-03T15:16:32Z</time>
      </trkpt>
      <trkpt lat="48.36088" lon="2.75264">
        <ele>125</ele>
        <time>2019-02-03T15:16:38Z</time>
      </trkpt>
      <trkpt lat="48.36092" lon="2.7527">
        <ele>122</ele>
        <time>2019-02-03T15:16:52Z</time>
      </trkpt>
      <trkpt lat="48.36104" lon="2.75273">
        <ele>117</ele>
        <time>2019-02-03T15:17:16Z</time>
      </trkpt>
      <trkpt lat="48.36107" lon="2.75278">
        <ele>116</ele>
        <time>2019-02-03T15:17:22Z</time>
      </trkpt>
      <trkpt lat="48.36111" lon="2.75287">
        <ele>114</ele>
        <time>2019-02-03T15:17:30Z</time>
      </trkpt>
      <trkpt lat="48.36115" lon="2.75294">
        <ele>112</ele>
        <time>2019-02-03T15:17:38Z</time>
      </trkpt>
      <trkpt lat="48.36131" lon="2.7535">
        <ele>105</ele>
        <time>2019-02-03T15:18:12Z</time>
      </trkpt>
      <trkpt lat="48.36138" lon="2.75378">
        <ele>101</ele>
        <time>2019-02-03T15:18:30Z</time>
      </trkpt>
      <trkpt lat="48.36142" lon="2.75383">
        <ele>100</ele>
        <time>2019-02-03T15:18:35Z</time>
      </trkpt>
      <trkpt lat="48.36143" lon="2.75391">
        <ele>99</ele>
        <time>2019-02-03T15:18:40Z</time>
      </trkpt>
      <trkpt lat="48.36148" lon="2.75406">
        <ele>97</ele>
        <time>2019-02-03T15:18:49Z</time>
      </trkpt>
      <trkpt lat="48.3615" lon="2.75421">
        <ele>95</ele>
        <time>2019-02-03T15:18:57Z</time>
      </trkpt>
      <trkpt lat="48.36159" lon="2.7544">
        <ele>93</ele>
        <time>2019-02-03T15:19:08Z</time>
      </trkpt>
      <trkpt lat="48.36162" lon="2.75447">
        <ele>93</ele>
        <time>2019-02-03T15:19:11Z</time>
      </trkpt>
      <trkpt lat="48.36164" lon="2.75452">
        <ele>92</ele>
        <time>2019-02-03T15:19:14Z</time>
      </trkpt>
      <trkpt lat="48.36168" lon="2.7547">
        <ele>91</ele>
        <time>2019-02-03T15:19:24Z</time>
      </trkpt>
      <trkpt lat="48.36171" lon="2.75475">
        <ele>91</ele>
        <time>2019-02-03T15:19:28Z</time>
      </trkpt>
      <trkpt lat="48.36174" lon="2.75496">
        <ele>90</ele>
        <time>2019-02-03T15:19:39Z</time>
      </trkpt>
      <trkpt lat="48.36174" lon="2.7552">
        <ele>89</ele>
        <time>2019-02-03T15:19:49Z</time>
      </trkpt>
      <trkpt lat="48.36183" lon="2.75539">
        <ele>88</ele>
        <time>2019-02-03T15:20:01Z</time>
      </trkpt>
      <trkpt lat="48.36184" lon="2.75547">
        <ele>87</ele>
        <time>2019-02-03T15:20:04Z</time>
      </trkpt>
      <trkpt lat="48.36189" lon="2.75553">
        <ele>87</ele>
        <time>2019-02-03T15:20:11Z</time>
      </trkpt>
      <trkpt lat="48.36195" lon="2.75555">
        <ele>86</ele>
        <time>2019-02-03T15:20:19Z</time>
      </trkpt>
      <trkpt lat="48.362" lon="2.75558">
        <ele>86</ele>
        <time>2019-02-03T15:20:23Z</time>
      </trkpt>
      <trkpt lat="48.36204" lon="2.75559">
        <ele>86</ele>
        <time>2019-02-03T15:20:27Z</time>
      </trkpt>
      <trkpt lat="48.36209" lon="2.75558">
        <ele>85</ele>
        <time>2019-02-03T15:20:31Z</time>
      </trkpt>
      <trkpt lat="48.36214" lon="2.75554">
        <ele>85</ele>
        <time>2019-02-03T15:20:36Z</time>
      </trkpt>
      <trkpt lat="48.36245" lon="2.75523">
        <ele>87</ele>
        <time>2019-02-03T15:21:08Z</time>
      </trkpt>
      <trkpt lat="48.36263" lon="2.75508">
        <ele>88</ele>
        <time>2019-02-03T15:21:25Z</time>
      </trkpt>
      <trkpt lat="48.36268" lon="2.75501">
        <ele>88</ele>
        <time>2019-02-03T15:21:30Z</time>
      </trkpt>
      <trkpt lat="48.36277" lon="2.75496">
        <ele>90</ele>
        <time>2019-02-03T15:21:40Z</time>
      </trkpt>
      <trkpt lat="48.36297" lon="2.75473">
        <ele>94</ele>
        <time>2019-02-03T15:22:02Z</time>
      </trkpt>
      <trkpt lat="48.36323" lon="2.75455">
        <ele>99</ele>
        <time>2019-02-03T15:22:27Z</time>
      </trkpt>
      <trkpt lat="48.36328" lon="2.75454">
        <ele>99</ele>
        <time>2019-02-03T15:22:31Z</time>
      </trkpt>
      <trkpt lat="48.36366" lon="2.75427">
        <ele>96</ele>
        <time>2019-02-03T15:23:04Z</time>
      </trkpt>
      <trkpt lat="48.3637" lon="2.75423">
        <ele>95</ele>
        <time>2019-02-03T15:23:07Z</time>
      </trkpt>
      <trkpt lat="48.3639" lon="2.75411">
        <ele>92</ele>
        <time>2019-02-03T15:23:22Z</time>
      </trkpt>
      <trkpt lat="48.36402" lon="2.75397">
        <ele>91</ele>
        <time>2019-02-03T15:23:33Z</time>
      </trkpt>
      <trkpt lat="48.36416" lon="2.75388">
        <ele>91</ele>
        <time>2019-02-03T15:23:47Z</time>
      </trkpt>
      <trkpt lat="48.3643" lon="2.75377">
        <ele>92</ele>
        <time>2019-02-03T15:23:59Z</time>
      </trkpt>
      <trkpt lat="48.36449" lon="2.75361">
        <ele>91</ele>
        <time>2019-02-03T15:24:15Z</time>
      </trkpt>
      <trkpt lat="48.36463" lon="2.75353">
        <ele>90</ele>
        <time>2019-02-03T15:24:26Z</time>
      </trkpt>
      <trkpt lat="48.36489" lon="2.75332">
        <ele>91</ele>
        <time>2019-02-03T15:24:50Z</time>
      </trkpt>
      <trkpt lat="48.36513" lon="2.75319">
        <ele>93</ele>
        <time>2019-02-03T15:25:11Z</time>
      </trkpt>
      <trkpt lat="48.36545" lon="2.75312">
        <ele>97</ele>
        <time>2019-02-03T15:25:40Z</time>
      </trkpt>
      <trkpt lat="48.36549" lon="2.75309">
        <ele>98</ele>
        <time>2019-02-03T15:25:45Z</time>
      </trkpt>
      <trkpt lat="48.36574" lon="2.75302">
        <ele>102</ele>
        <time>2019-02-03T15:26:11Z</time>
      </trkpt>
      <trkpt lat="48.36578" lon="2.75299">
        <ele>102</ele>
        <time>2019-02-03T15:26:16Z</time>
      </trkpt>
      <trkpt lat="48.36592" lon="2.75295">
        <ele>104</ele>
        <time>2019-02-03T15:26:29Z</time>
      </trkpt>
      <trkpt lat="48.36611" lon="2.75295">
        <ele>106</ele>
        <time>2019-02-03T15:26:47Z</time>
      </trkpt>
      <trkpt lat="48.36627" lon="2.75292">
        <ele>108</ele>
        <time>2019-02-03T15:26:59Z</time>
      </trkpt>
      <trkpt lat="48.36631" lon="2.75288">
        <ele>109</ele>
        <time>2019-02-03T15:27:04Z</time>
      </trkpt>
      <trkpt lat="48.36636" lon="2.75287">
        <ele>109</ele>
        <time>2019-02-03T15:27:09Z</time>
      </trkpt>
      <trkpt lat="48.36642" lon="2.75284">
        <ele>111</ele>
        <time>2019-02-03T15:27:18Z</time>
      </trkpt>
      <trkpt lat="48.36657" lon="2.75274">
        <ele>112</ele>
        <time>2019-02-03T15:27:33Z</time>
      </trkpt>
      <trkpt lat="48.36669" lon="2.75261">
        <ele>114</ele>
        <time>2019-02-03T15:27:45Z</time>
      </trkpt>
      <trkpt lat="48.36691" lon="2.75252">
        <ele>118</ele>
        <time>2019-02-03T15:28:08Z</time>
      </trkpt>
      <trkpt lat="48.36704" lon="2.75243">
        <ele>122</ele>
        <time>2019-02-03T15:28:24Z</time>
      </trkpt>
      <trkpt lat="48.36709" lon="2.75236">
        <ele>124</ele>
        <time>2019-02-03T15:28:32Z</time>
      </trkpt>
      <trkpt lat="48.3672" lon="2.75228">
        <ele>126</ele>
        <time>2019-02-03T15:28:44Z</time>
      </trkpt>
      <trkpt lat="48.3673" lon="2.75226">
        <ele>128</ele>
        <time>2019-02-03T15:28:54Z</time>
      </trkpt>
      <trkpt lat="48.3674" lon="2.75226">
        <ele>129</ele>
        <time>2019-02-03T15:29:03Z</time>
      </trkpt>
      <trkpt lat="48.36744" lon="2.75224">
        <ele>130</ele>
        <time>2019-02-03T15:29:08Z</time>
      </trkpt>
      <trkpt lat="48.36749" lon="2.75228">
        <ele>130</ele>
        <time>2019-02-03T15:29:19Z</time>
      </trkpt>
      <trkpt lat="48.36754" lon="2.75228">
        <ele>130</ele>
        <time>2019-02-03T15:29:24Z</time>
      </trkpt>
      <trkpt lat="48.36755" lon="2.75235">
        <ele>131</ele>
        <time>2019-02-03T15:29:56Z</time>
      </trkpt>
      <trkpt lat="48.36751" lon="2.75231">
        <ele>131</ele>
        <time>2019-02-03T15:31:28Z</time>
      </trkpt>
      <trkpt lat="48.36754" lon="2.75233">
        <ele>131</ele>
        <time>2019-02-03T15:34:00Z</time>
      </trkpt>
      <trkpt lat="48.36751" lon="2.75243">
        <ele>130</ele>
        <time>2019-02-03T15:37:03Z</time>
      </trkpt>
      <trkpt lat="48.36749" lon="2.75257">
        <ele>129</ele>
        <time>2019-02-03T15:37:14Z</time>
      </trkpt>
      <trkpt lat="48.36751" lon="2.75274">
        <ele>129</ele>
        <time>2019-02-03T15:37:26Z</time>
      </trkpt>
      <trkpt lat="48.3675" lon="2.75282">
        <ele>129</ele>
        <time>2019-02-03T15:37:30Z</time>
      </trkpt>
      <trkpt lat="48.3675" lon="2.75303">
        <ele>129</ele>
        <time>2019-02-03T15:37:43Z</time>
      </trkpt>
      <trkpt lat="48.36747" lon="2.75316">
        <ele>129</ele>
        <time>2019-02-03T15:37:51Z</time>
      </trkpt>
      <trkpt lat="48.36747" lon="2.75331">
        <ele>128</ele>
        <time>2019-02-03T15:37:59Z</time>
      </trkpt>
      <trkpt lat="48.36746" lon="2.75338">
        <ele>129</ele>
        <time>2019-02-03T15:38:02Z</time>
      </trkpt>
      <trkpt lat="48.36745" lon="2.75345">
        <ele>128</ele>
        <time>2019-02-03T15:38:07Z</time>
      </trkpt>
      <trkpt lat="48.36745" lon="2.75354">
        <ele>128</ele>
        <time>2019-02-03T15:38:14Z</time>
      </trkpt>
      <trkpt lat="48.36746" lon="2.75363">
        <ele>128</ele>
        <time>2019-02-03T15:38:19Z</time>
      </trkpt>
      <trkpt lat="48.36747" lon="2.75379">
        <ele>128</ele>
        <time>2019-02-03T15:38:28Z</time>
      </trkpt>
      <trkpt lat="48.36745" lon="2.75386">
        <ele>128</ele>
        <time>2019-02-03T15:38:32Z</time>
      </trkpt>
      <trkpt lat="48.36742" lon="2.75439">
        <ele>128</ele>
        <time>2019-02-03T15:39:00Z</time>
      </trkpt>
      <trkpt lat="48.36729" lon="2.75485">
        <ele>128</ele>
        <time>2019-02-03T15:39:24Z</time>
      </trkpt>
      <trkpt lat="48.36725" lon="2.75492">
        <ele>128</ele>
        <time>2019-02-03T15:39:28Z</time>
      </trkpt>
      <trkpt lat="48.36722" lon="2.75505">
        <ele>128</ele>
        <time>2019-02-03T15:39:36Z</time>
      </trkpt>
      <trkpt lat="48.36718" lon="2.75526">
        <ele>128</ele>
        <time>2019-02-03T15:39:48Z</time>
      </trkpt>
      <trkpt lat="48.36719" lon="2.75534">
        <ele>128</ele>
        <time>2019-02-03T15:39:52Z</time>
      </trkpt>
      <trkpt lat="48.3672" lon="2.75541">
        <ele>127</ele>
        <time>2019-02-03T15:39:56Z</time>
      </trkpt>
      <trkpt lat="48.36728" lon="2.756">
        <ele>127</ele>
        <time>2019-02-03T15:40:29Z</time>
      </trkpt>
      <trkpt lat="48.36734" lon="2.75621">
        <ele>127</ele>
        <time>2019-02-03T15:40:41Z</time>
      </trkpt>
      <trkpt lat="48.36735" lon="2.75645">
        <ele>127</ele>
        <time>2019-02-03T15:40:53Z</time>
      </trkpt>
      <trkpt lat="48.3674" lon="2.75661">
        <ele>127</ele>
        <time>2019-02-03T15:41:02Z</time>
      </trkpt>
      <trkpt lat="48.36747" lon="2.75722">
        <ele>127</ele>
        <time>2019-02-03T15:41:35Z</time>
      </trkpt>
      <trkpt lat="48.36749" lon="2.75737">
        <ele>126</ele>
        <time>2019-02-03T15:41:43Z</time>
      </trkpt>
      <trkpt lat="48.36747" lon="2.75744">
        <ele>126</ele>
        <time>2019-02-03T15:41:47Z</time>
      </trkpt>
      <trkpt lat="48.36749" lon="2.75753">
        <ele>125</ele>
        <time>2019-02-03T15:41:55Z</time>
      </trkpt>
      <trkpt lat="48.36748" lon="2.7576">
        <ele>124</ele>
        <time>2019-02-03T15:42:00Z</time>
      </trkpt>
      <trkpt lat="48.36746" lon="2.75774">
        <ele>122</ele>
        <time>2019-02-03T15:42:07Z</time>
      </trkpt>
      <trkpt lat="48.36741" lon="2.7579">
        <ele>121</ele>
        <time>2019-02-03T15:42:13Z</time>
      </trkpt>
      <trkpt lat="48.36741" lon="2.75805">
        <ele>118</ele>
        <time>2019-02-03T15:42:21Z</time>
      </trkpt>
      <trkpt lat="48.36741" lon="2.75812">
        <ele>117</ele>
        <time>2019-02-03T15:42:25Z</time>
      </trkpt>
      <trkpt lat="48.36741" lon="2.75819">
        <ele>115</ele>
        <time>2019-02-03T15:42:30Z</time>
      </trkpt>
      <trkpt lat="48.36742" lon="2.7583">
        <ele>112</ele>
        <time>2019-02-03T15:42:37Z</time>
      </trkpt>
      <trkpt lat="48.3674" lon="2.75839">
        <ele>110</ele>
        <time>2019-02-03T15:42:42Z</time>
      </trkpt>
      <trkpt lat="48.36741" lon="2.75851">
        <ele>108</ele>
        <time>2019-02-03T15:42:50Z</time>
      </trkpt>
      <trkpt lat="48.36738" lon="2.75877">
        <ele>102</ele>
        <time>2019-02-03T15:43:09Z</time>
      </trkpt>
      <trkpt lat="48.3674" lon="2.75885">
        <ele>102</ele>
        <time>2019-02-03T15:43:14Z</time>
      </trkpt>
      <trkpt lat="48.3674" lon="2.75901">
        <ele>100</ele>
        <time>2019-02-03T15:43:23Z</time>
      </trkpt>
      <trkpt lat="48.36738" lon="2.75908">
        <ele>99</ele>
        <time>2019-02-03T15:43:26Z</time>
      </trkpt>
      <trkpt lat="48.36731" lon="2.75979">
        <ele>95</ele>
        <time>2019-02-03T15:44:00Z</time>
      </trkpt>
      <trkpt lat="48.3673" lon="2.76001">
        <ele>94</ele>
        <time>2019-02-03T15:44:12Z</time>
      </trkpt>
      <trkpt lat="48.36724" lon="2.76045">
        <ele>91</ele>
        <time>2019-02-03T15:44:34Z</time>
      </trkpt>
      <trkpt lat="48.36723" lon="2.76066">
        <ele>89</ele>
        <time>2019-02-03T15:44:47Z</time>
      </trkpt>
      <trkpt lat="48.36722" lon="2.76082">
        <ele>88</ele>
        <time>2019-02-03T15:44:56Z</time>
      </trkpt>
      <trkpt lat="48.36722" lon="2.76106">
        <ele>87</ele>
        <time>2019-02-03T15:45:09Z</time>
      </trkpt>
      <trkpt lat="48.36723" lon="2.76113">
        <ele>86</ele>
        <time>2019-02-03T15:45:23Z</time>
      </trkpt>
      <trkpt lat="48.3672" lon="2.76121">
        <ele>86</ele>
        <time>2019-02-03T15:45:28Z</time>
      </trkpt>
      <trkpt lat="48.36718" lon="2.76141">
        <ele>85</ele>
        <time>2019-02-03T15:45:42Z</time>
      </trkpt>
      <trkpt lat="48.36719" lon="2.76149">
        <ele>84</ele>
        <time>2019-02-03T15:45:47Z</time>
      </trkpt>
      <trkpt lat="48.36718" lon="2.76195">
        <ele>84</ele>
        <time>2019-02-03T15:46:12Z</time>
      </trkpt>
      <trkpt lat="48.36719" lon="2.76203">
        <ele>84</ele>
        <time>2019-02-03T15:46:17Z</time>
      </trkpt>
      <trkpt lat="48.36719" lon="2.7621">
        <ele>84</ele>
        <time>2019-02-03T15:46:22Z</time>
      </trkpt>
      <trkpt lat="48.36721" lon="2.76224">
        <ele>84</ele>
        <time>2019-02-03T15:46:30Z</time>
      </trkpt>
      <trkpt lat="48.36723" lon="2.76232">
        <ele>84</ele>
        <time>2019-02-03T15:46:34Z</time>
      </trkpt>
      <trkpt lat="48.36722" lon="2.76239">
        <ele>84</ele>
        <time>2019-02-03T15:46:38Z</time>
      </trkpt>
      <trkpt lat="48.36722" lon="2.76247">
        <ele>84</ele>
        <time>2019-02-03T15:46:42Z</time>
      </trkpt>
      <trkpt lat="48.36717" lon="2.76262">
        <ele>84</ele>
        <time>2019-02-03T15:46:55Z</time>
      </trkpt>
      <trkpt lat="48.36713" lon="2.76268">
        <ele>84</ele>
        <time>2019-02-03T15:47:29Z</time>
      </trkpt>
      <trkpt lat="48.36716" lon="2.76273">
        <ele>84</ele>
        <time>2019-02-03T15:49:05Z</time>
      </trkpt>
      <trkpt lat="48.36717" lon="2.76284">
        <ele>84</ele>
        <time>2019-02-03T15:49:13Z</time>
      </trkpt>
      <trkpt lat="48.36726" lon="2.7632">
        <ele>84</ele>
        <time>2019-02-03T15:49:33Z</time>
      </trkpt>
      <trkpt lat="48.36731" lon="2.7633">
        <ele>84</ele>
        <time>2019-02-03T15:49:40Z</time>
      </trkpt>
      <trkpt lat="48.36737" lon="2.76368">
        <ele>84</ele>
        <time>2019-02-03T15:49:57Z</time>
      </trkpt>
      <trkpt lat="48.3674" lon="2.76374">
        <ele>84</ele>
        <time>2019-02-03T15:50:00Z</time>
      </trkpt>
      <trkpt lat="48.36746" lon="2.76411">
        <ele>84</ele>
        <time>2019-02-03T15:50:20Z</time>
      </trkpt>
      <trkpt lat="48.36746" lon="2.76418">
        <ele>83</ele>
        <time>2019-02-03T15:50:24Z</time>
      </trkpt>
      <trkpt lat="48.3675" lon="2.76439">
        <ele>83</ele>
        <time>2019-02-03T15:50:38Z</time>
      </trkpt>
      <trkpt lat="48.36756" lon="2.76453">
        <ele>83</ele>
        <time>2019-02-03T15:50:45Z</time>
      </trkpt>
      <trkpt lat="48.3676" lon="2.76457">
        <ele>83</ele>
        <time>2019-02-03T15:50:48Z</time>
      </trkpt>
      <trkpt lat="48.36762" lon="2.76465">
        <ele>83</ele>
        <time>2019-02-03T15:50:52Z</time>
      </trkpt>
      <trkpt lat="48.36762" lon="2.76472">
        <ele>83</ele>
        <time>2019-02-03T15:50:55Z</time>
      </trkpt>
      <trkpt lat="48.36768" lon="2.76502">
        <ele>84</ele>
        <time>2019-02-03T15:51:12Z</time>
      </trkpt>
      <trkpt lat="48.36769" lon="2.76509">
        <ele>84</ele>
        <time>2019-02-03T15:51:16Z</time>
      </trkpt>
      <trkpt lat="48.36777" lon="2.76547">
        <ele>84</ele>
        <time>2019-02-03T15:51:36Z</time>
      </trkpt>
      <trkpt lat="48.36779" lon="2.7657">
        <ele>84</ele>
        <time>2019-02-03T15:51:49Z</time>
      </trkpt>
      <trkpt lat="48.36782" lon="2.76584">
        <ele>84</ele>
        <time>2019-02-03T15:51:56Z</time>
      </trkpt>
      <trkpt lat="48.36784" lon="2.76591">
        <ele>84</ele>
        <time>2019-02-03T15:51:59Z</time>
      </trkpt>
      <trkpt lat="48.36792" lon="2.76622">
        <ele>85</ele>
        <time>2019-02-03T15:52:16Z</time>
      </trkpt>
      <trkpt lat="48.36802" lon="2.76673">
        <ele>85</ele>
        <time>2019-02-03T15:52:45Z</time>
      </trkpt>
      <trkpt lat="48.36805" lon="2.7668">
        <ele>85</ele>
        <time>2019-02-03T15:52:49Z</time>
      </trkpt>
      <trkpt lat="48.36807" lon="2.76687">
        <ele>85</ele>
        <time>2019-02-03T15:52:53Z</time>
      </trkpt>
      <trkpt lat="48.36824" lon="2.76721">
        <ele>86</ele>
        <time>2019-02-03T15:53:20Z</time>
      </trkpt>
      <trkpt lat="48.36832" lon="2.7675">
        <ele>86</ele>
        <time>2019-02-03T15:53:37Z</time>
      </trkpt>
      <trkpt lat="48.36835" lon="2.76779">
        <ele>87</ele>
        <time>2019-02-03T15:53:53Z</time>
      </trkpt>
      <trkpt lat="48.36841" lon="2.76802">
        <ele>87</ele>
        <time>2019-02-03T15:54:05Z</time>
      </trkpt>
      <trkpt lat="48.36846" lon="2.7684">
        <ele>88</ele>
        <time>2019-02-03T15:54:28Z</time>
      </trkpt>
      <trkpt lat="48.36856" lon="2.7687">
        <ele>88</ele>
        <time>2019-02-03T15:54:51Z</time>
      </trkpt>
      <trkpt lat="48.36865" lon="2.76913">
        <ele>89</ele>
        <time>2019-02-03T15:55:18Z</time>
      </trkpt>
      <trkpt lat="48.36873" lon="2.76932">
        <ele>89</ele>
        <time>2019-02-03T15:55:29Z</time>
      </trkpt>
      <trkpt lat="48.36875" lon="2.76948">
        <ele>89</ele>
        <time>2019-02-03T15:55:37Z</time>
      </trkpt>
      <trkpt lat="48.36878" lon="2.76954">
        <ele>90</ele>
        <time>2019-02-03T15:55:41Z</time>
      </trkpt>
      <trkpt lat="48.36878" lon="2.76962">
        <ele>90</ele>
        <time>2019-02-03T15:55:45Z</time>
      </trkpt>
      <trkpt lat="48.36893" lon="2.77018">
        <ele>91</ele>
        <time>2019-02-03T15:56:17Z</time>
      </trkpt>
      <trkpt lat="48.36897" lon="2.77031">
        <ele>92</ele>
        <time>2019-02-03T15:56:26Z</time>
      </trkpt>
      <trkpt lat="48.36922" lon="2.77065">
        <ele>93</ele>
        <time>2019-02-03T15:56:58Z</time>
      </trkpt>
      <trkpt lat="48.36931" lon="2.7707">
        <ele>93</ele>
        <time>2019-02-03T15:57:05Z</time>
      </trkpt>
      <trkpt lat="48.3694" lon="2.77089">
        <ele>94</ele>
        <time>2019-02-03T15:57:17Z</time>
      </trkpt>
      <trkpt lat="48.36941" lon="2.77097">
        <ele>94</ele>
        <time>2019-02-03T15:57:20Z</time>
      </trkpt>
      <trkpt lat="48.36944" lon="2.77103">
        <ele>94</ele>
        <time>2019-02-03T15:57:23Z</time>
      </trkpt>
      <trkpt lat="48.36963" lon="2.7713">
        <ele>94</ele>
        <time>2019-02-03T15:57:45Z</time>
      </trkpt>
      <trkpt lat="48.36972" lon="2.77149">
        <ele>94</ele>
        <time>2019-02-03T15:57:59Z</time>
      </trkpt>
      <trkpt lat="48.36977" lon="2.77181">
        <ele>94</ele>
        <time>2019-02-03T15:58:15Z</time>
      </trkpt>
      <trkpt lat="48.36979" lon="2.77188">
        <ele>94</ele>
        <time>2019-02-03T15:58:19Z</time>
      </trkpt>
      <trkpt lat="48.36999" lon="2.77242">
        <ele>93</ele>
        <time>2019-02-03T15:58:52Z</time>
      </trkpt>
      <trkpt lat="48.37003" lon="2.77246">
        <ele>93</ele>
        <time>2019-02-03T15:58:55Z</time>
      </trkpt>
      <trkpt lat="48.3701" lon="2.77279">
        <ele>93</ele>
        <time>2019-02-03T15:59:11Z</time>
      </trkpt>
      <trkpt lat="48.3701" lon="2.77286">
        <ele>92</ele>
        <time>2019-02-03T15:59:15Z</time>
      </trkpt>
      <trkpt lat="48.37015" lon="2.773">
        <ele>92</ele>
        <time>2019-02-03T15:59:23Z</time>
      </trkpt>
      <trkpt lat="48.37019" lon="2.77304">
        <ele>92</ele>
        <time>2019-02-03T15:59:26Z</time>
      </trkpt>
      <trkpt lat="48.3702" lon="2.77311">
        <ele>92</ele>
        <time>2019-02-03T15:59:30Z</time>
      </trkpt>
      <trkpt lat="48.37019" lon="2.77318">
        <ele>92</ele>
        <time>2019-02-03T15:59:34Z</time>
      </trkpt>
      <trkpt lat="48.37021" lon="2.77325">
        <ele>92</ele>
        <time>2019-02-03T15:59:38Z</time>
      </trkpt>
      <trkpt lat="48.37024" lon="2.77349">
        <ele>92</ele>
        <time>2019-02-03T15:59:51Z</time>
      </trkpt>
      <trkpt lat="48.37023" lon="2.77357">
        <ele>93</ele>
        <time>2019-02-03T15:59:56Z</time>
      </trkpt>
      <trkpt lat="48.37025" lon="2.77363">
        <ele>93</ele>
        <time>2019-02-03T16:00:00Z</time>
      </trkpt>
      <trkpt lat="48.37033" lon="2.77375">
        <ele>93</ele>
        <time>2019-02-03T16:00:08Z</time>
      </trkpt>
      <trkpt lat="48.37038" lon="2.77418">
        <ele>93</ele>
        <time>2019-02-03T16:00:31Z</time>
      </trkpt>
      <trkpt lat="48.37039" lon="2.77425">
        <ele>93</ele>
        <time>2019-02-03T16:00:36Z</time>
      </trkpt>
      <trkpt lat="48.37047" lon="2.77454">
        <ele>94</ele>
        <time>2019-02-03T16:00:53Z</time>
      </trkpt>
      <trkpt lat="48.37049" lon="2.77473">
        <ele>95</ele>
        <time>2019-02-03T16:01:04Z</time>
      </trkpt>
      <trkpt lat="48.37054" lon="2.77486">
        <ele>95</ele>
        <time>2019-02-03T16:01:12Z</time>
      </trkpt>
      <trkpt lat="48.37058" lon="2.77514">
        <ele>95</ele>
        <time>2019-02-03T16:01:29Z</time>
      </trkpt>
      <trkpt lat="48.37061" lon="2.77522">
        <ele>95</ele>
        <time>2019-02-03T16:01:33Z</time>
      </trkpt>
      <trkpt lat="48.37067" lon="2.77544">
        <ele>94</ele>
        <time>2019-02-03T16:01:45Z</time>
      </trkpt>
      <trkpt lat="48.37064" lon="2.77582">
        <ele>94</ele>
        <time>2019-02-03T16:02:02Z</time>
      </trkpt>
      <trkpt lat="48.37066" lon="2.7759">
        <ele>93</ele>
        <time>2019-02-03T16:02:06Z</time>
      </trkpt>
      <trkpt lat="48.37065" lon="2.77606">
        <ele>93</ele>
        <time>2019-02-03T16:02:15Z</time>
      </trkpt>
      <trkpt lat="48.37063" lon="2.77614">
        <ele>93</ele>
        <time>2019-02-03T16:02:20Z</time>
      </trkpt>
      <trkpt lat="48.37061" lon="2.77636">
        <ele>94</ele>
        <time>2019-02-03T16:02:33Z</time>
      </trkpt>
      <trkpt lat="48.37062" lon="2.77644">
        <ele>94</ele>
        <time>2019-02-03T16:02:37Z</time>
      </trkpt>
      <trkpt lat="48.37064" lon="2.7765">
        <ele>94</ele>
        <time>2019-02-03T16:02:41Z</time>
      </trkpt>
      <trkpt lat="48.37066" lon="2.7768">
        <ele>95</ele>
        <time>2019-02-03T16:03:00Z</time>
      </trkpt>
      <trkpt lat="48.37071" lon="2.77694">
        <ele>95</ele>
        <time>2019-02-03T16:03:08Z</time>
      </trkpt>
      <trkpt lat="48.37073" lon="2.777">
        <ele>95</ele>
        <time>2019-02-03T16:03:12Z</time>
      </trkpt>
      <trkpt lat="48.37075" lon="2.77723">
        <ele>96</ele>
        <time>2019-02-03T16:03:25Z</time>
      </trkpt>
      <trkpt lat="48.37078" lon="2.77729">
        <ele>96</ele>
        <time>2019-02-03T16:03:29Z</time>
      </trkpt>
      <trkpt lat="48.37078" lon="2.77738">
        <ele>96</ele>
        <time>2019-02-03T16:03:33Z</time>
      </trkpt>
      <trkpt lat="48.37077" lon="2.77745">
        <ele>96</ele>
        <time>2019-02-03T16:03:37Z</time>
      </trkpt>
      <trkpt lat="48.37078" lon="2.77768">
        <ele>96</ele>
        <time>2019-02-03T16:03:49Z</time>
      </trkpt>
      <trkpt lat="48.37084" lon="2.77797">
        <ele>96</ele>
        <time>2019-02-03T16:04:06Z</time>
      </trkpt>
      <trkpt lat="48.37089" lon="2.77813">
        <ele>95</ele>
        <time>2019-02-03T16:04:16Z</time>
      </trkpt>
      <trkpt lat="48.37091" lon="2.77827">
        <ele>95</ele>
        <time>2019-02-03T16:04:23Z</time>
      </trkpt>
      <trkpt lat="48.37099" lon="2.77855">
        <ele>95</ele>
        <time>2019-02-03T16:04:36Z</time>
      </trkpt>
      <trkpt lat="48.37106" lon="2.77893">
        <ele>95</ele>
        <time>2019-02-03T16:04:56Z</time>
      </trkpt>
      <trkpt lat="48.37105" lon="2.77901">
        <ele>96</ele>
        <time>2019-02-03T16:05:00Z</time>
      </trkpt>
      <trkpt lat="48.37108" lon="2.77915">
        <ele>96</ele>
        <time>2019-02-03T16:05:08Z</time>
      </trkpt>
      <trkpt lat="48.37112" lon="2.77922">
        <ele>96</ele>
        <time>2019-02-03T16:05:14Z</time>
      </trkpt>
      <trkpt lat="48.37114" lon="2.7793">
        <ele>96</ele>
        <time>2019-02-03T16:05:19Z</time>
      </trkpt>
      <trkpt lat="48.37133" lon="2.77982">
        <ele>96</ele>
        <time>2019-02-03T16:05:47Z</time>
      </trkpt>
      <trkpt lat="48.37145" lon="2.78046">
        <ele>96</ele>
        <time>2019-02-03T16:06:18Z</time>
      </trkpt>
      <trkpt lat="48.3715" lon="2.78068">
        <ele>96</ele>
        <time>2019-02-03T16:06:29Z</time>
      </trkpt>
      <trkpt lat="48.37158" lon="2.78104">
        <ele>95</ele>
        <time>2019-02-03T16:06:47Z</time>
      </trkpt>
      <trkpt lat="48.3716" lon="2.78111">
        <ele>95</ele>
        <time>2019-02-03T16:06:50Z</time>
      </trkpt>
      <trkpt lat="48.37162" lon="2.7812">
        <ele>95</ele>
        <time>2019-02-03T16:06:56Z</time>
      </trkpt>
      <trkpt lat="48.37166" lon="2.7813">
        <ele>95</ele>
        <time>2019-02-03T16:07:05Z</time>
      </trkpt>
      <trkpt lat="48.37168" lon="2.78149">
        <ele>96</ele>
        <time>2019-02-03T16:07:19Z</time>
      </trkpt>
      <trkpt lat="48.37169" lon="2.78156">
        <ele>95</ele>
        <time>2019-02-03T16:07:23Z</time>
      </trkpt>
      <trkpt lat="48.3717" lon="2.78162">
        <ele>95</ele>
        <time>2019-02-03T16:07:34Z</time>
      </trkpt>
      <trkpt lat="48.37173" lon="2.78168">
        <ele>95</ele>
        <time>2019-02-03T16:07:40Z</time>
      </trkpt>
      <trkpt lat="48.3717" lon="2.78174">
        <ele>95</ele>
        <time>2019-02-03T16:07:52Z</time>
      </trkpt>
      <trkpt lat="48.37168" lon="2.78186">
        <ele>95</ele>
        <time>2019-02-03T16:08:10Z</time>
      </trkpt>
      <trkpt lat="48.37172" lon="2.78196">
        <ele>96</ele>
        <time>2019-02-03T16:09:10Z</time>
      </trkpt>
      <trkpt lat="48.3718" lon="2.78207">
        <ele>96</ele>
        <time>2019-02-03T16:09:21Z</time>
      </trkpt>
      <trkpt lat="48.37201" lon="2.78252">
        <ele>96</ele>
        <time>2019-02-03T16:09:51Z</time>
      </trkpt>
      <trkpt lat="48.37206" lon="2.78269">
        <ele>96</ele>
        <time>2019-02-03T16:10:01Z</time>
      </trkpt>
      <trkpt lat="48.37217" lon="2.78288">
        <ele>96</ele>
        <time>2019-02-03T16:10:17Z</time>
      </trkpt>
      <trkpt lat="48.3722" lon="2.78293">
        <ele>96</ele>
        <time>2019-02-03T16:10:20Z</time>
      </trkpt>
      <trkpt lat="48.37221" lon="2.783">
        <ele>96</ele>
        <time>2019-02-03T16:10:24Z</time>
      </trkpt>
      <trkpt lat="48.37226" lon="2.78304">
        <ele>97</ele>
        <time>2019-02-03T16:10:29Z</time>
      </trkpt>
      <trkpt lat="48.37227" lon="2.78311">
        <ele>97</ele>
        <time>2019-02-03T16:10:34Z</time>
      </trkpt>
      <trkpt lat="48.37229" lon="2.78317">
        <ele>97</ele>
        <time>2019-02-03T16:10:37Z</time>
      </trkpt>
      <trkpt lat="48.37232" lon="2.78325">
        <ele>97</ele>
        <time>2019-02-03T16:10:41Z</time>
      </trkpt>
      <trkpt lat="48.37245" lon="2.78338">
        <ele>98</ele>
        <time>2019-02-03T16:10:55Z</time>
      </trkpt>
      <trkpt lat="48.37264" lon="2.78365">
        <ele>99</ele>
        <time>2019-02-03T16:11:14Z</time>
      </trkpt>
      <trkpt lat="48.3727" lon="2.78385">
        <ele>100</ele>
        <time>2019-02-03T16:11:27Z</time>
      </trkpt>
      <trkpt lat="48.37272" lon="2.78393">
        <ele>100</ele>
        <time>2019-02-03T16:11:32Z</time>
      </trkpt>
      <trkpt lat="48.3728" lon="2.78406">
        <ele>100</ele>
        <time>2019-02-03T16:11:40Z</time>
      </trkpt>
      <trkpt lat="48.37282" lon="2.78413">
        <ele>99</ele>
        <time>2019-02-03T16:11:43Z</time>
      </trkpt>
      <trkpt lat="48.37285" lon="2.78444">
        <ele>99</ele>
        <time>2019-02-03T16:11:59Z</time>
      </trkpt>
      <trkpt lat="48.37284" lon="2.78452">
        <ele>99</ele>
        <time>2019-02-03T16:12:02Z</time>
      </trkpt>
      <trkpt lat="48.37287" lon="2.78474">
        <ele>99</ele>
        <time>2019-02-03T16:12:13Z</time>
      </trkpt>
      <trkpt lat="48.37292" lon="2.78495">
        <ele>99</ele>
        <time>2019-02-03T16:12:25Z</time>
      </trkpt>
      <trkpt lat="48.37291" lon="2.78504">
        <ele>99</ele>
        <time>2019-02-03T16:12:29Z</time>
      </trkpt>
      <trkpt lat="48.37292" lon="2.78511">
        <ele>99</ele>
        <time>2019-02-03T16:12:33Z</time>
      </trkpt>
      <trkpt lat="48.3731" lon="2.7856">
        <ele>99</ele>
        <time>2019-02-03T16:13:01Z</time>
      </trkpt>
      <trkpt lat="48.37313" lon="2.78582">
        <ele>100</ele>
        <time>2019-02-03T16:13:12Z</time>
      </trkpt>
      <trkpt lat="48.37312" lon="2.78589">
        <ele>100</ele>
        <time>2019-02-03T16:13:15Z</time>
      </trkpt>
      <trkpt lat="48.37319" lon="2.78616">
        <ele>100</ele>
        <time>2019-02-03T16:13:30Z</time>
      </trkpt>
      <trkpt lat="48.37319" lon="2.78632">
        <ele>100</ele>
        <time>2019-02-03T16:13:37Z</time>
      </trkpt>
      <trkpt lat="48.37323" lon="2.78648">
        <ele>100</ele>
        <time>2019-02-03T16:13:46Z</time>
      </trkpt>
      <trkpt lat="48.37325" lon="2.78654">
        <ele>100</ele>
        <time>2019-02-03T16:13:51Z</time>
      </trkpt>
      <trkpt lat="48.3733" lon="2.78676">
        <ele>100</ele>
        <time>2019-02-03T16:14:03Z</time>
      </trkpt>
      <trkpt lat="48.37334" lon="2.78681">
        <ele>100</ele>
        <time>2019-02-03T16:14:07Z</time>
      </trkpt>
      <trkpt lat="48.37337" lon="2.78688">
        <ele>101</ele>
        <time>2019-02-03T16:14:11Z</time>
      </trkpt>
      <trkpt lat="48.37338" lon="2.78703">
        <ele>101</ele>
        <time>2019-02-03T16:14:18Z</time>
      </trkpt>
      <trkpt lat="48.37346" lon="2.78725">
        <ele>101</ele>
        <time>2019-02-03T16:14:29Z</time>
      </trkpt>
      <trkpt lat="48.37345" lon="2.78732">
        <ele>101</ele>
        <time>2019-02-03T16:14:32Z</time>
      </trkpt>
      <trkpt lat="48.37343" lon="2.7874">
        <ele>101</ele>
        <time>2019-02-03T16:14:36Z</time>
      </trkpt>
      <trkpt lat="48.37336" lon="2.78752">
        <ele>99</ele>
        <time>2019-02-03T16:14:44Z</time>
      </trkpt>
      <trkpt lat="48.37345" lon="2.78789">
        <ele>98</ele>
        <time>2019-02-03T16:15:02Z</time>
      </trkpt>
      <trkpt lat="48.37347" lon="2.78789">
        <ele>101</ele>
        <time>2019-02-03T16:15:17Z</time>
      </trkpt>
      <trkpt lat="48.37352" lon="2.78786">
        <ele>101</ele>
        <time>2019-02-03T16:15:22Z</time>
      </trkpt>
      <trkpt lat="48.37357" lon="2.78789">
        <ele>102</ele>
        <time>2019-02-03T16:15:26Z</time>
      </trkpt>
      <trkpt lat="48.37362" lon="2.78792">
        <ele>102</ele>
        <time>2019-02-03T16:15:30Z</time>
      </trkpt>
      <trkpt lat="48.37393" lon="2.78834">
        <ele>101</ele>
        <time>2019-02-03T16:16:01Z</time>
      </trkpt>
      <trkpt lat="48.37411" lon="2.78862">
        <ele>101</ele>
        <time>2019-02-03T16:16:20Z</time>
      </trkpt>
      <trkpt lat="48.37426" lon="2.78896">
        <ele>101</ele>
        <time>2019-02-03T16:16:40Z</time>
      </trkpt>
      <trkpt lat="48.37437" lon="2.78914">
        <ele>100</ele>
        <time>2019-02-03T16:16:53Z</time>
      </trkpt>
      <trkpt lat="48.37462" lon="2.78954">
        <ele>100</ele>
        <time>2019-02-03T16:17:21Z</time>
      </trkpt>
      <trkpt lat="48.37466" lon="2.78959">
        <ele>99</ele>
        <time>2019-02-03T16:17:25Z</time>
      </trkpt>
      <trkpt lat="48.37475" lon="2.78977">
        <ele>99</ele>
        <time>2019-02-03T16:17:35Z</time>
      </trkpt>
      <trkpt lat="48.37483" lon="2.78986">
        <ele>99</ele>
        <time>2019-02-03T16:17:42Z</time>
      </trkpt>
      <trkpt lat="48.37486" lon="2.78992">
        <ele>99</ele>
        <time>2019-02-03T16:17:47Z</time>
      </trkpt>
      <trkpt lat="48.37488" lon="2.78998">
        <ele>99</ele>
        <time>2019-02-03T16:17:51Z</time>
      </trkpt>
      <trkpt lat="48.37499" lon="2.79015">
        <ele>98</ele>
        <time>2019-02-03T16:18:02Z</time>
      </trkpt>
      <trkpt lat="48.37502" lon="2.79025">
        <ele>98</ele>
        <time>2019-02-03T16:18:10Z</time>
      </trkpt>
      <trkpt lat="48.37505" lon="2.79031">
        <ele>98</ele>
        <time>2019-02-03T16:18:14Z</time>
      </trkpt>
      <trkpt lat="48.37521" lon="2.7905">
        <ele>98</ele>
        <time>2019-02-03T16:18:27Z</time>
      </trkpt>
      <trkpt lat="48.37524" lon="2.79057">
        <ele>97</ele>
        <time>2019-02-03T16:18:31Z</time>
      </trkpt>
      <trkpt lat="48.37531" lon="2.79068">
        <ele>97</ele>
        <time>2019-02-03T16:18:38Z</time>
      </trkpt>
      <trkpt lat="48.37537" lon="2.79082">
        <ele>97</ele>
        <time>2019-02-03T16:18:46Z</time>
      </trkpt>
      <trkpt lat="48.37555" lon="2.7911">
        <ele>95</ele>
        <time>2019-02-03T16:19:06Z</time>
      </trkpt>
      <trkpt lat="48.37554" lon="2.79119">
        <ele>95</ele>
        <time>2019-02-03T16:19:10Z</time>
      </trkpt>
      <trkpt lat="48.37542" lon="2.79134">
        <ele>96</ele>
        <time>2019-02-03T16:19:20Z</time>
      </trkpt>
      <trkpt lat="48.37536" lon="2.79154">
        <ele>96</ele>
        <time>2019-02-03T16:19:31Z</time>
      </trkpt>
      <trkpt lat="48.37535" lon="2.79162">
        <ele>96</ele>
        <time>2019-02-03T16:19:35Z</time>
      </trkpt>
      <trkpt lat="48.37536" lon="2.79169">
        <ele>96</ele>
        <time>2019-02-03T16:19:39Z</time>
      </trkpt>
      <trkpt lat="48.37548" lon="2.79195">
        <ele>96</ele>
        <time>2019-02-03T16:19:56Z</time>
      </trkpt>
      <trkpt lat="48.37556" lon="2.79222">
        <ele>97</ele>
        <time>2019-02-03T16:20:13Z</time>
      </trkpt>
      <trkpt lat="48.37563" lon="2.79234">
        <ele>97</ele>
        <time>2019-02-03T16:20:21Z</time>
      </trkpt>
      <trkpt lat="48.37583" lon="2.79258">
        <ele>96</ele>
        <time>2019-02-03T16:20:41Z</time>
      </trkpt>
      <trkpt lat="48.3759" lon="2.79269">
        <ele>96</ele>
        <time>2019-02-03T16:20:47Z</time>
      </trkpt>
      <trkpt lat="48.37594" lon="2.79282">
        <ele>96</ele>
        <time>2019-02-03T16:20:54Z</time>
      </trkpt>
      <trkpt lat="48.37595" lon="2.7929">
        <ele>96</ele>
        <time>2019-02-03T16:20:59Z</time>
      </trkpt>
      <trkpt lat="48.37609" lon="2.79309">
        <ele>96</ele>
        <time>2019-02-03T16:21:14Z</time>
      </trkpt>
      <trkpt lat="48.37618" lon="2.79315">
        <ele>95</ele>
        <time>2019-02-03T16:21:22Z</time>
      </trkpt>
      <trkpt lat="48.37622" lon="2.79321">
        <ele>95</ele>
        <time>2019-02-03T16:21:29Z</time>
      </trkpt>
      <trkpt lat="48.37627" lon="2.79324">
        <ele>95</ele>
        <time>2019-02-03T16:21:33Z</time>
      </trkpt>
      <trkpt lat="48.37637" lon="2.79327">
        <ele>95</ele>
        <time>2019-02-03T16:21:40Z</time>
      </trkpt>
      <trkpt lat="48.3766" lon="2.79349">
        <ele>94</ele>
        <time>2019-02-03T16:21:57Z</time>
      </trkpt>
      <trkpt lat="48.37664" lon="2.79352">
        <ele>94</ele>
        <time>2019-02-03T16:22:00Z</time>
      </trkpt>
      <trkpt lat="48.37667" lon="2.7936">
        <ele>94</ele>
        <time>2019-02-03T16:22:05Z</time>
      </trkpt>
      <trkpt lat="48.37704" lon="2.79402">
        <ele>92</ele>
        <time>2019-02-03T16:22:38Z</time>
      </trkpt>
      <trkpt lat="48.37708" lon="2.79407">
        <ele>91</ele>
        <time>2019-02-03T16:22:42Z</time>
      </trkpt>
      <trkpt lat="48.37709" lon="2.79415">
        <ele>91</ele>
        <time>2019-02-03T16:22:46Z</time>
      </trkpt>
      <trkpt lat="48.37709" lon="2.79439">
        <ele>91</ele>
        <time>2019-02-03T16:22:58Z</time>
      </trkpt>
      <trkpt lat="48.37711" lon="2.79448">
        <ele>91</ele>
        <time>2019-02-03T16:23:05Z</time>
      </trkpt>
      <trkpt lat="48.37715" lon="2.79453">
        <ele>91</ele>
        <time>2019-02-03T16:23:09Z</time>
      </trkpt>
      <trkpt lat="48.37719" lon="2.79457">
        <ele>91</ele>
        <time>2019-02-03T16:23:13Z</time>
      </trkpt>
      <trkpt lat="48.37724" lon="2.79458">
        <ele>92</ele>
        <time>2019-02-03T16:23:18Z</time>
      </trkpt>
      <trkpt lat="48.3774" lon="2.7947">
        <ele>91</ele>
        <time>2019-02-03T16:23:35Z</time>
      </trkpt>
      <trkpt lat="48.3775" lon="2.7948">
        <ele>91</ele>
        <time>2019-02-03T16:23:44Z</time>
      </trkpt>
      <trkpt lat="48.37753" lon="2.79486">
        <ele>91</ele>
        <time>2019-02-03T16:23:49Z</time>
      </trkpt>
      <trkpt lat="48.37787" lon="2.79519">
        <ele>89</ele>
        <time>2019-02-03T16:24:20Z</time>
      </trkpt>
      <trkpt lat="48.37806" lon="2.79542">
        <ele>88</ele>
        <time>2019-02-03T16:24:38Z</time>
      </trkpt>
      <trkpt lat="48.37809" lon="2.79548">
        <ele>88</ele>
        <time>2019-02-03T16:24:42Z</time>
      </trkpt>
      <trkpt lat="48.37818" lon="2.79557">
        <ele>87</ele>
        <time>2019-02-03T16:24:50Z</time>
      </trkpt>
      <trkpt lat="48.37831" lon="2.7958">
        <ele>86</ele>
        <time>2019-02-03T16:25:07Z</time>
      </trkpt>
      <trkpt lat="48.3784" lon="2.79588">
        <ele>86</ele>
        <time>2019-02-03T16:25:16Z</time>
      </trkpt>
      <trkpt lat="48.37843" lon="2.79595">
        <ele>86</ele>
        <time>2019-02-03T16:25:20Z</time>
      </trkpt>
      <trkpt lat="48.37874" lon="2.7964">
        <ele>83</ele>
        <time>2019-02-03T16:25:53Z</time>
      </trkpt>
      <trkpt lat="48.37887" lon="2.79654">
        <ele>83</ele>
        <time>2019-02-03T16:26:05Z</time>
      </trkpt>
      <trkpt lat="48.3789" lon="2.7966">
        <ele>83</ele>
        <time>2019-02-03T16:26:09Z</time>
      </trkpt>
      <trkpt lat="48.37917" lon="2.79689">
        <ele>84</ele>
        <time>2019-02-03T16:26:38Z</time>
      </trkpt>
      <trkpt lat="48.37921" lon="2.79692">
        <ele>85</ele>
        <time>2019-02-03T16:26:43Z</time>
      </trkpt>
      <trkpt lat="48.3793" lon="2.797">
        <ele>85</ele>
        <time>2019-02-03T16:26:52Z</time>
      </trkpt>
      <trkpt lat="48.37939" lon="2.7971">
        <ele>83</ele>
        <time>2019-02-03T16:27:02Z</time>
      </trkpt>
      <trkpt lat="48.3793" lon="2.79735">
        <ele>79</ele>
        <time>2019-02-03T16:27:23Z</time>
      </trkpt>
      <trkpt lat="48.37911" lon="2.79781">
        <ele>77</ele>
        <time>2019-02-03T16:27:52Z</time>
      </trkpt>
      <trkpt lat="48.37907" lon="2.79787">
        <ele>77</ele>
        <time>2019-02-03T16:27:56Z</time>
      </trkpt>
      <trkpt lat="48.37901" lon="2.79808">
        <ele>77</ele>
        <time>2019-02-03T16:28:09Z</time>
      </trkpt>
      <trkpt lat="48.37899" lon="2.79825">
        <ele>77</ele>
        <time>2019-02-03T16:28:18Z</time>
      </trkpt>
      <trkpt lat="48.37894" lon="2.79838">
        <ele>77</ele>
        <time>2019-02-03T16:28:26Z</time>
      </trkpt>
      <trkpt lat="48.3789" lon="2.79869">
        <ele>77</ele>
        <time>2019-02-03T16:28:42Z</time>
      </trkpt>
      <trkpt lat="48.37875" lon="2.79911">
        <ele>77</ele>
        <time>2019-02-03T16:29:06Z</time>
      </trkpt>
      <trkpt lat="48.37874" lon="2.79922">
        <ele>77</ele>
        <time>2019-02-03T16:29:17Z</time>
      </trkpt>
      <trkpt lat="48.37856" lon="2.79907">
        <ele>74</ele>
        <time>2019-02-03T16:29:56Z</time>
      </trkpt>
      <trkpt lat="48.37856" lon="2.79914">
        <ele>77</ele>
        <time>2019-02-03T16:30:06Z</time>
      </trkpt>
    </trkseg>
  </trk>
</gpx>